<?xml version="1.0" encoding="UTF-8" standalone="no" ?>
<gpx xmlns="http://www.topografix.com/GPX/1/1" xmlns:xsi="http://www.w3.org/2001/XMLSchema-instance" xsi:schemaLocation="http://www.topografix.com/GPX/1/1 http://www.topografix.com/GPX/1/1/gpx.xsd" version="1.1" creator="VisuGPX - https://www.visugpx.com">
  <metadata>
    <name>sortie GR du 13/01/12</name>
    <desc><![CDATA[séance du vendredi (sans Nini)]]></desc>
  </metadata>
  <trk>
    <name><![CDATA[2012-01-13T18:11:06Z]]></name>
    <trkseg>
      <trkpt lat="45.83464" lon="4.82354">
        <ele>253</ele>
        <time>2012-01-13T18:11:06Z</time>
      </trkpt>
      <trkpt lat="45.83463" lon="4.82351">
        <ele>253</ele>
        <time>2012-01-13T18:11:11Z</time>
      </trkpt>
      <trkpt lat="45.83456" lon="4.82339">
        <ele>255</ele>
        <time>2012-01-13T18:11:18Z</time>
      </trkpt>
      <trkpt lat="45.83453" lon="4.82335">
        <ele>255</ele>
        <time>2012-01-13T18:11:20Z</time>
      </trkpt>
      <trkpt lat="45.83448" lon="4.8233">
        <ele>253</ele>
        <time>2012-01-13T18:11:23Z</time>
      </trkpt>
      <trkpt lat="45.83441" lon="4.82315">
        <ele>253</ele>
        <time>2012-01-13T18:11:29Z</time>
      </trkpt>
      <trkpt lat="45.83432" lon="4.82304">
        <ele>253</ele>
        <time>2012-01-13T18:11:34Z</time>
      </trkpt>
      <trkpt lat="45.83426" lon="4.823">
        <ele>253</ele>
        <time>2012-01-13T18:11:37Z</time>
      </trkpt>
      <trkpt lat="45.83422" lon="4.82298">
        <ele>253</ele>
        <time>2012-01-13T18:11:39Z</time>
      </trkpt>
      <trkpt lat="45.83412" lon="4.82294">
        <ele>269</ele>
        <time>2012-01-13T18:11:44Z</time>
      </trkpt>
      <trkpt lat="45.8341" lon="4.82293">
        <ele>269</ele>
        <time>2012-01-13T18:11:45Z</time>
      </trkpt>
      <trkpt lat="45.83409" lon="4.82292">
        <ele>269</ele>
        <time>2012-01-13T18:11:46Z</time>
      </trkpt>
      <trkpt lat="45.83405" lon="4.82291">
        <ele>269</ele>
        <time>2012-01-13T18:11:48Z</time>
      </trkpt>
      <trkpt lat="45.83404" lon="4.8229">
        <ele>269</ele>
        <time>2012-01-13T18:11:49Z</time>
      </trkpt>
      <trkpt lat="45.83394" lon="4.8228">
        <ele>269</ele>
        <time>2012-01-13T18:11:55Z</time>
      </trkpt>
      <trkpt lat="45.83393" lon="4.82277">
        <ele>269</ele>
        <time>2012-01-13T18:11:56Z</time>
      </trkpt>
      <trkpt lat="45.83387" lon="4.82268">
        <ele>269</ele>
        <time>2012-01-13T18:12:00Z</time>
      </trkpt>
      <trkpt lat="45.83381" lon="4.82259">
        <ele>270</ele>
        <time>2012-01-13T18:12:05Z</time>
      </trkpt>
      <trkpt lat="45.83379" lon="4.82257">
        <ele>270</ele>
        <time>2012-01-13T18:12:06Z</time>
      </trkpt>
      <trkpt lat="45.83378" lon="4.82255">
        <ele>271</ele>
        <time>2012-01-13T18:12:07Z</time>
      </trkpt>
      <trkpt lat="45.83374" lon="4.82249">
        <ele>262</ele>
        <time>2012-01-13T18:12:10Z</time>
      </trkpt>
      <trkpt lat="45.83373" lon="4.82247">
        <ele>262</ele>
        <time>2012-01-13T18:12:11Z</time>
      </trkpt>
      <trkpt lat="45.83366" lon="4.82238">
        <ele>263</ele>
        <time>2012-01-13T18:12:15Z</time>
      </trkpt>
      <trkpt lat="45.83364" lon="4.82237">
        <ele>264</ele>
        <time>2012-01-13T18:12:16Z</time>
      </trkpt>
      <trkpt lat="45.83355" lon="4.82226">
        <ele>264</ele>
        <time>2012-01-13T18:12:22Z</time>
      </trkpt>
      <trkpt lat="45.8335" lon="4.82221">
        <ele>264</ele>
        <time>2012-01-13T18:12:25Z</time>
      </trkpt>
      <trkpt lat="45.83348" lon="4.82218">
        <ele>264</ele>
        <time>2012-01-13T18:12:27Z</time>
      </trkpt>
      <trkpt lat="45.83337" lon="4.82203">
        <ele>262</ele>
        <time>2012-01-13T18:12:34Z</time>
      </trkpt>
      <trkpt lat="45.83337" lon="4.82201">
        <ele>262</ele>
        <time>2012-01-13T18:12:35Z</time>
      </trkpt>
      <trkpt lat="45.83329" lon="4.82189">
        <ele>275</ele>
        <time>2012-01-13T18:12:41Z</time>
      </trkpt>
      <trkpt lat="45.83322" lon="4.82183">
        <ele>274</ele>
        <time>2012-01-13T18:12:45Z</time>
      </trkpt>
      <trkpt lat="45.83321" lon="4.82182">
        <ele>274</ele>
        <time>2012-01-13T18:12:46Z</time>
      </trkpt>
      <trkpt lat="45.83311" lon="4.82174">
        <ele>276</ele>
        <time>2012-01-13T18:12:52Z</time>
      </trkpt>
      <trkpt lat="45.83306" lon="4.82169">
        <ele>277</ele>
        <time>2012-01-13T18:12:55Z</time>
      </trkpt>
      <trkpt lat="45.83304" lon="4.82165">
        <ele>267</ele>
        <time>2012-01-13T18:12:57Z</time>
      </trkpt>
      <trkpt lat="45.83297" lon="4.82158">
        <ele>268</ele>
        <time>2012-01-13T18:13:02Z</time>
      </trkpt>
      <trkpt lat="45.83291" lon="4.82151">
        <ele>269</ele>
        <time>2012-01-13T18:13:06Z</time>
      </trkpt>
      <trkpt lat="45.83287" lon="4.82147">
        <ele>270</ele>
        <time>2012-01-13T18:13:08Z</time>
      </trkpt>
      <trkpt lat="45.83279" lon="4.8214">
        <ele>271</ele>
        <time>2012-01-13T18:13:14Z</time>
      </trkpt>
      <trkpt lat="45.83274" lon="4.82136">
        <ele>271</ele>
        <time>2012-01-13T18:13:17Z</time>
      </trkpt>
      <trkpt lat="45.83269" lon="4.82131">
        <ele>271</ele>
        <time>2012-01-13T18:13:20Z</time>
      </trkpt>
      <trkpt lat="45.83265" lon="4.82126">
        <ele>271</ele>
        <time>2012-01-13T18:13:22Z</time>
      </trkpt>
      <trkpt lat="45.83259" lon="4.82122">
        <ele>271</ele>
        <time>2012-01-13T18:13:25Z</time>
      </trkpt>
      <trkpt lat="45.8325" lon="4.82111">
        <ele>289</ele>
        <time>2012-01-13T18:13:31Z</time>
      </trkpt>
      <trkpt lat="45.83245" lon="4.82106">
        <ele>288</ele>
        <time>2012-01-13T18:13:34Z</time>
      </trkpt>
      <trkpt lat="45.83241" lon="4.82102">
        <ele>287</ele>
        <time>2012-01-13T18:13:36Z</time>
      </trkpt>
      <trkpt lat="45.83231" lon="4.82093">
        <ele>288</ele>
        <time>2012-01-13T18:13:41Z</time>
      </trkpt>
      <trkpt lat="45.83229" lon="4.82092">
        <ele>288</ele>
        <time>2012-01-13T18:13:42Z</time>
      </trkpt>
      <trkpt lat="45.83221" lon="4.82086">
        <ele>291</ele>
        <time>2012-01-13T18:13:47Z</time>
      </trkpt>
      <trkpt lat="45.83213" lon="4.82078">
        <ele>284</ele>
        <time>2012-01-13T18:13:52Z</time>
      </trkpt>
      <trkpt lat="45.83206" lon="4.82066">
        <ele>285</ele>
        <time>2012-01-13T18:13:58Z</time>
      </trkpt>
      <trkpt lat="45.83203" lon="4.8206">
        <ele>285</ele>
        <time>2012-01-13T18:14:00Z</time>
      </trkpt>
      <trkpt lat="45.83201" lon="4.82058">
        <ele>285</ele>
        <time>2012-01-13T18:14:01Z</time>
      </trkpt>
      <trkpt lat="45.83199" lon="4.82055">
        <ele>286</ele>
        <time>2012-01-13T18:14:02Z</time>
      </trkpt>
      <trkpt lat="45.83198" lon="4.82043">
        <ele>285</ele>
        <time>2012-01-13T18:14:06Z</time>
      </trkpt>
      <trkpt lat="45.83195" lon="4.82034">
        <ele>284</ele>
        <time>2012-01-13T18:14:10Z</time>
      </trkpt>
      <trkpt lat="45.83194" lon="4.82034">
        <ele>284</ele>
        <time>2012-01-13T18:14:11Z</time>
      </trkpt>
      <trkpt lat="45.83192" lon="4.82033">
        <ele>285</ele>
        <time>2012-01-13T18:14:13Z</time>
      </trkpt>
      <trkpt lat="45.83191" lon="4.82034">
        <ele>285</ele>
        <time>2012-01-13T18:14:14Z</time>
      </trkpt>
      <trkpt lat="45.83189" lon="4.82039">
        <ele>286</ele>
        <time>2012-01-13T18:14:17Z</time>
      </trkpt>
      <trkpt lat="45.8319" lon="4.82043">
        <ele>286</ele>
        <time>2012-01-13T18:14:19Z</time>
      </trkpt>
      <trkpt lat="45.83193" lon="4.82055">
        <ele>287</ele>
        <time>2012-01-13T18:14:24Z</time>
      </trkpt>
      <trkpt lat="45.83195" lon="4.82065">
        <ele>288</ele>
        <time>2012-01-13T18:14:28Z</time>
      </trkpt>
      <trkpt lat="45.83197" lon="4.82071">
        <ele>288</ele>
        <time>2012-01-13T18:14:30Z</time>
      </trkpt>
      <trkpt lat="45.83201" lon="4.8208">
        <ele>287</ele>
        <time>2012-01-13T18:14:34Z</time>
      </trkpt>
      <trkpt lat="45.83204" lon="4.8209">
        <ele>297</ele>
        <time>2012-01-13T18:14:38Z</time>
      </trkpt>
      <trkpt lat="45.83206" lon="4.82092">
        <ele>297</ele>
        <time>2012-01-13T18:14:39Z</time>
      </trkpt>
      <trkpt lat="45.8321" lon="4.82106">
        <ele>297</ele>
        <time>2012-01-13T18:14:44Z</time>
      </trkpt>
      <trkpt lat="45.8321" lon="4.82108">
        <ele>297</ele>
        <time>2012-01-13T18:14:45Z</time>
      </trkpt>
      <trkpt lat="45.83217" lon="4.82121">
        <ele>297</ele>
        <time>2012-01-13T18:14:51Z</time>
      </trkpt>
      <trkpt lat="45.83222" lon="4.82128">
        <ele>297</ele>
        <time>2012-01-13T18:14:55Z</time>
      </trkpt>
      <trkpt lat="45.83226" lon="4.82132">
        <ele>296</ele>
        <time>2012-01-13T18:14:57Z</time>
      </trkpt>
      <trkpt lat="45.83228" lon="4.82134">
        <ele>296</ele>
        <time>2012-01-13T18:14:58Z</time>
      </trkpt>
      <trkpt lat="45.83232" lon="4.82142">
        <ele>296</ele>
        <time>2012-01-13T18:15:02Z</time>
      </trkpt>
      <trkpt lat="45.83235" lon="4.82147">
        <ele>295</ele>
        <time>2012-01-13T18:15:05Z</time>
      </trkpt>
      <trkpt lat="45.83238" lon="4.82152">
        <ele>294</ele>
        <time>2012-01-13T18:15:07Z</time>
      </trkpt>
      <trkpt lat="45.83245" lon="4.82159">
        <ele>292</ele>
        <time>2012-01-13T18:15:11Z</time>
      </trkpt>
      <trkpt lat="45.83249" lon="4.82166">
        <ele>289</ele>
        <time>2012-01-13T18:15:15Z</time>
      </trkpt>
      <trkpt lat="45.83251" lon="4.82168">
        <ele>289</ele>
        <time>2012-01-13T18:15:16Z</time>
      </trkpt>
      <trkpt lat="45.83256" lon="4.82179">
        <ele>288</ele>
        <time>2012-01-13T18:15:21Z</time>
      </trkpt>
      <trkpt lat="45.8326" lon="4.82188">
        <ele>288</ele>
        <time>2012-01-13T18:15:25Z</time>
      </trkpt>
      <trkpt lat="45.83263" lon="4.82198">
        <ele>289</ele>
        <time>2012-01-13T18:15:29Z</time>
      </trkpt>
      <trkpt lat="45.83264" lon="4.822">
        <ele>289</ele>
        <time>2012-01-13T18:15:30Z</time>
      </trkpt>
      <trkpt lat="45.8327" lon="4.82209">
        <ele>290</ele>
        <time>2012-01-13T18:15:34Z</time>
      </trkpt>
      <trkpt lat="45.83272" lon="4.82211">
        <ele>290</ele>
        <time>2012-01-13T18:15:35Z</time>
      </trkpt>
      <trkpt lat="45.83275" lon="4.82219">
        <ele>291</ele>
        <time>2012-01-13T18:15:39Z</time>
      </trkpt>
      <trkpt lat="45.83276" lon="4.82221">
        <ele>291</ele>
        <time>2012-01-13T18:15:40Z</time>
      </trkpt>
      <trkpt lat="45.83282" lon="4.8223">
        <ele>291</ele>
        <time>2012-01-13T18:15:45Z</time>
      </trkpt>
      <trkpt lat="45.83288" lon="4.82238">
        <ele>291</ele>
        <time>2012-01-13T18:15:50Z</time>
      </trkpt>
      <trkpt lat="45.83296" lon="4.82249">
        <ele>289</ele>
        <time>2012-01-13T18:15:56Z</time>
      </trkpt>
      <trkpt lat="45.83305" lon="4.82257">
        <ele>297</ele>
        <time>2012-01-13T18:16:01Z</time>
      </trkpt>
      <trkpt lat="45.83312" lon="4.82262">
        <ele>295</ele>
        <time>2012-01-13T18:16:04Z</time>
      </trkpt>
      <trkpt lat="45.83314" lon="4.82266">
        <ele>295</ele>
        <time>2012-01-13T18:16:06Z</time>
      </trkpt>
      <trkpt lat="45.83322" lon="4.82278">
        <ele>296</ele>
        <time>2012-01-13T18:16:12Z</time>
      </trkpt>
      <trkpt lat="45.83325" lon="4.82281">
        <ele>296</ele>
        <time>2012-01-13T18:16:13Z</time>
      </trkpt>
      <trkpt lat="45.83331" lon="4.82291">
        <ele>297</ele>
        <time>2012-01-13T18:16:17Z</time>
      </trkpt>
      <trkpt lat="45.83336" lon="4.82303">
        <ele>281</ele>
        <time>2012-01-13T18:16:21Z</time>
      </trkpt>
      <trkpt lat="45.83343" lon="4.82314">
        <ele>283</ele>
        <time>2012-01-13T18:16:25Z</time>
      </trkpt>
      <trkpt lat="45.83347" lon="4.82326">
        <ele>285</ele>
        <time>2012-01-13T18:16:29Z</time>
      </trkpt>
      <trkpt lat="45.83347" lon="4.82331">
        <ele>286</ele>
        <time>2012-01-13T18:16:30Z</time>
      </trkpt>
      <trkpt lat="45.83344" lon="4.82344">
        <ele>288</ele>
        <time>2012-01-13T18:16:34Z</time>
      </trkpt>
      <trkpt lat="45.83342" lon="4.82351">
        <ele>287</ele>
        <time>2012-01-13T18:16:36Z</time>
      </trkpt>
      <trkpt lat="45.83338" lon="4.82359">
        <ele>286</ele>
        <time>2012-01-13T18:16:39Z</time>
      </trkpt>
      <trkpt lat="45.83333" lon="4.82372">
        <ele>300</ele>
        <time>2012-01-13T18:16:44Z</time>
      </trkpt>
      <trkpt lat="45.83332" lon="4.82374">
        <ele>300</ele>
        <time>2012-01-13T18:16:45Z</time>
      </trkpt>
      <trkpt lat="45.83328" lon="4.82389">
        <ele>299</ele>
        <time>2012-01-13T18:16:49Z</time>
      </trkpt>
      <trkpt lat="45.83326" lon="4.82401">
        <ele>298</ele>
        <time>2012-01-13T18:16:53Z</time>
      </trkpt>
      <trkpt lat="45.83324" lon="4.82413">
        <ele>295</ele>
        <time>2012-01-13T18:16:57Z</time>
      </trkpt>
      <trkpt lat="45.83323" lon="4.82416">
        <ele>296</ele>
        <time>2012-01-13T18:16:58Z</time>
      </trkpt>
      <trkpt lat="45.8332" lon="4.82425">
        <ele>295</ele>
        <time>2012-01-13T18:17:01Z</time>
      </trkpt>
      <trkpt lat="45.83319" lon="4.82428">
        <ele>295</ele>
        <time>2012-01-13T18:17:02Z</time>
      </trkpt>
      <trkpt lat="45.83318" lon="4.82431">
        <ele>296</ele>
        <time>2012-01-13T18:17:03Z</time>
      </trkpt>
      <trkpt lat="45.83312" lon="4.82446">
        <ele>297</ele>
        <time>2012-01-13T18:17:08Z</time>
      </trkpt>
      <trkpt lat="45.83311" lon="4.82448">
        <ele>297</ele>
        <time>2012-01-13T18:17:09Z</time>
      </trkpt>
      <trkpt lat="45.83305" lon="4.8246">
        <ele>297</ele>
        <time>2012-01-13T18:17:13Z</time>
      </trkpt>
      <trkpt lat="45.833" lon="4.82469">
        <ele>297</ele>
        <time>2012-01-13T18:17:17Z</time>
      </trkpt>
      <trkpt lat="45.83297" lon="4.82474">
        <ele>298</ele>
        <time>2012-01-13T18:17:19Z</time>
      </trkpt>
      <trkpt lat="45.83294" lon="4.82484">
        <ele>298</ele>
        <time>2012-01-13T18:17:23Z</time>
      </trkpt>
      <trkpt lat="45.83293" lon="4.82486">
        <ele>298</ele>
        <time>2012-01-13T18:17:24Z</time>
      </trkpt>
      <trkpt lat="45.83291" lon="4.82492">
        <ele>298</ele>
        <time>2012-01-13T18:17:26Z</time>
      </trkpt>
      <trkpt lat="45.8329" lon="4.82495">
        <ele>298</ele>
        <time>2012-01-13T18:17:27Z</time>
      </trkpt>
      <trkpt lat="45.83286" lon="4.82506">
        <ele>294</ele>
        <time>2012-01-13T18:17:31Z</time>
      </trkpt>
      <trkpt lat="45.83283" lon="4.82516">
        <ele>294</ele>
        <time>2012-01-13T18:17:34Z</time>
      </trkpt>
      <trkpt lat="45.83282" lon="4.82519">
        <ele>294</ele>
        <time>2012-01-13T18:17:35Z</time>
      </trkpt>
      <trkpt lat="45.83278" lon="4.82532">
        <ele>294</ele>
        <time>2012-01-13T18:17:39Z</time>
      </trkpt>
      <trkpt lat="45.83278" lon="4.82542">
        <ele>293</ele>
        <time>2012-01-13T18:17:42Z</time>
      </trkpt>
      <trkpt lat="45.83278" lon="4.82545">
        <ele>293</ele>
        <time>2012-01-13T18:17:43Z</time>
      </trkpt>
      <trkpt lat="45.83279" lon="4.82563">
        <ele>293</ele>
        <time>2012-01-13T18:17:48Z</time>
      </trkpt>
      <trkpt lat="45.83279" lon="4.8257">
        <ele>293</ele>
        <time>2012-01-13T18:17:50Z</time>
      </trkpt>
      <trkpt lat="45.83277" lon="4.82584">
        <ele>289</ele>
        <time>2012-01-13T18:17:54Z</time>
      </trkpt>
      <trkpt lat="45.83275" lon="4.82595">
        <ele>289</ele>
        <time>2012-01-13T18:17:57Z</time>
      </trkpt>
      <trkpt lat="45.83272" lon="4.82605">
        <ele>288</ele>
        <time>2012-01-13T18:18:00Z</time>
      </trkpt>
      <trkpt lat="45.83265" lon="4.82619">
        <ele>288</ele>
        <time>2012-01-13T18:18:05Z</time>
      </trkpt>
      <trkpt lat="45.83254" lon="4.82635">
        <ele>287</ele>
        <time>2012-01-13T18:18:12Z</time>
      </trkpt>
      <trkpt lat="45.83252" lon="4.82637">
        <ele>287</ele>
        <time>2012-01-13T18:18:13Z</time>
      </trkpt>
      <trkpt lat="45.83243" lon="4.82647">
        <ele>300</ele>
        <time>2012-01-13T18:18:18Z</time>
      </trkpt>
      <trkpt lat="45.83237" lon="4.82656">
        <ele>299</ele>
        <time>2012-01-13T18:18:22Z</time>
      </trkpt>
      <trkpt lat="45.83233" lon="4.82663">
        <ele>299</ele>
        <time>2012-01-13T18:18:25Z</time>
      </trkpt>
      <trkpt lat="45.83226" lon="4.82676">
        <ele>297</ele>
        <time>2012-01-13T18:18:29Z</time>
      </trkpt>
      <trkpt lat="45.83225" lon="4.82679">
        <ele>297</ele>
        <time>2012-01-13T18:18:30Z</time>
      </trkpt>
      <trkpt lat="45.83224" lon="4.82687">
        <ele>297</ele>
        <time>2012-01-13T18:18:33Z</time>
      </trkpt>
      <trkpt lat="45.83224" lon="4.8269">
        <ele>297</ele>
        <time>2012-01-13T18:18:34Z</time>
      </trkpt>
      <trkpt lat="45.83222" lon="4.82705">
        <ele>297</ele>
        <time>2012-01-13T18:18:38Z</time>
      </trkpt>
      <trkpt lat="45.83221" lon="4.82709">
        <ele>297</ele>
        <time>2012-01-13T18:18:39Z</time>
      </trkpt>
      <trkpt lat="45.83221" lon="4.82715">
        <ele>297</ele>
        <time>2012-01-13T18:18:41Z</time>
      </trkpt>
      <trkpt lat="45.83219" lon="4.82731">
        <ele>296</ele>
        <time>2012-01-13T18:18:46Z</time>
      </trkpt>
      <trkpt lat="45.83216" lon="4.82751">
        <ele>292</ele>
        <time>2012-01-13T18:18:52Z</time>
      </trkpt>
      <trkpt lat="45.83215" lon="4.82758">
        <ele>292</ele>
        <time>2012-01-13T18:18:54Z</time>
      </trkpt>
      <trkpt lat="45.83214" lon="4.82767">
        <ele>292</ele>
        <time>2012-01-13T18:18:57Z</time>
      </trkpt>
      <trkpt lat="45.83212" lon="4.82771">
        <ele>292</ele>
        <time>2012-01-13T18:18:58Z</time>
      </trkpt>
      <trkpt lat="45.83207" lon="4.82783">
        <ele>293</ele>
        <time>2012-01-13T18:19:02Z</time>
      </trkpt>
      <trkpt lat="45.83207" lon="4.82786">
        <ele>293</ele>
        <time>2012-01-13T18:19:03Z</time>
      </trkpt>
      <trkpt lat="45.83208" lon="4.82807">
        <ele>292</ele>
        <time>2012-01-13T18:19:09Z</time>
      </trkpt>
      <trkpt lat="45.83208" lon="4.82811">
        <ele>292</ele>
        <time>2012-01-13T18:19:10Z</time>
      </trkpt>
      <trkpt lat="45.8321" lon="4.82824">
        <ele>291</ele>
        <time>2012-01-13T18:19:14Z</time>
      </trkpt>
      <trkpt lat="45.83207" lon="4.82834">
        <ele>289</ele>
        <time>2012-01-13T18:19:18Z</time>
      </trkpt>
      <trkpt lat="45.83206" lon="4.82836">
        <ele>289</ele>
        <time>2012-01-13T18:19:19Z</time>
      </trkpt>
      <trkpt lat="45.83203" lon="4.82843">
        <ele>289</ele>
        <time>2012-01-13T18:19:22Z</time>
      </trkpt>
      <trkpt lat="45.832" lon="4.8285">
        <ele>289</ele>
        <time>2012-01-13T18:19:24Z</time>
      </trkpt>
      <trkpt lat="45.83197" lon="4.82861">
        <ele>289</ele>
        <time>2012-01-13T18:19:27Z</time>
      </trkpt>
      <trkpt lat="45.83196" lon="4.82867">
        <ele>289</ele>
        <time>2012-01-13T18:19:29Z</time>
      </trkpt>
      <trkpt lat="45.83192" lon="4.82878">
        <ele>289</ele>
        <time>2012-01-13T18:19:33Z</time>
      </trkpt>
      <trkpt lat="45.83191" lon="4.82881">
        <ele>289</ele>
        <time>2012-01-13T18:19:34Z</time>
      </trkpt>
      <trkpt lat="45.83189" lon="4.82887">
        <ele>289</ele>
        <time>2012-01-13T18:19:36Z</time>
      </trkpt>
      <trkpt lat="45.83187" lon="4.82893">
        <ele>289</ele>
        <time>2012-01-13T18:19:38Z</time>
      </trkpt>
      <trkpt lat="45.8318" lon="4.82906">
        <ele>290</ele>
        <time>2012-01-13T18:19:43Z</time>
      </trkpt>
      <trkpt lat="45.83179" lon="4.82909">
        <ele>290</ele>
        <time>2012-01-13T18:19:44Z</time>
      </trkpt>
      <trkpt lat="45.83174" lon="4.82916">
        <ele>291</ele>
        <time>2012-01-13T18:19:47Z</time>
      </trkpt>
      <trkpt lat="45.83166" lon="4.82925">
        <ele>294</ele>
        <time>2012-01-13T18:19:51Z</time>
      </trkpt>
      <trkpt lat="45.83165" lon="4.82928">
        <ele>294</ele>
        <time>2012-01-13T18:19:52Z</time>
      </trkpt>
      <trkpt lat="45.83159" lon="4.82936">
        <ele>295</ele>
        <time>2012-01-13T18:19:56Z</time>
      </trkpt>
      <trkpt lat="45.83155" lon="4.82943">
        <ele>296</ele>
        <time>2012-01-13T18:20:00Z</time>
      </trkpt>
      <trkpt lat="45.83154" lon="4.82946">
        <ele>296</ele>
        <time>2012-01-13T18:20:01Z</time>
      </trkpt>
      <trkpt lat="45.83153" lon="4.82949">
        <ele>296</ele>
        <time>2012-01-13T18:20:02Z</time>
      </trkpt>
      <trkpt lat="45.83152" lon="4.82958">
        <ele>296</ele>
        <time>2012-01-13T18:20:05Z</time>
      </trkpt>
      <trkpt lat="45.83149" lon="4.82975">
        <ele>296</ele>
        <time>2012-01-13T18:20:10Z</time>
      </trkpt>
      <trkpt lat="45.83148" lon="4.82979">
        <ele>296</ele>
        <time>2012-01-13T18:20:11Z</time>
      </trkpt>
      <trkpt lat="45.83147" lon="4.82985">
        <ele>295</ele>
        <time>2012-01-13T18:20:13Z</time>
      </trkpt>
      <trkpt lat="45.83147" lon="4.82993">
        <ele>295</ele>
        <time>2012-01-13T18:20:15Z</time>
      </trkpt>
      <trkpt lat="45.83145" lon="4.83003">
        <ele>296</ele>
        <time>2012-01-13T18:20:18Z</time>
      </trkpt>
      <trkpt lat="45.83144" lon="4.8301">
        <ele>297</ele>
        <time>2012-01-13T18:20:20Z</time>
      </trkpt>
      <trkpt lat="45.83143" lon="4.83023">
        <ele>298</ele>
        <time>2012-01-13T18:20:24Z</time>
      </trkpt>
      <trkpt lat="45.83143" lon="4.83025">
        <ele>298</ele>
        <time>2012-01-13T18:20:25Z</time>
      </trkpt>
      <trkpt lat="45.83143" lon="4.83032">
        <ele>298</ele>
        <time>2012-01-13T18:20:27Z</time>
      </trkpt>
      <trkpt lat="45.83143" lon="4.83038">
        <ele>299</ele>
        <time>2012-01-13T18:20:29Z</time>
      </trkpt>
      <trkpt lat="45.8314" lon="4.83051">
        <ele>299</ele>
        <time>2012-01-13T18:20:34Z</time>
      </trkpt>
      <trkpt lat="45.8314" lon="4.83054">
        <ele>299</ele>
        <time>2012-01-13T18:20:35Z</time>
      </trkpt>
      <trkpt lat="45.83139" lon="4.83057">
        <ele>299</ele>
        <time>2012-01-13T18:20:36Z</time>
      </trkpt>
      <trkpt lat="45.83139" lon="4.83063">
        <ele>300</ele>
        <time>2012-01-13T18:20:38Z</time>
      </trkpt>
      <trkpt lat="45.83136" lon="4.83071">
        <ele>300</ele>
        <time>2012-01-13T18:20:42Z</time>
      </trkpt>
      <trkpt lat="45.83136" lon="4.83076">
        <ele>300</ele>
        <time>2012-01-13T18:20:44Z</time>
      </trkpt>
      <trkpt lat="45.83135" lon="4.83082">
        <ele>300</ele>
        <time>2012-01-13T18:20:46Z</time>
      </trkpt>
      <trkpt lat="45.83132" lon="4.8309">
        <ele>300</ele>
        <time>2012-01-13T18:20:49Z</time>
      </trkpt>
      <trkpt lat="45.83121" lon="4.83092">
        <ele>300</ele>
        <time>2012-01-13T18:20:54Z</time>
      </trkpt>
      <trkpt lat="45.83119" lon="4.83092">
        <ele>301</ele>
        <time>2012-01-13T18:20:55Z</time>
      </trkpt>
      <trkpt lat="45.83112" lon="4.83092">
        <ele>301</ele>
        <time>2012-01-13T18:20:58Z</time>
      </trkpt>
      <trkpt lat="45.831" lon="4.83089">
        <ele>302</ele>
        <time>2012-01-13T18:21:03Z</time>
      </trkpt>
      <trkpt lat="45.83098" lon="4.83089">
        <ele>303</ele>
        <time>2012-01-13T18:21:04Z</time>
      </trkpt>
      <trkpt lat="45.83086" lon="4.83087">
        <ele>305</ele>
        <time>2012-01-13T18:21:10Z</time>
      </trkpt>
      <trkpt lat="45.83082" lon="4.83085">
        <ele>306</ele>
        <time>2012-01-13T18:21:12Z</time>
      </trkpt>
      <trkpt lat="45.83077" lon="4.83086">
        <ele>306</ele>
        <time>2012-01-13T18:21:14Z</time>
      </trkpt>
      <trkpt lat="45.83075" lon="4.83085">
        <ele>306</ele>
        <time>2012-01-13T18:21:15Z</time>
      </trkpt>
      <trkpt lat="45.83067" lon="4.83083">
        <ele>309</ele>
        <time>2012-01-13T18:21:19Z</time>
      </trkpt>
      <trkpt lat="45.83063" lon="4.83081">
        <ele>309</ele>
        <time>2012-01-13T18:21:21Z</time>
      </trkpt>
      <trkpt lat="45.83056" lon="4.83079">
        <ele>310</ele>
        <time>2012-01-13T18:21:25Z</time>
      </trkpt>
      <trkpt lat="45.83052" lon="4.83079">
        <ele>310</ele>
        <time>2012-01-13T18:21:28Z</time>
      </trkpt>
      <trkpt lat="45.8305" lon="4.83079">
        <ele>310</ele>
        <time>2012-01-13T18:21:29Z</time>
      </trkpt>
      <trkpt lat="45.83043" lon="4.8308">
        <ele>311</ele>
        <time>2012-01-13T18:21:32Z</time>
      </trkpt>
      <trkpt lat="45.8304" lon="4.8308">
        <ele>311</ele>
        <time>2012-01-13T18:21:34Z</time>
      </trkpt>
      <trkpt lat="45.83031" lon="4.83079">
        <ele>312</ele>
        <time>2012-01-13T18:21:38Z</time>
      </trkpt>
      <trkpt lat="45.83031" lon="4.83077">
        <ele>312</ele>
        <time>2012-01-13T18:21:39Z</time>
      </trkpt>
      <trkpt lat="45.83032" lon="4.8307">
        <ele>312</ele>
        <time>2012-01-13T18:21:48Z</time>
      </trkpt>
      <trkpt lat="45.83032" lon="4.83069">
        <ele>312</ele>
        <time>2012-01-13T18:21:52Z</time>
      </trkpt>
      <trkpt lat="45.83033" lon="4.83067">
        <ele>312</ele>
        <time>2012-01-13T18:21:54Z</time>
      </trkpt>
      <trkpt lat="45.83033" lon="4.83065">
        <ele>312</ele>
        <time>2012-01-13T18:21:55Z</time>
      </trkpt>
      <trkpt lat="45.83036" lon="4.83052">
        <ele>312</ele>
        <time>2012-01-13T18:22:00Z</time>
      </trkpt>
      <trkpt lat="45.83036" lon="4.83043">
        <ele>312</ele>
        <time>2012-01-13T18:22:03Z</time>
      </trkpt>
      <trkpt lat="45.83037" lon="4.83037">
        <ele>312</ele>
        <time>2012-01-13T18:22:05Z</time>
      </trkpt>
      <trkpt lat="45.83039" lon="4.83023">
        <ele>312</ele>
        <time>2012-01-13T18:22:10Z</time>
      </trkpt>
      <trkpt lat="45.8304" lon="4.83017">
        <ele>312</ele>
        <time>2012-01-13T18:22:12Z</time>
      </trkpt>
      <trkpt lat="45.83041" lon="4.83007">
        <ele>312</ele>
        <time>2012-01-13T18:22:15Z</time>
      </trkpt>
      <trkpt lat="45.83042" lon="4.82993">
        <ele>313</ele>
        <time>2012-01-13T18:22:19Z</time>
      </trkpt>
      <trkpt lat="45.83043" lon="4.8299">
        <ele>313</ele>
        <time>2012-01-13T18:22:20Z</time>
      </trkpt>
      <trkpt lat="45.83045" lon="4.82979">
        <ele>313</ele>
        <time>2012-01-13T18:22:24Z</time>
      </trkpt>
      <trkpt lat="45.83047" lon="4.82966">
        <ele>313</ele>
        <time>2012-01-13T18:22:29Z</time>
      </trkpt>
      <trkpt lat="45.83047" lon="4.82964">
        <ele>313</ele>
        <time>2012-01-13T18:22:30Z</time>
      </trkpt>
      <trkpt lat="45.83048" lon="4.82956">
        <ele>313</ele>
        <time>2012-01-13T18:22:33Z</time>
      </trkpt>
      <trkpt lat="45.83049" lon="4.82954">
        <ele>313</ele>
        <time>2012-01-13T18:22:34Z</time>
      </trkpt>
      <trkpt lat="45.83051" lon="4.82943">
        <ele>313</ele>
        <time>2012-01-13T18:22:38Z</time>
      </trkpt>
      <trkpt lat="45.83052" lon="4.82938">
        <ele>313</ele>
        <time>2012-01-13T18:22:40Z</time>
      </trkpt>
      <trkpt lat="45.83053" lon="4.82933">
        <ele>313</ele>
        <time>2012-01-13T18:22:42Z</time>
      </trkpt>
      <trkpt lat="45.83053" lon="4.8293">
        <ele>313</ele>
        <time>2012-01-13T18:22:43Z</time>
      </trkpt>
      <trkpt lat="45.83059" lon="4.82917">
        <ele>312</ele>
        <time>2012-01-13T18:22:48Z</time>
      </trkpt>
      <trkpt lat="45.83059" lon="4.82913">
        <ele>315</ele>
        <time>2012-01-13T18:22:49Z</time>
      </trkpt>
      <trkpt lat="45.8306" lon="4.82901">
        <ele>316</ele>
        <time>2012-01-13T18:22:52Z</time>
      </trkpt>
      <trkpt lat="45.83063" lon="4.82883">
        <ele>318</ele>
        <time>2012-01-13T18:22:57Z</time>
      </trkpt>
      <trkpt lat="45.83067" lon="4.82872">
        <ele>318</ele>
        <time>2012-01-13T18:23:01Z</time>
      </trkpt>
      <trkpt lat="45.83067" lon="4.82869">
        <ele>318</ele>
        <time>2012-01-13T18:23:02Z</time>
      </trkpt>
      <trkpt lat="45.83069" lon="4.8286">
        <ele>318</ele>
        <time>2012-01-13T18:23:06Z</time>
      </trkpt>
      <trkpt lat="45.83069" lon="4.82858">
        <ele>318</ele>
        <time>2012-01-13T18:23:07Z</time>
      </trkpt>
      <trkpt lat="45.83064" lon="4.82853">
        <ele>319</ele>
        <time>2012-01-13T18:23:13Z</time>
      </trkpt>
      <trkpt lat="45.83061" lon="4.82851">
        <ele>319</ele>
        <time>2012-01-13T18:23:15Z</time>
      </trkpt>
      <trkpt lat="45.83057" lon="4.82848">
        <ele>320</ele>
        <time>2012-01-13T18:23:18Z</time>
      </trkpt>
      <trkpt lat="45.83052" lon="4.82846">
        <ele>321</ele>
        <time>2012-01-13T18:23:22Z</time>
      </trkpt>
      <trkpt lat="45.8305" lon="4.82844">
        <ele>321</ele>
        <time>2012-01-13T18:23:23Z</time>
      </trkpt>
      <trkpt lat="45.83049" lon="4.82844">
        <ele>321</ele>
        <time>2012-01-13T18:23:24Z</time>
      </trkpt>
      <trkpt lat="45.83044" lon="4.82844">
        <ele>322</ele>
        <time>2012-01-13T18:23:28Z</time>
      </trkpt>
      <trkpt lat="45.83043" lon="4.82844">
        <ele>322</ele>
        <time>2012-01-13T18:23:29Z</time>
      </trkpt>
      <trkpt lat="45.83039" lon="4.82843">
        <ele>323</ele>
        <time>2012-01-13T18:23:31Z</time>
      </trkpt>
      <trkpt lat="45.83035" lon="4.8284">
        <ele>324</ele>
        <time>2012-01-13T18:23:34Z</time>
      </trkpt>
      <trkpt lat="45.83033" lon="4.8284">
        <ele>324</ele>
        <time>2012-01-13T18:23:35Z</time>
      </trkpt>
      <trkpt lat="45.83032" lon="4.8284">
        <ele>325</ele>
        <time>2012-01-13T18:23:36Z</time>
      </trkpt>
      <trkpt lat="45.83025" lon="4.82834">
        <ele>327</ele>
        <time>2012-01-13T18:23:41Z</time>
      </trkpt>
      <trkpt lat="45.83022" lon="4.82834">
        <ele>328</ele>
        <time>2012-01-13T18:23:45Z</time>
      </trkpt>
      <trkpt lat="45.83016" lon="4.8283">
        <ele>336</ele>
        <time>2012-01-13T18:23:49Z</time>
      </trkpt>
      <trkpt lat="45.83014" lon="4.82829">
        <ele>336</ele>
        <time>2012-01-13T18:23:50Z</time>
      </trkpt>
      <trkpt lat="45.83011" lon="4.82827">
        <ele>337</ele>
        <time>2012-01-13T18:23:53Z</time>
      </trkpt>
      <trkpt lat="45.83007" lon="4.82823">
        <ele>337</ele>
        <time>2012-01-13T18:23:59Z</time>
      </trkpt>
      <trkpt lat="45.83001" lon="4.8282">
        <ele>337</ele>
        <time>2012-01-13T18:24:07Z</time>
      </trkpt>
      <trkpt lat="45.82997" lon="4.82819">
        <ele>348</ele>
        <time>2012-01-13T18:24:10Z</time>
      </trkpt>
      <trkpt lat="45.82995" lon="4.82818">
        <ele>349</ele>
        <time>2012-01-13T18:24:12Z</time>
      </trkpt>
      <trkpt lat="45.82994" lon="4.82816">
        <ele>350</ele>
        <time>2012-01-13T18:24:13Z</time>
      </trkpt>
      <trkpt lat="45.82991" lon="4.82812">
        <ele>352</ele>
        <time>2012-01-13T18:24:17Z</time>
      </trkpt>
      <trkpt lat="45.82987" lon="4.8281">
        <ele>353</ele>
        <time>2012-01-13T18:24:21Z</time>
      </trkpt>
      <trkpt lat="45.82986" lon="4.82808">
        <ele>354</ele>
        <time>2012-01-13T18:24:23Z</time>
      </trkpt>
      <trkpt lat="45.82984" lon="4.82806">
        <ele>355</ele>
        <time>2012-01-13T18:24:25Z</time>
      </trkpt>
      <trkpt lat="45.82981" lon="4.82804">
        <ele>356</ele>
        <time>2012-01-13T18:24:30Z</time>
      </trkpt>
      <trkpt lat="45.8298" lon="4.82804">
        <ele>356</ele>
        <time>2012-01-13T18:24:32Z</time>
      </trkpt>
      <trkpt lat="45.82979" lon="4.82806">
        <ele>355</ele>
        <time>2012-01-13T18:24:36Z</time>
      </trkpt>
      <trkpt lat="45.82982" lon="4.82807">
        <ele>355</ele>
        <time>2012-01-13T18:24:57Z</time>
      </trkpt>
      <trkpt lat="45.82977" lon="4.82812">
        <ele>355</ele>
        <time>2012-01-13T18:25:10Z</time>
      </trkpt>
      <trkpt lat="45.82973" lon="4.82815">
        <ele>355</ele>
        <time>2012-01-13T18:25:13Z</time>
      </trkpt>
      <trkpt lat="45.82972" lon="4.82816">
        <ele>355</ele>
        <time>2012-01-13T18:25:14Z</time>
      </trkpt>
      <trkpt lat="45.82964" lon="4.82822">
        <ele>356</ele>
        <time>2012-01-13T18:25:18Z</time>
      </trkpt>
      <trkpt lat="45.82958" lon="4.82828">
        <ele>357</ele>
        <time>2012-01-13T18:25:21Z</time>
      </trkpt>
      <trkpt lat="45.82956" lon="4.8283">
        <ele>357</ele>
        <time>2012-01-13T18:25:22Z</time>
      </trkpt>
      <trkpt lat="45.82954" lon="4.82831">
        <ele>358</ele>
        <time>2012-01-13T18:25:23Z</time>
      </trkpt>
      <trkpt lat="45.82948" lon="4.82836">
        <ele>346</ele>
        <time>2012-01-13T18:25:27Z</time>
      </trkpt>
      <trkpt lat="45.82944" lon="4.8284">
        <ele>346</ele>
        <time>2012-01-13T18:25:29Z</time>
      </trkpt>
      <trkpt lat="45.82938" lon="4.82845">
        <ele>347</ele>
        <time>2012-01-13T18:25:32Z</time>
      </trkpt>
      <trkpt lat="45.82933" lon="4.82849">
        <ele>348</ele>
        <time>2012-01-13T18:25:35Z</time>
      </trkpt>
      <trkpt lat="45.82921" lon="4.82857">
        <ele>348</ele>
        <time>2012-01-13T18:25:41Z</time>
      </trkpt>
      <trkpt lat="45.82908" lon="4.82859">
        <ele>356</ele>
        <time>2012-01-13T18:25:47Z</time>
      </trkpt>
      <trkpt lat="45.82902" lon="4.8286">
        <ele>355</ele>
        <time>2012-01-13T18:25:50Z</time>
      </trkpt>
      <trkpt lat="45.82895" lon="4.82863">
        <ele>355</ele>
        <time>2012-01-13T18:25:53Z</time>
      </trkpt>
      <trkpt lat="45.82884" lon="4.82869">
        <ele>355</ele>
        <time>2012-01-13T18:25:58Z</time>
      </trkpt>
      <trkpt lat="45.82881" lon="4.8287">
        <ele>355</ele>
        <time>2012-01-13T18:25:59Z</time>
      </trkpt>
      <trkpt lat="45.82867" lon="4.82872">
        <ele>356</ele>
        <time>2012-01-13T18:26:05Z</time>
      </trkpt>
      <trkpt lat="45.82865" lon="4.82872">
        <ele>356</ele>
        <time>2012-01-13T18:26:06Z</time>
      </trkpt>
      <trkpt lat="45.82854" lon="4.82874">
        <ele>356</ele>
        <time>2012-01-13T18:26:11Z</time>
      </trkpt>
      <trkpt lat="45.82845" lon="4.82875">
        <ele>357</ele>
        <time>2012-01-13T18:26:15Z</time>
      </trkpt>
      <trkpt lat="45.82843" lon="4.82875">
        <ele>357</ele>
        <time>2012-01-13T18:26:16Z</time>
      </trkpt>
      <trkpt lat="45.82832" lon="4.82876">
        <ele>360</ele>
        <time>2012-01-13T18:26:21Z</time>
      </trkpt>
      <trkpt lat="45.82828" lon="4.82878">
        <ele>360</ele>
        <time>2012-01-13T18:26:23Z</time>
      </trkpt>
      <trkpt lat="45.82821" lon="4.82882">
        <ele>359</ele>
        <time>2012-01-13T18:26:26Z</time>
      </trkpt>
      <trkpt lat="45.82808" lon="4.82886">
        <ele>358</ele>
        <time>2012-01-13T18:26:31Z</time>
      </trkpt>
      <trkpt lat="45.82799" lon="4.82886">
        <ele>358</ele>
        <time>2012-01-13T18:26:35Z</time>
      </trkpt>
      <trkpt lat="45.82789" lon="4.82887">
        <ele>358</ele>
        <time>2012-01-13T18:26:39Z</time>
      </trkpt>
      <trkpt lat="45.82784" lon="4.82887">
        <ele>358</ele>
        <time>2012-01-13T18:26:41Z</time>
      </trkpt>
      <trkpt lat="45.82774" lon="4.82887">
        <ele>358</ele>
        <time>2012-01-13T18:26:45Z</time>
      </trkpt>
      <trkpt lat="45.82769" lon="4.82886">
        <ele>358</ele>
        <time>2012-01-13T18:26:47Z</time>
      </trkpt>
      <trkpt lat="45.8276" lon="4.82885">
        <ele>357</ele>
        <time>2012-01-13T18:26:51Z</time>
      </trkpt>
      <trkpt lat="45.8275" lon="4.82881">
        <ele>353</ele>
        <time>2012-01-13T18:26:55Z</time>
      </trkpt>
      <trkpt lat="45.82748" lon="4.82881">
        <ele>353</ele>
        <time>2012-01-13T18:26:56Z</time>
      </trkpt>
      <trkpt lat="45.82734" lon="4.82877">
        <ele>353</ele>
        <time>2012-01-13T18:27:02Z</time>
      </trkpt>
      <trkpt lat="45.82731" lon="4.82875">
        <ele>353</ele>
        <time>2012-01-13T18:27:06Z</time>
      </trkpt>
      <trkpt lat="45.82726" lon="4.82872">
        <ele>353</ele>
        <time>2012-01-13T18:27:11Z</time>
      </trkpt>
      <trkpt lat="45.82715" lon="4.82861">
        <ele>353</ele>
        <time>2012-01-13T18:27:17Z</time>
      </trkpt>
      <trkpt lat="45.82704" lon="4.82847">
        <ele>353</ele>
        <time>2012-01-13T18:27:23Z</time>
      </trkpt>
      <trkpt lat="45.827" lon="4.82842">
        <ele>353</ele>
        <time>2012-01-13T18:27:25Z</time>
      </trkpt>
      <trkpt lat="45.82695" lon="4.82834">
        <ele>353</ele>
        <time>2012-01-13T18:27:28Z</time>
      </trkpt>
      <trkpt lat="45.82689" lon="4.82819">
        <ele>362</ele>
        <time>2012-01-13T18:27:33Z</time>
      </trkpt>
      <trkpt lat="45.82681" lon="4.82805">
        <ele>363</ele>
        <time>2012-01-13T18:27:38Z</time>
      </trkpt>
      <trkpt lat="45.82678" lon="4.82796">
        <ele>364</ele>
        <time>2012-01-13T18:27:41Z</time>
      </trkpt>
      <trkpt lat="45.82675" lon="4.82788">
        <ele>364</ele>
        <time>2012-01-13T18:27:44Z</time>
      </trkpt>
      <trkpt lat="45.8268" lon="4.82789">
        <ele>365</ele>
        <time>2012-01-13T18:27:48Z</time>
      </trkpt>
      <trkpt lat="45.82684" lon="4.82792">
        <ele>365</ele>
        <time>2012-01-13T18:27:51Z</time>
      </trkpt>
      <trkpt lat="45.82686" lon="4.82794">
        <ele>365</ele>
        <time>2012-01-13T18:27:52Z</time>
      </trkpt>
      <trkpt lat="45.82687" lon="4.82795">
        <ele>365</ele>
        <time>2012-01-13T18:27:53Z</time>
      </trkpt>
      <trkpt lat="45.82692" lon="4.82796">
        <ele>365</ele>
        <time>2012-01-13T18:27:56Z</time>
      </trkpt>
      <trkpt lat="45.827" lon="4.82799">
        <ele>366</ele>
        <time>2012-01-13T18:28:01Z</time>
      </trkpt>
      <trkpt lat="45.82704" lon="4.82797">
        <ele>366</ele>
        <time>2012-01-13T18:28:03Z</time>
      </trkpt>
      <trkpt lat="45.82708" lon="4.82793">
        <ele>367</ele>
        <time>2012-01-13T18:28:05Z</time>
      </trkpt>
      <trkpt lat="45.82712" lon="4.8279">
        <ele>368</ele>
        <time>2012-01-13T18:28:07Z</time>
      </trkpt>
      <trkpt lat="45.82714" lon="4.82789">
        <ele>368</ele>
        <time>2012-01-13T18:28:08Z</time>
      </trkpt>
      <trkpt lat="45.82716" lon="4.8279">
        <ele>369</ele>
        <time>2012-01-13T18:28:10Z</time>
      </trkpt>
      <trkpt lat="45.82717" lon="4.82792">
        <ele>369</ele>
        <time>2012-01-13T18:28:12Z</time>
      </trkpt>
      <trkpt lat="45.82719" lon="4.82791">
        <ele>369</ele>
        <time>2012-01-13T18:28:15Z</time>
      </trkpt>
      <trkpt lat="45.8272" lon="4.82791">
        <ele>369</ele>
        <time>2012-01-13T18:28:16Z</time>
      </trkpt>
      <trkpt lat="45.82722" lon="4.8279">
        <ele>369</ele>
        <time>2012-01-13T18:28:17Z</time>
      </trkpt>
      <trkpt lat="45.82724" lon="4.82791">
        <ele>369</ele>
        <time>2012-01-13T18:28:19Z</time>
      </trkpt>
      <trkpt lat="45.82731" lon="4.82797">
        <ele>369</ele>
        <time>2012-01-13T18:28:23Z</time>
      </trkpt>
      <trkpt lat="45.82741" lon="4.82798">
        <ele>370</ele>
        <time>2012-01-13T18:28:29Z</time>
      </trkpt>
      <trkpt lat="45.82746" lon="4.82797">
        <ele>370</ele>
        <time>2012-01-13T18:28:31Z</time>
      </trkpt>
      <trkpt lat="45.82751" lon="4.82796">
        <ele>379</ele>
        <time>2012-01-13T18:28:33Z</time>
      </trkpt>
      <trkpt lat="45.8276" lon="4.82798">
        <ele>379</ele>
        <time>2012-01-13T18:28:37Z</time>
      </trkpt>
      <trkpt lat="45.82765" lon="4.82803">
        <ele>379</ele>
        <time>2012-01-13T18:28:41Z</time>
      </trkpt>
      <trkpt lat="45.82768" lon="4.82808">
        <ele>378</ele>
        <time>2012-01-13T18:28:45Z</time>
      </trkpt>
      <trkpt lat="45.82769" lon="4.8281">
        <ele>377</ele>
        <time>2012-01-13T18:28:46Z</time>
      </trkpt>
      <trkpt lat="45.82773" lon="4.82816">
        <ele>377</ele>
        <time>2012-01-13T18:28:50Z</time>
      </trkpt>
      <trkpt lat="45.82771" lon="4.82825">
        <ele>375</ele>
        <time>2012-01-13T18:28:55Z</time>
      </trkpt>
      <trkpt lat="45.82771" lon="4.82828">
        <ele>375</ele>
        <time>2012-01-13T18:28:57Z</time>
      </trkpt>
      <trkpt lat="45.82772" lon="4.82829">
        <ele>375</ele>
        <time>2012-01-13T18:28:58Z</time>
      </trkpt>
      <trkpt lat="45.82774" lon="4.82829">
        <ele>375</ele>
        <time>2012-01-13T18:28:59Z</time>
      </trkpt>
      <trkpt lat="45.82779" lon="4.82827">
        <ele>377</ele>
        <time>2012-01-13T18:29:03Z</time>
      </trkpt>
      <trkpt lat="45.82782" lon="4.82824">
        <ele>377</ele>
        <time>2012-01-13T18:29:06Z</time>
      </trkpt>
      <trkpt lat="45.82783" lon="4.82824">
        <ele>377</ele>
        <time>2012-01-13T18:29:07Z</time>
      </trkpt>
      <trkpt lat="45.82784" lon="4.82824">
        <ele>377</ele>
        <time>2012-01-13T18:29:08Z</time>
      </trkpt>
      <trkpt lat="45.82787" lon="4.8282">
        <ele>378</ele>
        <time>2012-01-13T18:29:13Z</time>
      </trkpt>
      <trkpt lat="45.82788" lon="4.8282">
        <ele>378</ele>
        <time>2012-01-13T18:29:14Z</time>
      </trkpt>
      <trkpt lat="45.82797" lon="4.82821">
        <ele>378</ele>
        <time>2012-01-13T18:29:19Z</time>
      </trkpt>
      <trkpt lat="45.82805" lon="4.82813">
        <ele>379</ele>
        <time>2012-01-13T18:29:25Z</time>
      </trkpt>
      <trkpt lat="45.8281" lon="4.82807">
        <ele>380</ele>
        <time>2012-01-13T18:29:30Z</time>
      </trkpt>
      <trkpt lat="45.82811" lon="4.82805">
        <ele>380</ele>
        <time>2012-01-13T18:29:31Z</time>
      </trkpt>
      <trkpt lat="45.82812" lon="4.82802">
        <ele>381</ele>
        <time>2012-01-13T18:29:36Z</time>
      </trkpt>
      <trkpt lat="45.82815" lon="4.82798">
        <ele>382</ele>
        <time>2012-01-13T18:29:46Z</time>
      </trkpt>
      <trkpt lat="45.82816" lon="4.82795">
        <ele>382</ele>
        <time>2012-01-13T18:29:49Z</time>
      </trkpt>
      <trkpt lat="45.82814" lon="4.82793">
        <ele>382</ele>
        <time>2012-01-13T18:29:51Z</time>
      </trkpt>
      <trkpt lat="45.82812" lon="4.82783">
        <ele>384</ele>
        <time>2012-01-13T18:29:59Z</time>
      </trkpt>
      <trkpt lat="45.82812" lon="4.82782">
        <ele>384</ele>
        <time>2012-01-13T18:30:00Z</time>
      </trkpt>
      <trkpt lat="45.8281" lon="4.82779">
        <ele>385</ele>
        <time>2012-01-13T18:30:04Z</time>
      </trkpt>
      <trkpt lat="45.82809" lon="4.82779">
        <ele>385</ele>
        <time>2012-01-13T18:30:05Z</time>
      </trkpt>
      <trkpt lat="45.82805" lon="4.82776">
        <ele>385</ele>
        <time>2012-01-13T18:30:10Z</time>
      </trkpt>
      <trkpt lat="45.82805" lon="4.82774">
        <ele>385</ele>
        <time>2012-01-13T18:30:11Z</time>
      </trkpt>
      <trkpt lat="45.82806" lon="4.8277">
        <ele>386</ele>
        <time>2012-01-13T18:30:15Z</time>
      </trkpt>
      <trkpt lat="45.82806" lon="4.82769">
        <ele>386</ele>
        <time>2012-01-13T18:30:16Z</time>
      </trkpt>
      <trkpt lat="45.82803" lon="4.82764">
        <ele>386</ele>
        <time>2012-01-13T18:30:21Z</time>
      </trkpt>
      <trkpt lat="45.82802" lon="4.82762">
        <ele>387</ele>
        <time>2012-01-13T18:30:23Z</time>
      </trkpt>
      <trkpt lat="45.828" lon="4.82758">
        <ele>387</ele>
        <time>2012-01-13T18:30:28Z</time>
      </trkpt>
      <trkpt lat="45.82798" lon="4.82755">
        <ele>387</ele>
        <time>2012-01-13T18:30:30Z</time>
      </trkpt>
      <trkpt lat="45.82798" lon="4.82751">
        <ele>387</ele>
        <time>2012-01-13T18:30:33Z</time>
      </trkpt>
      <trkpt lat="45.82798" lon="4.8275">
        <ele>387</ele>
        <time>2012-01-13T18:30:34Z</time>
      </trkpt>
      <trkpt lat="45.82798" lon="4.82748">
        <ele>399</ele>
        <time>2012-01-13T18:30:36Z</time>
      </trkpt>
      <trkpt lat="45.82797" lon="4.82745">
        <ele>399</ele>
        <time>2012-01-13T18:30:38Z</time>
      </trkpt>
      <trkpt lat="45.82797" lon="4.82742">
        <ele>399</ele>
        <time>2012-01-13T18:30:40Z</time>
      </trkpt>
      <trkpt lat="45.82795" lon="4.82737">
        <ele>400</ele>
        <time>2012-01-13T18:30:43Z</time>
      </trkpt>
      <trkpt lat="45.82794" lon="4.82735">
        <ele>400</ele>
        <time>2012-01-13T18:30:44Z</time>
      </trkpt>
      <trkpt lat="45.82794" lon="4.82734">
        <ele>400</ele>
        <time>2012-01-13T18:30:45Z</time>
      </trkpt>
      <trkpt lat="45.82794" lon="4.82734">
        <ele>400</ele>
        <time>2012-01-13T18:30:46Z</time>
      </trkpt>
      <trkpt lat="45.82791" lon="4.82731">
        <ele>400</ele>
        <time>2012-01-13T18:30:49Z</time>
      </trkpt>
      <trkpt lat="45.82787" lon="4.82727">
        <ele>400</ele>
        <time>2012-01-13T18:30:53Z</time>
      </trkpt>
      <trkpt lat="45.82788" lon="4.82725">
        <ele>400</ele>
        <time>2012-01-13T18:30:55Z</time>
      </trkpt>
      <trkpt lat="45.8279" lon="4.82721">
        <ele>401</ele>
        <time>2012-01-13T18:31:09Z</time>
      </trkpt>
      <trkpt lat="45.82792" lon="4.8272">
        <ele>401</ele>
        <time>2012-01-13T18:31:12Z</time>
      </trkpt>
      <trkpt lat="45.82793" lon="4.82719">
        <ele>401</ele>
        <time>2012-01-13T18:31:13Z</time>
      </trkpt>
      <trkpt lat="45.82794" lon="4.82717">
        <ele>401</ele>
        <time>2012-01-13T18:31:18Z</time>
      </trkpt>
      <trkpt lat="45.82796" lon="4.82716">
        <ele>401</ele>
        <time>2012-01-13T18:31:19Z</time>
      </trkpt>
      <trkpt lat="45.82802" lon="4.82708">
        <ele>403</ele>
        <time>2012-01-13T18:31:23Z</time>
      </trkpt>
      <trkpt lat="45.82804" lon="4.82702">
        <ele>403</ele>
        <time>2012-01-13T18:31:25Z</time>
      </trkpt>
      <trkpt lat="45.82805" lon="4.82698">
        <ele>404</ele>
        <time>2012-01-13T18:31:27Z</time>
      </trkpt>
      <trkpt lat="45.82806" lon="4.82685">
        <ele>405</ele>
        <time>2012-01-13T18:31:33Z</time>
      </trkpt>
      <trkpt lat="45.82807" lon="4.82678">
        <ele>406</ele>
        <time>2012-01-13T18:31:38Z</time>
      </trkpt>
      <trkpt lat="45.82807" lon="4.82677">
        <ele>406</ele>
        <time>2012-01-13T18:31:39Z</time>
      </trkpt>
      <trkpt lat="45.82806" lon="4.82674">
        <ele>406</ele>
        <time>2012-01-13T18:31:49Z</time>
      </trkpt>
      <trkpt lat="45.82804" lon="4.82674">
        <ele>406</ele>
        <time>2012-01-13T18:32:23Z</time>
      </trkpt>
      <trkpt lat="45.82806" lon="4.8267">
        <ele>407</ele>
        <time>2012-01-13T18:32:38Z</time>
      </trkpt>
      <trkpt lat="45.82811" lon="4.82667">
        <ele>407</ele>
        <time>2012-01-13T18:32:40Z</time>
      </trkpt>
      <trkpt lat="45.82815" lon="4.82663">
        <ele>415</ele>
        <time>2012-01-13T18:32:42Z</time>
      </trkpt>
      <trkpt lat="45.82826" lon="4.82654">
        <ele>415</ele>
        <time>2012-01-13T18:32:47Z</time>
      </trkpt>
      <trkpt lat="45.82831" lon="4.82649">
        <ele>415</ele>
        <time>2012-01-13T18:32:49Z</time>
      </trkpt>
      <trkpt lat="45.82835" lon="4.82645">
        <ele>417</ele>
        <time>2012-01-13T18:32:51Z</time>
      </trkpt>
      <trkpt lat="45.82843" lon="4.82639">
        <ele>417</ele>
        <time>2012-01-13T18:32:55Z</time>
      </trkpt>
      <trkpt lat="45.82847" lon="4.82636">
        <ele>417</ele>
        <time>2012-01-13T18:32:57Z</time>
      </trkpt>
      <trkpt lat="45.82854" lon="4.8263">
        <ele>418</ele>
        <time>2012-01-13T18:33:01Z</time>
      </trkpt>
      <trkpt lat="45.82863" lon="4.82623">
        <ele>418</ele>
        <time>2012-01-13T18:33:06Z</time>
      </trkpt>
      <trkpt lat="45.82865" lon="4.82622">
        <ele>418</ele>
        <time>2012-01-13T18:33:07Z</time>
      </trkpt>
      <trkpt lat="45.82874" lon="4.82611">
        <ele>419</ele>
        <time>2012-01-13T18:33:13Z</time>
      </trkpt>
      <trkpt lat="45.82879" lon="4.82605">
        <ele>419</ele>
        <time>2012-01-13T18:33:16Z</time>
      </trkpt>
      <trkpt lat="45.82883" lon="4.82601">
        <ele>419</ele>
        <time>2012-01-13T18:33:18Z</time>
      </trkpt>
      <trkpt lat="45.82885" lon="4.82601">
        <ele>420</ele>
        <time>2012-01-13T18:33:19Z</time>
      </trkpt>
      <trkpt lat="45.82888" lon="4.826">
        <ele>420</ele>
        <time>2012-01-13T18:33:22Z</time>
      </trkpt>
      <trkpt lat="45.82897" lon="4.82598">
        <ele>420</ele>
        <time>2012-01-13T18:33:26Z</time>
      </trkpt>
      <trkpt lat="45.82902" lon="4.82595">
        <ele>420</ele>
        <time>2012-01-13T18:33:29Z</time>
      </trkpt>
      <trkpt lat="45.82904" lon="4.82594">
        <ele>421</ele>
        <time>2012-01-13T18:33:30Z</time>
      </trkpt>
      <trkpt lat="45.82906" lon="4.82592">
        <ele>421</ele>
        <time>2012-01-13T18:33:31Z</time>
      </trkpt>
      <trkpt lat="45.82912" lon="4.82587">
        <ele>422</ele>
        <time>2012-01-13T18:33:34Z</time>
      </trkpt>
      <trkpt lat="45.82918" lon="4.82584">
        <ele>422</ele>
        <time>2012-01-13T18:33:36Z</time>
      </trkpt>
      <trkpt lat="45.8293" lon="4.82576">
        <ele>421</ele>
        <time>2012-01-13T18:33:42Z</time>
      </trkpt>
      <trkpt lat="45.82939" lon="4.82567">
        <ele>421</ele>
        <time>2012-01-13T18:33:47Z</time>
      </trkpt>
      <trkpt lat="45.82943" lon="4.82562">
        <ele>420</ele>
        <time>2012-01-13T18:33:49Z</time>
      </trkpt>
      <trkpt lat="45.82945" lon="4.8256">
        <ele>420</ele>
        <time>2012-01-13T18:33:50Z</time>
      </trkpt>
      <trkpt lat="45.82947" lon="4.82558">
        <ele>420</ele>
        <time>2012-01-13T18:33:51Z</time>
      </trkpt>
      <trkpt lat="45.82956" lon="4.82546">
        <ele>420</ele>
        <time>2012-01-13T18:33:57Z</time>
      </trkpt>
      <trkpt lat="45.8296" lon="4.82541">
        <ele>420</ele>
        <time>2012-01-13T18:33:59Z</time>
      </trkpt>
      <trkpt lat="45.82966" lon="4.82535">
        <ele>420</ele>
        <time>2012-01-13T18:34:02Z</time>
      </trkpt>
      <trkpt lat="45.82976" lon="4.82524">
        <ele>420</ele>
        <time>2012-01-13T18:34:07Z</time>
      </trkpt>
      <trkpt lat="45.82978" lon="4.82522">
        <ele>420</ele>
        <time>2012-01-13T18:34:08Z</time>
      </trkpt>
      <trkpt lat="45.82982" lon="4.82518">
        <ele>420</ele>
        <time>2012-01-13T18:34:10Z</time>
      </trkpt>
      <trkpt lat="45.82986" lon="4.82513">
        <ele>420</ele>
        <time>2012-01-13T18:34:12Z</time>
      </trkpt>
      <trkpt lat="45.82987" lon="4.82502">
        <ele>421</ele>
        <time>2012-01-13T18:34:15Z</time>
      </trkpt>
      <trkpt lat="45.82987" lon="4.82498">
        <ele>424</ele>
        <time>2012-01-13T18:34:16Z</time>
      </trkpt>
      <trkpt lat="45.82987" lon="4.82489">
        <ele>424</ele>
        <time>2012-01-13T18:34:19Z</time>
      </trkpt>
      <trkpt lat="45.82987" lon="4.82484">
        <ele>425</ele>
        <time>2012-01-13T18:34:21Z</time>
      </trkpt>
      <trkpt lat="45.82988" lon="4.82479">
        <ele>425</ele>
        <time>2012-01-13T18:34:23Z</time>
      </trkpt>
      <trkpt lat="45.82988" lon="4.82474">
        <ele>425</ele>
        <time>2012-01-13T18:34:25Z</time>
      </trkpt>
      <trkpt lat="45.82987" lon="4.82471">
        <ele>425</ele>
        <time>2012-01-13T18:34:26Z</time>
      </trkpt>
      <trkpt lat="45.82985" lon="4.82459">
        <ele>426</ele>
        <time>2012-01-13T18:34:30Z</time>
      </trkpt>
      <trkpt lat="45.82983" lon="4.8245">
        <ele>426</ele>
        <time>2012-01-13T18:34:33Z</time>
      </trkpt>
      <trkpt lat="45.82981" lon="4.82447">
        <ele>426</ele>
        <time>2012-01-13T18:34:34Z</time>
      </trkpt>
      <trkpt lat="45.82978" lon="4.82437">
        <ele>427</ele>
        <time>2012-01-13T18:34:37Z</time>
      </trkpt>
      <trkpt lat="45.82979" lon="4.82431">
        <ele>426</ele>
        <time>2012-01-13T18:34:39Z</time>
      </trkpt>
      <trkpt lat="45.82978" lon="4.82425">
        <ele>426</ele>
        <time>2012-01-13T18:34:41Z</time>
      </trkpt>
      <trkpt lat="45.82978" lon="4.82418">
        <ele>426</ele>
        <time>2012-01-13T18:34:43Z</time>
      </trkpt>
      <trkpt lat="45.82976" lon="4.82403">
        <ele>427</ele>
        <time>2012-01-13T18:34:47Z</time>
      </trkpt>
      <trkpt lat="45.82975" lon="4.824">
        <ele>428</ele>
        <time>2012-01-13T18:34:48Z</time>
      </trkpt>
      <trkpt lat="45.82975" lon="4.82396">
        <ele>428</ele>
        <time>2012-01-13T18:34:49Z</time>
      </trkpt>
      <trkpt lat="45.82972" lon="4.82382">
        <ele>428</ele>
        <time>2012-01-13T18:34:53Z</time>
      </trkpt>
      <trkpt lat="45.82969" lon="4.82369">
        <ele>428</ele>
        <time>2012-01-13T18:34:57Z</time>
      </trkpt>
      <trkpt lat="45.82968" lon="4.82365">
        <ele>428</ele>
        <time>2012-01-13T18:34:58Z</time>
      </trkpt>
      <trkpt lat="45.82971" lon="4.82343">
        <ele>427</ele>
        <time>2012-01-13T18:35:05Z</time>
      </trkpt>
      <trkpt lat="45.82975" lon="4.82327">
        <ele>424</ele>
        <time>2012-01-13T18:35:10Z</time>
      </trkpt>
      <trkpt lat="45.82975" lon="4.82317">
        <ele>424</ele>
        <time>2012-01-13T18:35:13Z</time>
      </trkpt>
      <trkpt lat="45.82974" lon="4.82315">
        <ele>424</ele>
        <time>2012-01-13T18:35:14Z</time>
      </trkpt>
      <trkpt lat="45.82973" lon="4.82312">
        <ele>424</ele>
        <time>2012-01-13T18:35:15Z</time>
      </trkpt>
      <trkpt lat="45.82963" lon="4.82298">
        <ele>424</ele>
        <time>2012-01-13T18:35:21Z</time>
      </trkpt>
      <trkpt lat="45.82957" lon="4.82288">
        <ele>424</ele>
        <time>2012-01-13T18:35:25Z</time>
      </trkpt>
      <trkpt lat="45.82956" lon="4.82285">
        <ele>424</ele>
        <time>2012-01-13T18:35:26Z</time>
      </trkpt>
      <trkpt lat="45.82951" lon="4.82278">
        <ele>424</ele>
        <time>2012-01-13T18:35:29Z</time>
      </trkpt>
      <trkpt lat="45.82945" lon="4.8227">
        <ele>424</ele>
        <time>2012-01-13T18:35:32Z</time>
      </trkpt>
      <trkpt lat="45.82941" lon="4.82256">
        <ele>424</ele>
        <time>2012-01-13T18:35:36Z</time>
      </trkpt>
      <trkpt lat="45.82937" lon="4.82236">
        <ele>418</ele>
        <time>2012-01-13T18:35:42Z</time>
      </trkpt>
      <trkpt lat="45.82934" lon="4.82233">
        <ele>418</ele>
        <time>2012-01-13T18:35:44Z</time>
      </trkpt>
      <trkpt lat="45.8293" lon="4.82226">
        <ele>418</ele>
        <time>2012-01-13T18:35:47Z</time>
      </trkpt>
      <trkpt lat="45.82925" lon="4.82208">
        <ele>415</ele>
        <time>2012-01-13T18:35:52Z</time>
      </trkpt>
      <trkpt lat="45.82916" lon="4.82197">
        <ele>423</ele>
        <time>2012-01-13T18:35:57Z</time>
      </trkpt>
      <trkpt lat="45.82909" lon="4.82191">
        <ele>422</ele>
        <time>2012-01-13T18:36:01Z</time>
      </trkpt>
      <trkpt lat="45.82906" lon="4.82189">
        <ele>422</ele>
        <time>2012-01-13T18:36:03Z</time>
      </trkpt>
      <trkpt lat="45.82904" lon="4.82186">
        <ele>422</ele>
        <time>2012-01-13T18:36:08Z</time>
      </trkpt>
      <trkpt lat="45.82895" lon="4.82179">
        <ele>422</ele>
        <time>2012-01-13T18:36:13Z</time>
      </trkpt>
      <trkpt lat="45.82893" lon="4.82178">
        <ele>422</ele>
        <time>2012-01-13T18:36:14Z</time>
      </trkpt>
      <trkpt lat="45.82889" lon="4.82175">
        <ele>423</ele>
        <time>2012-01-13T18:36:17Z</time>
      </trkpt>
      <trkpt lat="45.82887" lon="4.82174">
        <ele>423</ele>
        <time>2012-01-13T18:36:18Z</time>
      </trkpt>
      <trkpt lat="45.82878" lon="4.8217">
        <ele>425</ele>
        <time>2012-01-13T18:36:23Z</time>
      </trkpt>
      <trkpt lat="45.82876" lon="4.8217">
        <ele>425</ele>
        <time>2012-01-13T18:36:24Z</time>
      </trkpt>
      <trkpt lat="45.82874" lon="4.82169">
        <ele>425</ele>
        <time>2012-01-13T18:36:25Z</time>
      </trkpt>
      <trkpt lat="45.82869" lon="4.82169">
        <ele>426</ele>
        <time>2012-01-13T18:36:28Z</time>
      </trkpt>
      <trkpt lat="45.82859" lon="4.8217">
        <ele>427</ele>
        <time>2012-01-13T18:36:34Z</time>
      </trkpt>
      <trkpt lat="45.82858" lon="4.8217">
        <ele>427</ele>
        <time>2012-01-13T18:36:35Z</time>
      </trkpt>
      <trkpt lat="45.8285" lon="4.82173">
        <ele>428</ele>
        <time>2012-01-13T18:36:40Z</time>
      </trkpt>
      <trkpt lat="45.82844" lon="4.82177">
        <ele>428</ele>
        <time>2012-01-13T18:36:45Z</time>
      </trkpt>
      <trkpt lat="45.82843" lon="4.82179">
        <ele>428</ele>
        <time>2012-01-13T18:36:46Z</time>
      </trkpt>
      <trkpt lat="45.82841" lon="4.82181">
        <ele>428</ele>
        <time>2012-01-13T18:36:48Z</time>
      </trkpt>
      <trkpt lat="45.82837" lon="4.82184">
        <ele>428</ele>
        <time>2012-01-13T18:36:52Z</time>
      </trkpt>
      <trkpt lat="45.82833" lon="4.82187">
        <ele>435</ele>
        <time>2012-01-13T18:36:55Z</time>
      </trkpt>
      <trkpt lat="45.82828" lon="4.82187">
        <ele>435</ele>
        <time>2012-01-13T18:36:58Z</time>
      </trkpt>
      <trkpt lat="45.82824" lon="4.82186">
        <ele>435</ele>
        <time>2012-01-13T18:37:01Z</time>
      </trkpt>
      <trkpt lat="45.8282" lon="4.82187">
        <ele>436</ele>
        <time>2012-01-13T18:37:04Z</time>
      </trkpt>
      <trkpt lat="45.82818" lon="4.82187">
        <ele>436</ele>
        <time>2012-01-13T18:37:05Z</time>
      </trkpt>
      <trkpt lat="45.82811" lon="4.82186">
        <ele>437</ele>
        <time>2012-01-13T18:37:10Z</time>
      </trkpt>
      <trkpt lat="45.82806" lon="4.82187">
        <ele>438</ele>
        <time>2012-01-13T18:37:13Z</time>
      </trkpt>
      <trkpt lat="45.82798" lon="4.82187">
        <ele>438</ele>
        <time>2012-01-13T18:37:18Z</time>
      </trkpt>
      <trkpt lat="45.82787" lon="4.82187">
        <ele>439</ele>
        <time>2012-01-13T18:37:24Z</time>
      </trkpt>
      <trkpt lat="45.82778" lon="4.82192">
        <ele>440</ele>
        <time>2012-01-13T18:37:30Z</time>
      </trkpt>
      <trkpt lat="45.82774" lon="4.82199">
        <ele>441</ele>
        <time>2012-01-13T18:37:35Z</time>
      </trkpt>
      <trkpt lat="45.82773" lon="4.822">
        <ele>441</ele>
        <time>2012-01-13T18:37:36Z</time>
      </trkpt>
      <trkpt lat="45.82772" lon="4.82201">
        <ele>441</ele>
        <time>2012-01-13T18:37:37Z</time>
      </trkpt>
      <trkpt lat="45.82764" lon="4.82206">
        <ele>442</ele>
        <time>2012-01-13T18:37:42Z</time>
      </trkpt>
      <trkpt lat="45.82753" lon="4.82211">
        <ele>442</ele>
        <time>2012-01-13T18:37:49Z</time>
      </trkpt>
      <trkpt lat="45.8275" lon="4.82213">
        <ele>442</ele>
        <time>2012-01-13T18:37:51Z</time>
      </trkpt>
      <trkpt lat="45.82744" lon="4.82217">
        <ele>449</ele>
        <time>2012-01-13T18:37:55Z</time>
      </trkpt>
      <trkpt lat="45.82737" lon="4.82221">
        <ele>449</ele>
        <time>2012-01-13T18:38:00Z</time>
      </trkpt>
      <trkpt lat="45.82732" lon="4.82225">
        <ele>449</ele>
        <time>2012-01-13T18:38:03Z</time>
      </trkpt>
      <trkpt lat="45.82721" lon="4.82235">
        <ele>450</ele>
        <time>2012-01-13T18:38:10Z</time>
      </trkpt>
      <trkpt lat="45.82712" lon="4.82243">
        <ele>450</ele>
        <time>2012-01-13T18:38:16Z</time>
      </trkpt>
      <trkpt lat="45.82705" lon="4.8225">
        <ele>451</ele>
        <time>2012-01-13T18:38:21Z</time>
      </trkpt>
      <trkpt lat="45.82704" lon="4.82252">
        <ele>451</ele>
        <time>2012-01-13T18:38:22Z</time>
      </trkpt>
      <trkpt lat="45.82703" lon="4.82255">
        <ele>451</ele>
        <time>2012-01-13T18:38:25Z</time>
      </trkpt>
      <trkpt lat="45.82702" lon="4.82259">
        <ele>451</ele>
        <time>2012-01-13T18:38:28Z</time>
      </trkpt>
      <trkpt lat="45.82701" lon="4.8226">
        <ele>451</ele>
        <time>2012-01-13T18:38:30Z</time>
      </trkpt>
      <trkpt lat="45.82699" lon="4.82259">
        <ele>451</ele>
        <time>2012-01-13T18:38:32Z</time>
      </trkpt>
      <trkpt lat="45.82699" lon="4.82259">
        <ele>451</ele>
        <time>2012-01-13T18:38:37Z</time>
      </trkpt>
      <trkpt lat="45.82699" lon="4.82259">
        <ele>451</ele>
        <time>2012-01-13T18:38:45Z</time>
      </trkpt>
      <trkpt lat="45.827" lon="4.8226">
        <ele>451</ele>
        <time>2012-01-13T18:39:02Z</time>
      </trkpt>
      <trkpt lat="45.827" lon="4.82259">
        <ele>451</ele>
        <time>2012-01-13T18:39:29Z</time>
      </trkpt>
      <trkpt lat="45.82698" lon="4.82256">
        <ele>451</ele>
        <time>2012-01-13T18:39:30Z</time>
      </trkpt>
      <trkpt lat="45.82697" lon="4.82254">
        <ele>451</ele>
        <time>2012-01-13T18:39:31Z</time>
      </trkpt>
      <trkpt lat="45.82689" lon="4.8224">
        <ele>452</ele>
        <time>2012-01-13T18:39:36Z</time>
      </trkpt>
      <trkpt lat="45.82685" lon="4.82234">
        <ele>452</ele>
        <time>2012-01-13T18:39:38Z</time>
      </trkpt>
      <trkpt lat="45.82679" lon="4.82223">
        <ele>452</ele>
        <time>2012-01-13T18:39:42Z</time>
      </trkpt>
      <trkpt lat="45.82673" lon="4.82212">
        <ele>451</ele>
        <time>2012-01-13T18:39:46Z</time>
      </trkpt>
      <trkpt lat="45.82669" lon="4.82203">
        <ele>451</ele>
        <time>2012-01-13T18:39:49Z</time>
      </trkpt>
      <trkpt lat="45.82663" lon="4.82191">
        <ele>455</ele>
        <time>2012-01-13T18:39:53Z</time>
      </trkpt>
      <trkpt lat="45.82662" lon="4.82188">
        <ele>455</ele>
        <time>2012-01-13T18:39:54Z</time>
      </trkpt>
      <trkpt lat="45.82658" lon="4.82174">
        <ele>455</ele>
        <time>2012-01-13T18:39:59Z</time>
      </trkpt>
      <trkpt lat="45.82654" lon="4.82165">
        <ele>454</ele>
        <time>2012-01-13T18:40:02Z</time>
      </trkpt>
      <trkpt lat="45.82652" lon="4.82159">
        <ele>454</ele>
        <time>2012-01-13T18:40:04Z</time>
      </trkpt>
      <trkpt lat="45.82644" lon="4.82143">
        <ele>454</ele>
        <time>2012-01-13T18:40:09Z</time>
      </trkpt>
      <trkpt lat="45.82638" lon="4.82129">
        <ele>454</ele>
        <time>2012-01-13T18:40:13Z</time>
      </trkpt>
      <trkpt lat="45.82633" lon="4.8212">
        <ele>455</ele>
        <time>2012-01-13T18:40:16Z</time>
      </trkpt>
      <trkpt lat="45.8263" lon="4.82113">
        <ele>455</ele>
        <time>2012-01-13T18:40:18Z</time>
      </trkpt>
      <trkpt lat="45.82624" lon="4.82096">
        <ele>455</ele>
        <time>2012-01-13T18:40:23Z</time>
      </trkpt>
      <trkpt lat="45.82624" lon="4.82092">
        <ele>455</ele>
        <time>2012-01-13T18:40:24Z</time>
      </trkpt>
      <trkpt lat="45.82623" lon="4.82077">
        <ele>455</ele>
        <time>2012-01-13T18:40:28Z</time>
      </trkpt>
      <trkpt lat="45.82621" lon="4.82066">
        <ele>455</ele>
        <time>2012-01-13T18:40:31Z</time>
      </trkpt>
      <trkpt lat="45.8262" lon="4.82055">
        <ele>455</ele>
        <time>2012-01-13T18:40:34Z</time>
      </trkpt>
      <trkpt lat="45.82621" lon="4.82042">
        <ele>455</ele>
        <time>2012-01-13T18:40:38Z</time>
      </trkpt>
      <trkpt lat="45.82622" lon="4.82038">
        <ele>455</ele>
        <time>2012-01-13T18:40:39Z</time>
      </trkpt>
      <trkpt lat="45.82625" lon="4.82027">
        <ele>455</ele>
        <time>2012-01-13T18:40:42Z</time>
      </trkpt>
      <trkpt lat="45.82626" lon="4.8202">
        <ele>455</ele>
        <time>2012-01-13T18:40:46Z</time>
      </trkpt>
      <trkpt lat="45.82627" lon="4.8202">
        <ele>455</ele>
        <time>2012-01-13T18:40:48Z</time>
      </trkpt>
      <trkpt lat="45.8263" lon="4.82018">
        <ele>455</ele>
        <time>2012-01-13T18:40:50Z</time>
      </trkpt>
      <trkpt lat="45.82632" lon="4.82018">
        <ele>455</ele>
        <time>2012-01-13T18:40:51Z</time>
      </trkpt>
      <trkpt lat="45.82643" lon="4.82022">
        <ele>454</ele>
        <time>2012-01-13T18:40:55Z</time>
      </trkpt>
      <trkpt lat="45.82647" lon="4.82028">
        <ele>454</ele>
        <time>2012-01-13T18:40:59Z</time>
      </trkpt>
      <trkpt lat="45.8265" lon="4.82026">
        <ele>454</ele>
        <time>2012-01-13T18:41:01Z</time>
      </trkpt>
      <trkpt lat="45.82653" lon="4.82025">
        <ele>454</ele>
        <time>2012-01-13T18:41:03Z</time>
      </trkpt>
      <trkpt lat="45.8266" lon="4.82029">
        <ele>453</ele>
        <time>2012-01-13T18:41:08Z</time>
      </trkpt>
      <trkpt lat="45.82662" lon="4.82029">
        <ele>453</ele>
        <time>2012-01-13T18:41:09Z</time>
      </trkpt>
      <trkpt lat="45.82666" lon="4.82025">
        <ele>453</ele>
        <time>2012-01-13T18:41:12Z</time>
      </trkpt>
      <trkpt lat="45.82667" lon="4.82022">
        <ele>445</ele>
        <time>2012-01-13T18:41:13Z</time>
      </trkpt>
      <trkpt lat="45.82673" lon="4.82018">
        <ele>446</ele>
        <time>2012-01-13T18:41:16Z</time>
      </trkpt>
      <trkpt lat="45.82678" lon="4.82008">
        <ele>447</ele>
        <time>2012-01-13T18:41:20Z</time>
      </trkpt>
      <trkpt lat="45.82682" lon="4.82002">
        <ele>446</ele>
        <time>2012-01-13T18:41:22Z</time>
      </trkpt>
      <trkpt lat="45.82688" lon="4.81997">
        <ele>447</ele>
        <time>2012-01-13T18:41:25Z</time>
      </trkpt>
      <trkpt lat="45.8269" lon="4.81996">
        <ele>447</ele>
        <time>2012-01-13T18:41:26Z</time>
      </trkpt>
      <trkpt lat="45.82697" lon="4.81997">
        <ele>446</ele>
        <time>2012-01-13T18:41:30Z</time>
      </trkpt>
      <trkpt lat="45.82698" lon="4.81997">
        <ele>446</ele>
        <time>2012-01-13T18:41:31Z</time>
      </trkpt>
      <trkpt lat="45.827" lon="4.81996">
        <ele>445</ele>
        <time>2012-01-13T18:41:32Z</time>
      </trkpt>
      <trkpt lat="45.82701" lon="4.81995">
        <ele>445</ele>
        <time>2012-01-13T18:41:35Z</time>
      </trkpt>
      <trkpt lat="45.82706" lon="4.81993">
        <ele>444</ele>
        <time>2012-01-13T18:41:37Z</time>
      </trkpt>
      <trkpt lat="45.82711" lon="4.81992">
        <ele>443</ele>
        <time>2012-01-13T18:41:39Z</time>
      </trkpt>
      <trkpt lat="45.82718" lon="4.81987">
        <ele>442</ele>
        <time>2012-01-13T18:41:43Z</time>
      </trkpt>
      <trkpt lat="45.8272" lon="4.81985">
        <ele>442</ele>
        <time>2012-01-13T18:41:44Z</time>
      </trkpt>
      <trkpt lat="45.82726" lon="4.81986">
        <ele>441</ele>
        <time>2012-01-13T18:41:47Z</time>
      </trkpt>
      <trkpt lat="45.82728" lon="4.81986">
        <ele>441</ele>
        <time>2012-01-13T18:41:49Z</time>
      </trkpt>
      <trkpt lat="45.82731" lon="4.81987">
        <ele>440</ele>
        <time>2012-01-13T18:41:50Z</time>
      </trkpt>
      <trkpt lat="45.82737" lon="4.81988">
        <ele>439</ele>
        <time>2012-01-13T18:41:54Z</time>
      </trkpt>
      <trkpt lat="45.8274" lon="4.81988">
        <ele>438</ele>
        <time>2012-01-13T18:41:55Z</time>
      </trkpt>
      <trkpt lat="45.82751" lon="4.81986">
        <ele>431</ele>
        <time>2012-01-13T18:41:59Z</time>
      </trkpt>
      <trkpt lat="45.82753" lon="4.81984">
        <ele>431</ele>
        <time>2012-01-13T18:42:00Z</time>
      </trkpt>
      <trkpt lat="45.82757" lon="4.81984">
        <ele>430</ele>
        <time>2012-01-13T18:42:01Z</time>
      </trkpt>
      <trkpt lat="45.82761" lon="4.81985">
        <ele>430</ele>
        <time>2012-01-13T18:42:04Z</time>
      </trkpt>
      <trkpt lat="45.82762" lon="4.81985">
        <ele>430</ele>
        <time>2012-01-13T18:42:05Z</time>
      </trkpt>
      <trkpt lat="45.82763" lon="4.81985">
        <ele>430</ele>
        <time>2012-01-13T18:42:06Z</time>
      </trkpt>
      <trkpt lat="45.82768" lon="4.81986">
        <ele>430</ele>
        <time>2012-01-13T18:42:09Z</time>
      </trkpt>
      <trkpt lat="45.82772" lon="4.81988">
        <ele>429</ele>
        <time>2012-01-13T18:42:12Z</time>
      </trkpt>
      <trkpt lat="45.82776" lon="4.81991">
        <ele>429</ele>
        <time>2012-01-13T18:42:14Z</time>
      </trkpt>
      <trkpt lat="45.82781" lon="4.81996">
        <ele>428</ele>
        <time>2012-01-13T18:42:18Z</time>
      </trkpt>
      <trkpt lat="45.82794" lon="4.81994">
        <ele>426</ele>
        <time>2012-01-13T18:42:24Z</time>
      </trkpt>
      <trkpt lat="45.82802" lon="4.81994">
        <ele>425</ele>
        <time>2012-01-13T18:42:29Z</time>
      </trkpt>
      <trkpt lat="45.82807" lon="4.81994">
        <ele>424</ele>
        <time>2012-01-13T18:42:31Z</time>
      </trkpt>
      <trkpt lat="45.82811" lon="4.81996">
        <ele>423</ele>
        <time>2012-01-13T18:42:33Z</time>
      </trkpt>
      <trkpt lat="45.82813" lon="4.81997">
        <ele>423</ele>
        <time>2012-01-13T18:42:34Z</time>
      </trkpt>
      <trkpt lat="45.82822" lon="4.82001">
        <ele>419</ele>
        <time>2012-01-13T18:42:39Z</time>
      </trkpt>
      <trkpt lat="45.82832" lon="4.82003">
        <ele>417</ele>
        <time>2012-01-13T18:42:43Z</time>
      </trkpt>
      <trkpt lat="45.82843" lon="4.82004">
        <ele>413</ele>
        <time>2012-01-13T18:42:48Z</time>
      </trkpt>
      <trkpt lat="45.82851" lon="4.82003">
        <ele>412</ele>
        <time>2012-01-13T18:42:53Z</time>
      </trkpt>
      <trkpt lat="45.82853" lon="4.82003">
        <ele>411</ele>
        <time>2012-01-13T18:42:54Z</time>
      </trkpt>
      <trkpt lat="45.82858" lon="4.82003">
        <ele>411</ele>
        <time>2012-01-13T18:42:56Z</time>
      </trkpt>
      <trkpt lat="45.82868" lon="4.82006">
        <ele>409</ele>
        <time>2012-01-13T18:43:00Z</time>
      </trkpt>
      <trkpt lat="45.8287" lon="4.82006">
        <ele>409</ele>
        <time>2012-01-13T18:43:01Z</time>
      </trkpt>
      <trkpt lat="45.82875" lon="4.82006">
        <ele>408</ele>
        <time>2012-01-13T18:43:04Z</time>
      </trkpt>
      <trkpt lat="45.82882" lon="4.82007">
        <ele>407</ele>
        <time>2012-01-13T18:43:08Z</time>
      </trkpt>
      <trkpt lat="45.82888" lon="4.82007">
        <ele>406</ele>
        <time>2012-01-13T18:43:11Z</time>
      </trkpt>
      <trkpt lat="45.82892" lon="4.82003">
        <ele>405</ele>
        <time>2012-01-13T18:43:13Z</time>
      </trkpt>
      <trkpt lat="45.82898" lon="4.82001">
        <ele>404</ele>
        <time>2012-01-13T18:43:16Z</time>
      </trkpt>
      <trkpt lat="45.82902" lon="4.82004">
        <ele>403</ele>
        <time>2012-01-13T18:43:18Z</time>
      </trkpt>
      <trkpt lat="45.82906" lon="4.82007">
        <ele>403</ele>
        <time>2012-01-13T18:43:21Z</time>
      </trkpt>
      <trkpt lat="45.82907" lon="4.82007">
        <ele>403</ele>
        <time>2012-01-13T18:43:22Z</time>
      </trkpt>
      <trkpt lat="45.82908" lon="4.82006">
        <ele>402</ele>
        <time>2012-01-13T18:43:23Z</time>
      </trkpt>
      <trkpt lat="45.82915" lon="4.82">
        <ele>400</ele>
        <time>2012-01-13T18:43:27Z</time>
      </trkpt>
      <trkpt lat="45.82916" lon="4.81999">
        <ele>400</ele>
        <time>2012-01-13T18:43:28Z</time>
      </trkpt>
      <trkpt lat="45.82923" lon="4.81999">
        <ele>398</ele>
        <time>2012-01-13T18:43:34Z</time>
      </trkpt>
      <trkpt lat="45.82924" lon="4.81999">
        <ele>398</ele>
        <time>2012-01-13T18:43:35Z</time>
      </trkpt>
      <trkpt lat="45.82929" lon="4.81997">
        <ele>397</ele>
        <time>2012-01-13T18:43:38Z</time>
      </trkpt>
      <trkpt lat="45.82931" lon="4.81998">
        <ele>397</ele>
        <time>2012-01-13T18:43:39Z</time>
      </trkpt>
      <trkpt lat="45.82933" lon="4.81999">
        <ele>397</ele>
        <time>2012-01-13T18:43:40Z</time>
      </trkpt>
      <trkpt lat="45.82937" lon="4.82005">
        <ele>396</ele>
        <time>2012-01-13T18:43:43Z</time>
      </trkpt>
      <trkpt lat="45.82939" lon="4.82009">
        <ele>396</ele>
        <time>2012-01-13T18:43:45Z</time>
      </trkpt>
      <trkpt lat="45.82939" lon="4.8201">
        <ele>396</ele>
        <time>2012-01-13T18:43:46Z</time>
      </trkpt>
      <trkpt lat="45.82937" lon="4.82013">
        <ele>396</ele>
        <time>2012-01-13T18:43:50Z</time>
      </trkpt>
      <trkpt lat="45.82934" lon="4.82011">
        <ele>397</ele>
        <time>2012-01-13T18:43:54Z</time>
      </trkpt>
      <trkpt lat="45.82929" lon="4.82008">
        <ele>397</ele>
        <time>2012-01-13T18:44:06Z</time>
      </trkpt>
      <trkpt lat="45.82934" lon="4.8201">
        <ele>397</ele>
        <time>2012-01-13T18:44:09Z</time>
      </trkpt>
      <trkpt lat="45.82942" lon="4.82007">
        <ele>396</ele>
        <time>2012-01-13T18:44:12Z</time>
      </trkpt>
      <trkpt lat="45.8295" lon="4.81997">
        <ele>395</ele>
        <time>2012-01-13T18:44:16Z</time>
      </trkpt>
      <trkpt lat="45.82953" lon="4.81995">
        <ele>395</ele>
        <time>2012-01-13T18:44:17Z</time>
      </trkpt>
      <trkpt lat="45.82967" lon="4.8199">
        <ele>393</ele>
        <time>2012-01-13T18:44:22Z</time>
      </trkpt>
      <trkpt lat="45.8297" lon="4.8199">
        <ele>393</ele>
        <time>2012-01-13T18:44:23Z</time>
      </trkpt>
      <trkpt lat="45.8298" lon="4.81992">
        <ele>392</ele>
        <time>2012-01-13T18:44:28Z</time>
      </trkpt>
      <trkpt lat="45.82977" lon="4.81992">
        <ele>392</ele>
        <time>2012-01-13T18:44:32Z</time>
      </trkpt>
      <trkpt lat="45.82978" lon="4.81991">
        <ele>392</ele>
        <time>2012-01-13T18:44:34Z</time>
      </trkpt>
      <trkpt lat="45.82977" lon="4.81991">
        <ele>392</ele>
        <time>2012-01-13T18:44:38Z</time>
      </trkpt>
      <trkpt lat="45.82976" lon="4.81989">
        <ele>392</ele>
        <time>2012-01-13T18:44:44Z</time>
      </trkpt>
      <trkpt lat="45.82972" lon="4.81987">
        <ele>393</ele>
        <time>2012-01-13T18:44:54Z</time>
      </trkpt>
      <trkpt lat="45.82973" lon="4.81989">
        <ele>393</ele>
        <time>2012-01-13T18:44:56Z</time>
      </trkpt>
      <trkpt lat="45.82975" lon="4.81994">
        <ele>392</ele>
        <time>2012-01-13T18:45:02Z</time>
      </trkpt>
      <trkpt lat="45.82978" lon="4.81994">
        <ele>392</ele>
        <time>2012-01-13T18:45:08Z</time>
      </trkpt>
      <trkpt lat="45.8298" lon="4.81994">
        <ele>392</ele>
        <time>2012-01-13T18:45:22Z</time>
      </trkpt>
      <trkpt lat="45.82975" lon="4.81995">
        <ele>392</ele>
        <time>2012-01-13T18:45:27Z</time>
      </trkpt>
      <trkpt lat="45.82976" lon="4.81999">
        <ele>392</ele>
        <time>2012-01-13T18:45:31Z</time>
      </trkpt>
      <trkpt lat="45.8298" lon="4.82">
        <ele>392</ele>
        <time>2012-01-13T18:45:37Z</time>
      </trkpt>
      <trkpt lat="45.82986" lon="4.81998">
        <ele>391</ele>
        <time>2012-01-13T18:45:46Z</time>
      </trkpt>
      <trkpt lat="45.82989" lon="4.81999">
        <ele>390</ele>
        <time>2012-01-13T18:45:54Z</time>
      </trkpt>
      <trkpt lat="45.82991" lon="4.82004">
        <ele>390</ele>
        <time>2012-01-13T18:45:56Z</time>
      </trkpt>
      <trkpt lat="45.82994" lon="4.82008">
        <ele>390</ele>
        <time>2012-01-13T18:45:58Z</time>
      </trkpt>
      <trkpt lat="45.82999" lon="4.82015">
        <ele>391</ele>
        <time>2012-01-13T18:46:01Z</time>
      </trkpt>
      <trkpt lat="45.83" lon="4.82016">
        <ele>391</ele>
        <time>2012-01-13T18:46:02Z</time>
      </trkpt>
      <trkpt lat="45.83002" lon="4.82022">
        <ele>379</ele>
        <time>2012-01-13T18:46:06Z</time>
      </trkpt>
      <trkpt lat="45.83002" lon="4.82027">
        <ele>378</ele>
        <time>2012-01-13T18:46:14Z</time>
      </trkpt>
      <trkpt lat="45.82999" lon="4.82031">
        <ele>392</ele>
        <time>2012-01-13T18:46:22Z</time>
      </trkpt>
      <trkpt lat="45.82997" lon="4.82036">
        <ele>392</ele>
        <time>2012-01-13T18:46:29Z</time>
      </trkpt>
      <trkpt lat="45.82996" lon="4.82039">
        <ele>393</ele>
        <time>2012-01-13T18:46:30Z</time>
      </trkpt>
      <trkpt lat="45.82993" lon="4.82048">
        <ele>393</ele>
        <time>2012-01-13T18:46:35Z</time>
      </trkpt>
      <trkpt lat="45.82992" lon="4.8205">
        <ele>393</ele>
        <time>2012-01-13T18:46:36Z</time>
      </trkpt>
      <trkpt lat="45.8299" lon="4.82062">
        <ele>393</ele>
        <time>2012-01-13T18:46:42Z</time>
      </trkpt>
      <trkpt lat="45.82989" lon="4.82064">
        <ele>393</ele>
        <time>2012-01-13T18:46:43Z</time>
      </trkpt>
      <trkpt lat="45.82988" lon="4.82069">
        <ele>392</ele>
        <time>2012-01-13T18:46:46Z</time>
      </trkpt>
      <trkpt lat="45.82987" lon="4.82073">
        <ele>392</ele>
        <time>2012-01-13T18:46:48Z</time>
      </trkpt>
      <trkpt lat="45.82985" lon="4.82075">
        <ele>392</ele>
        <time>2012-01-13T18:46:51Z</time>
      </trkpt>
      <trkpt lat="45.82983" lon="4.82079">
        <ele>393</ele>
        <time>2012-01-13T18:46:56Z</time>
      </trkpt>
      <trkpt lat="45.82983" lon="4.82081">
        <ele>393</ele>
        <time>2012-01-13T18:46:57Z</time>
      </trkpt>
      <trkpt lat="45.82982" lon="4.82084">
        <ele>396</ele>
        <time>2012-01-13T18:46:59Z</time>
      </trkpt>
      <trkpt lat="45.8298" lon="4.82088">
        <ele>396</ele>
        <time>2012-01-13T18:47:01Z</time>
      </trkpt>
      <trkpt lat="45.82978" lon="4.82092">
        <ele>397</ele>
        <time>2012-01-13T18:47:04Z</time>
      </trkpt>
      <trkpt lat="45.82974" lon="4.821">
        <ele>398</ele>
        <time>2012-01-13T18:47:10Z</time>
      </trkpt>
      <trkpt lat="45.82972" lon="4.82105">
        <ele>399</ele>
        <time>2012-01-13T18:47:13Z</time>
      </trkpt>
      <trkpt lat="45.82971" lon="4.82111">
        <ele>399</ele>
        <time>2012-01-13T18:47:16Z</time>
      </trkpt>
      <trkpt lat="45.8297" lon="4.82111">
        <ele>399</ele>
        <time>2012-01-13T18:47:17Z</time>
      </trkpt>
      <trkpt lat="45.82969" lon="4.82113">
        <ele>400</ele>
        <time>2012-01-13T18:47:18Z</time>
      </trkpt>
      <trkpt lat="45.82968" lon="4.82114">
        <ele>400</ele>
        <time>2012-01-13T18:47:19Z</time>
      </trkpt>
      <trkpt lat="45.82966" lon="4.82119">
        <ele>400</ele>
        <time>2012-01-13T18:47:23Z</time>
      </trkpt>
      <trkpt lat="45.82965" lon="4.82122">
        <ele>401</ele>
        <time>2012-01-13T18:47:25Z</time>
      </trkpt>
      <trkpt lat="45.82965" lon="4.82124">
        <ele>401</ele>
        <time>2012-01-13T18:47:26Z</time>
      </trkpt>
      <trkpt lat="45.82963" lon="4.82131">
        <ele>401</ele>
        <time>2012-01-13T18:47:31Z</time>
      </trkpt>
      <trkpt lat="45.82961" lon="4.82135">
        <ele>402</ele>
        <time>2012-01-13T18:47:34Z</time>
      </trkpt>
      <trkpt lat="45.82961" lon="4.82136">
        <ele>402</ele>
        <time>2012-01-13T18:47:35Z</time>
      </trkpt>
      <trkpt lat="45.82961" lon="4.82136">
        <ele>402</ele>
        <time>2012-01-13T18:47:36Z</time>
      </trkpt>
      <trkpt lat="45.8296" lon="4.82139">
        <ele>402</ele>
        <time>2012-01-13T18:47:38Z</time>
      </trkpt>
      <trkpt lat="45.82957" lon="4.82142">
        <ele>402</ele>
        <time>2012-01-13T18:47:42Z</time>
      </trkpt>
      <trkpt lat="45.82957" lon="4.82143">
        <ele>402</ele>
        <time>2012-01-13T18:47:43Z</time>
      </trkpt>
      <trkpt lat="45.82953" lon="4.82146">
        <ele>403</ele>
        <time>2012-01-13T18:47:48Z</time>
      </trkpt>
      <trkpt lat="45.82953" lon="4.82148">
        <ele>403</ele>
        <time>2012-01-13T18:47:50Z</time>
      </trkpt>
      <trkpt lat="45.8295" lon="4.82153">
        <ele>404</ele>
        <time>2012-01-13T18:47:54Z</time>
      </trkpt>
      <trkpt lat="45.8295" lon="4.82154">
        <ele>404</ele>
        <time>2012-01-13T18:47:55Z</time>
      </trkpt>
      <trkpt lat="45.82949" lon="4.82157">
        <ele>404</ele>
        <time>2012-01-13T18:47:58Z</time>
      </trkpt>
      <trkpt lat="45.82948" lon="4.82158">
        <ele>404</ele>
        <time>2012-01-13T18:47:59Z</time>
      </trkpt>
      <trkpt lat="45.82947" lon="4.82163">
        <ele>405</ele>
        <time>2012-01-13T18:48:03Z</time>
      </trkpt>
      <trkpt lat="45.82946" lon="4.82167">
        <ele>405</ele>
        <time>2012-01-13T18:48:06Z</time>
      </trkpt>
      <trkpt lat="45.82941" lon="4.82171">
        <ele>412</ele>
        <time>2012-01-13T18:48:11Z</time>
      </trkpt>
      <trkpt lat="45.8294" lon="4.82173">
        <ele>412</ele>
        <time>2012-01-13T18:48:13Z</time>
      </trkpt>
      <trkpt lat="45.82938" lon="4.82177">
        <ele>413</ele>
        <time>2012-01-13T18:48:17Z</time>
      </trkpt>
      <trkpt lat="45.82935" lon="4.82181">
        <ele>413</ele>
        <time>2012-01-13T18:48:21Z</time>
      </trkpt>
      <trkpt lat="45.82931" lon="4.82186">
        <ele>413</ele>
        <time>2012-01-13T18:48:28Z</time>
      </trkpt>
      <trkpt lat="45.82929" lon="4.82187">
        <ele>414</ele>
        <time>2012-01-13T18:48:30Z</time>
      </trkpt>
      <trkpt lat="45.82929" lon="4.82189">
        <ele>414</ele>
        <time>2012-01-13T18:48:31Z</time>
      </trkpt>
      <trkpt lat="45.82928" lon="4.82194">
        <ele>414</ele>
        <time>2012-01-13T18:48:34Z</time>
      </trkpt>
      <trkpt lat="45.82926" lon="4.82196">
        <ele>414</ele>
        <time>2012-01-13T18:48:36Z</time>
      </trkpt>
      <trkpt lat="45.82923" lon="4.822">
        <ele>415</ele>
        <time>2012-01-13T18:48:40Z</time>
      </trkpt>
      <trkpt lat="45.82922" lon="4.822">
        <ele>415</ele>
        <time>2012-01-13T18:48:41Z</time>
      </trkpt>
      <trkpt lat="45.82921" lon="4.82203">
        <ele>415</ele>
        <time>2012-01-13T18:48:47Z</time>
      </trkpt>
      <trkpt lat="45.82921" lon="4.822">
        <ele>415</ele>
        <time>2012-01-13T18:48:55Z</time>
      </trkpt>
      <trkpt lat="45.82917" lon="4.822">
        <ele>415</ele>
        <time>2012-01-13T18:49:01Z</time>
      </trkpt>
      <trkpt lat="45.82913" lon="4.82201">
        <ele>424</ele>
        <time>2012-01-13T18:49:07Z</time>
      </trkpt>
      <trkpt lat="45.8291" lon="4.822">
        <ele>424</ele>
        <time>2012-01-13T18:49:10Z</time>
      </trkpt>
      <trkpt lat="45.82909" lon="4.82199">
        <ele>424</ele>
        <time>2012-01-13T18:49:11Z</time>
      </trkpt>
      <trkpt lat="45.82904" lon="4.82196">
        <ele>423</ele>
        <time>2012-01-13T18:49:16Z</time>
      </trkpt>
      <trkpt lat="45.82902" lon="4.82193">
        <ele>423</ele>
        <time>2012-01-13T18:49:18Z</time>
      </trkpt>
      <trkpt lat="45.82901" lon="4.82192">
        <ele>423</ele>
        <time>2012-01-13T18:49:19Z</time>
      </trkpt>
      <trkpt lat="45.829" lon="4.82188">
        <ele>422</ele>
        <time>2012-01-13T18:49:21Z</time>
      </trkpt>
      <trkpt lat="45.82901" lon="4.82185">
        <ele>422</ele>
        <time>2012-01-13T18:49:23Z</time>
      </trkpt>
      <trkpt lat="45.82897" lon="4.8218">
        <ele>422</ele>
        <time>2012-01-13T18:49:27Z</time>
      </trkpt>
      <trkpt lat="45.82894" lon="4.82177">
        <ele>422</ele>
        <time>2012-01-13T18:49:29Z</time>
      </trkpt>
      <trkpt lat="45.82887" lon="4.82172">
        <ele>423</ele>
        <time>2012-01-13T18:49:33Z</time>
      </trkpt>
      <trkpt lat="45.82878" lon="4.82167">
        <ele>424</ele>
        <time>2012-01-13T18:49:37Z</time>
      </trkpt>
      <trkpt lat="45.82868" lon="4.82165">
        <ele>419</ele>
        <time>2012-01-13T18:49:42Z</time>
      </trkpt>
      <trkpt lat="45.82859" lon="4.82167">
        <ele>427</ele>
        <time>2012-01-13T18:49:47Z</time>
      </trkpt>
      <trkpt lat="45.8285" lon="4.8217">
        <ele>428</ele>
        <time>2012-01-13T18:49:53Z</time>
      </trkpt>
      <trkpt lat="45.82842" lon="4.82179">
        <ele>428</ele>
        <time>2012-01-13T18:50:00Z</time>
      </trkpt>
      <trkpt lat="45.82837" lon="4.82187">
        <ele>429</ele>
        <time>2012-01-13T18:50:06Z</time>
      </trkpt>
      <trkpt lat="45.82835" lon="4.82187">
        <ele>429</ele>
        <time>2012-01-13T18:50:07Z</time>
      </trkpt>
      <trkpt lat="45.82831" lon="4.82188">
        <ele>435</ele>
        <time>2012-01-13T18:50:10Z</time>
      </trkpt>
      <trkpt lat="45.82828" lon="4.82187">
        <ele>435</ele>
        <time>2012-01-13T18:50:12Z</time>
      </trkpt>
      <trkpt lat="45.82823" lon="4.82188">
        <ele>436</ele>
        <time>2012-01-13T18:50:16Z</time>
      </trkpt>
      <trkpt lat="45.8282" lon="4.82188">
        <ele>436</ele>
        <time>2012-01-13T18:50:18Z</time>
      </trkpt>
      <trkpt lat="45.82819" lon="4.82192">
        <ele>437</ele>
        <time>2012-01-13T18:50:25Z</time>
      </trkpt>
      <trkpt lat="45.82817" lon="4.82194">
        <ele>437</ele>
        <time>2012-01-13T18:50:27Z</time>
      </trkpt>
      <trkpt lat="45.8281" lon="4.82195">
        <ele>438</ele>
        <time>2012-01-13T18:50:32Z</time>
      </trkpt>
      <trkpt lat="45.82809" lon="4.82194">
        <ele>438</ele>
        <time>2012-01-13T18:50:33Z</time>
      </trkpt>
      <trkpt lat="45.82801" lon="4.82192">
        <ele>438</ele>
        <time>2012-01-13T18:50:39Z</time>
      </trkpt>
      <trkpt lat="45.82798" lon="4.82191">
        <ele>439</ele>
        <time>2012-01-13T18:50:41Z</time>
      </trkpt>
      <trkpt lat="45.82792" lon="4.82191">
        <ele>439</ele>
        <time>2012-01-13T18:50:46Z</time>
      </trkpt>
      <trkpt lat="45.8279" lon="4.82192">
        <ele>439</ele>
        <time>2012-01-13T18:50:47Z</time>
      </trkpt>
      <trkpt lat="45.82787" lon="4.82192">
        <ele>440</ele>
        <time>2012-01-13T18:50:50Z</time>
      </trkpt>
      <trkpt lat="45.82785" lon="4.82192">
        <ele>440</ele>
        <time>2012-01-13T18:50:52Z</time>
      </trkpt>
      <trkpt lat="45.82782" lon="4.82192">
        <ele>440</ele>
        <time>2012-01-13T18:50:55Z</time>
      </trkpt>
      <trkpt lat="45.82779" lon="4.82193">
        <ele>440</ele>
        <time>2012-01-13T18:50:57Z</time>
      </trkpt>
      <trkpt lat="45.82778" lon="4.82194">
        <ele>440</ele>
        <time>2012-01-13T18:50:58Z</time>
      </trkpt>
      <trkpt lat="45.82773" lon="4.82202">
        <ele>441</ele>
        <time>2012-01-13T18:51:04Z</time>
      </trkpt>
      <trkpt lat="45.82768" lon="4.82207">
        <ele>441</ele>
        <time>2012-01-13T18:51:09Z</time>
      </trkpt>
      <trkpt lat="45.82765" lon="4.82208">
        <ele>442</ele>
        <time>2012-01-13T18:51:11Z</time>
      </trkpt>
      <trkpt lat="45.82761" lon="4.82212">
        <ele>442</ele>
        <time>2012-01-13T18:51:14Z</time>
      </trkpt>
      <trkpt lat="45.82751" lon="4.82215">
        <ele>442</ele>
        <time>2012-01-13T18:51:19Z</time>
      </trkpt>
      <trkpt lat="45.82747" lon="4.82216">
        <ele>448</ele>
        <time>2012-01-13T18:51:22Z</time>
      </trkpt>
      <trkpt lat="45.82742" lon="4.82217">
        <ele>449</ele>
        <time>2012-01-13T18:51:25Z</time>
      </trkpt>
      <trkpt lat="45.82735" lon="4.82222">
        <ele>449</ele>
        <time>2012-01-13T18:51:30Z</time>
      </trkpt>
      <trkpt lat="45.8273" lon="4.82226">
        <ele>449</ele>
        <time>2012-01-13T18:51:34Z</time>
      </trkpt>
      <trkpt lat="45.82727" lon="4.82229">
        <ele>449</ele>
        <time>2012-01-13T18:51:36Z</time>
      </trkpt>
      <trkpt lat="45.82719" lon="4.82236">
        <ele>450</ele>
        <time>2012-01-13T18:51:42Z</time>
      </trkpt>
      <trkpt lat="45.82714" lon="4.82241">
        <ele>450</ele>
        <time>2012-01-13T18:51:45Z</time>
      </trkpt>
      <trkpt lat="45.82711" lon="4.82243">
        <ele>450</ele>
        <time>2012-01-13T18:51:47Z</time>
      </trkpt>
      <trkpt lat="45.82704" lon="4.82253">
        <ele>451</ele>
        <time>2012-01-13T18:51:52Z</time>
      </trkpt>
      <trkpt lat="45.82703" lon="4.82256">
        <ele>451</ele>
        <time>2012-01-13T18:51:54Z</time>
      </trkpt>
      <trkpt lat="45.82702" lon="4.8226">
        <ele>451</ele>
        <time>2012-01-13T18:51:57Z</time>
      </trkpt>
      <trkpt lat="45.82702" lon="4.8226">
        <ele>451</ele>
        <time>2012-01-13T18:51:58Z</time>
      </trkpt>
      <trkpt lat="45.827" lon="4.8226">
        <ele>451</ele>
        <time>2012-01-13T18:52:05Z</time>
      </trkpt>
      <trkpt lat="45.82699" lon="4.82263">
        <ele>451</ele>
        <time>2012-01-13T18:52:23Z</time>
      </trkpt>
      <trkpt lat="45.82694" lon="4.82256">
        <ele>451</ele>
        <time>2012-01-13T18:53:10Z</time>
      </trkpt>
      <trkpt lat="45.82694" lon="4.82255">
        <ele>451</ele>
        <time>2012-01-13T18:53:11Z</time>
      </trkpt>
      <trkpt lat="45.82691" lon="4.82251">
        <ele>452</ele>
        <time>2012-01-13T18:53:14Z</time>
      </trkpt>
      <trkpt lat="45.8269" lon="4.82249">
        <ele>452</ele>
        <time>2012-01-13T18:53:15Z</time>
      </trkpt>
      <trkpt lat="45.82685" lon="4.8224">
        <ele>452</ele>
        <time>2012-01-13T18:53:19Z</time>
      </trkpt>
      <trkpt lat="45.82678" lon="4.82228">
        <ele>452</ele>
        <time>2012-01-13T18:53:24Z</time>
      </trkpt>
      <trkpt lat="45.82677" lon="4.82226">
        <ele>452</ele>
        <time>2012-01-13T18:53:25Z</time>
      </trkpt>
      <trkpt lat="45.82671" lon="4.82214">
        <ele>451</ele>
        <time>2012-01-13T18:53:30Z</time>
      </trkpt>
      <trkpt lat="45.82667" lon="4.82206">
        <ele>451</ele>
        <time>2012-01-13T18:53:33Z</time>
      </trkpt>
      <trkpt lat="45.82665" lon="4.822">
        <ele>456</ele>
        <time>2012-01-13T18:53:35Z</time>
      </trkpt>
      <trkpt lat="45.82662" lon="4.82196">
        <ele>456</ele>
        <time>2012-01-13T18:53:37Z</time>
      </trkpt>
      <trkpt lat="45.82659" lon="4.82195">
        <ele>456</ele>
        <time>2012-01-13T18:53:40Z</time>
      </trkpt>
      <trkpt lat="45.82652" lon="4.82198">
        <ele>456</ele>
        <time>2012-01-13T18:53:44Z</time>
      </trkpt>
      <trkpt lat="45.82649" lon="4.82199">
        <ele>456</ele>
        <time>2012-01-13T18:53:45Z</time>
      </trkpt>
      <trkpt lat="45.82646" lon="4.82201">
        <ele>456</ele>
        <time>2012-01-13T18:53:46Z</time>
      </trkpt>
      <trkpt lat="45.82637" lon="4.82204">
        <ele>457</ele>
        <time>2012-01-13T18:53:50Z</time>
      </trkpt>
      <trkpt lat="45.82633" lon="4.82205">
        <ele>457</ele>
        <time>2012-01-13T18:53:52Z</time>
      </trkpt>
      <trkpt lat="45.82628" lon="4.82208">
        <ele>457</ele>
        <time>2012-01-13T18:53:55Z</time>
      </trkpt>
      <trkpt lat="45.82616" lon="4.8221">
        <ele>458</ele>
        <time>2012-01-13T18:54:01Z</time>
      </trkpt>
      <trkpt lat="45.82613" lon="4.82211">
        <ele>458</ele>
        <time>2012-01-13T18:54:02Z</time>
      </trkpt>
      <trkpt lat="45.82605" lon="4.82212">
        <ele>458</ele>
        <time>2012-01-13T18:54:06Z</time>
      </trkpt>
      <trkpt lat="45.82594" lon="4.82214">
        <ele>458</ele>
        <time>2012-01-13T18:54:11Z</time>
      </trkpt>
      <trkpt lat="45.82585" lon="4.82223">
        <ele>459</ele>
        <time>2012-01-13T18:54:16Z</time>
      </trkpt>
      <trkpt lat="45.82577" lon="4.82223">
        <ele>462</ele>
        <time>2012-01-13T18:54:20Z</time>
      </trkpt>
      <trkpt lat="45.82576" lon="4.82223">
        <ele>462</ele>
        <time>2012-01-13T18:54:21Z</time>
      </trkpt>
      <trkpt lat="45.82565" lon="4.82224">
        <ele>462</ele>
        <time>2012-01-13T18:54:26Z</time>
      </trkpt>
      <trkpt lat="45.82561" lon="4.82223">
        <ele>462</ele>
        <time>2012-01-13T18:54:28Z</time>
      </trkpt>
      <trkpt lat="45.82559" lon="4.82223">
        <ele>462</ele>
        <time>2012-01-13T18:54:29Z</time>
      </trkpt>
      <trkpt lat="45.82552" lon="4.82223">
        <ele>462</ele>
        <time>2012-01-13T18:54:32Z</time>
      </trkpt>
      <trkpt lat="45.8254" lon="4.82221">
        <ele>463</ele>
        <time>2012-01-13T18:54:37Z</time>
      </trkpt>
      <trkpt lat="45.82527" lon="4.82219">
        <ele>463</ele>
        <time>2012-01-13T18:54:43Z</time>
      </trkpt>
      <trkpt lat="45.82521" lon="4.82218">
        <ele>463</ele>
        <time>2012-01-13T18:54:46Z</time>
      </trkpt>
      <trkpt lat="45.82517" lon="4.82221">
        <ele>463</ele>
        <time>2012-01-13T18:54:48Z</time>
      </trkpt>
      <trkpt lat="45.82516" lon="4.82223">
        <ele>463</ele>
        <time>2012-01-13T18:54:49Z</time>
      </trkpt>
      <trkpt lat="45.82512" lon="4.82242">
        <ele>463</ele>
        <time>2012-01-13T18:54:54Z</time>
      </trkpt>
      <trkpt lat="45.82504" lon="4.82259">
        <ele>461</ele>
        <time>2012-01-13T18:55:00Z</time>
      </trkpt>
      <trkpt lat="45.82501" lon="4.82263">
        <ele>460</ele>
        <time>2012-01-13T18:55:02Z</time>
      </trkpt>
      <trkpt lat="45.82494" lon="4.82269">
        <ele>458</ele>
        <time>2012-01-13T18:55:05Z</time>
      </trkpt>
      <trkpt lat="45.82486" lon="4.82277">
        <ele>456</ele>
        <time>2012-01-13T18:55:09Z</time>
      </trkpt>
      <trkpt lat="45.82482" lon="4.82282">
        <ele>455</ele>
        <time>2012-01-13T18:55:11Z</time>
      </trkpt>
      <trkpt lat="45.82482" lon="4.82285">
        <ele>455</ele>
        <time>2012-01-13T18:55:12Z</time>
      </trkpt>
      <trkpt lat="45.82483" lon="4.82294">
        <ele>454</ele>
        <time>2012-01-13T18:55:15Z</time>
      </trkpt>
      <trkpt lat="45.82486" lon="4.82298">
        <ele>453</ele>
        <time>2012-01-13T18:55:19Z</time>
      </trkpt>
      <trkpt lat="45.82486" lon="4.82296">
        <ele>454</ele>
        <time>2012-01-13T18:55:21Z</time>
      </trkpt>
      <trkpt lat="45.82485" lon="4.82296">
        <ele>454</ele>
        <time>2012-01-13T18:55:24Z</time>
      </trkpt>
      <trkpt lat="45.82487" lon="4.82304">
        <ele>453</ele>
        <time>2012-01-13T18:55:29Z</time>
      </trkpt>
      <trkpt lat="45.82488" lon="4.82306">
        <ele>453</ele>
        <time>2012-01-13T18:55:30Z</time>
      </trkpt>
      <trkpt lat="45.82493" lon="4.82314">
        <ele>452</ele>
        <time>2012-01-13T18:55:33Z</time>
      </trkpt>
      <trkpt lat="45.82495" lon="4.82317">
        <ele>452</ele>
        <time>2012-01-13T18:55:34Z</time>
      </trkpt>
      <trkpt lat="45.82501" lon="4.82325">
        <ele>452</ele>
        <time>2012-01-13T18:55:37Z</time>
      </trkpt>
      <trkpt lat="45.82505" lon="4.8233">
        <ele>451</ele>
        <time>2012-01-13T18:55:39Z</time>
      </trkpt>
      <trkpt lat="45.82505" lon="4.82336">
        <ele>449</ele>
        <time>2012-01-13T18:55:42Z</time>
      </trkpt>
      <trkpt lat="45.82503" lon="4.82335">
        <ele>449</ele>
        <time>2012-01-13T18:55:43Z</time>
      </trkpt>
      <trkpt lat="45.8249" lon="4.82328">
        <ele>451</ele>
        <time>2012-01-13T18:55:49Z</time>
      </trkpt>
      <trkpt lat="45.82485" lon="4.82326">
        <ele>451</ele>
        <time>2012-01-13T18:55:51Z</time>
      </trkpt>
      <trkpt lat="45.82472" lon="4.82319">
        <ele>452</ele>
        <time>2012-01-13T18:55:56Z</time>
      </trkpt>
      <trkpt lat="45.82467" lon="4.82317">
        <ele>451</ele>
        <time>2012-01-13T18:55:58Z</time>
      </trkpt>
      <trkpt lat="45.82459" lon="4.82314">
        <ele>451</ele>
        <time>2012-01-13T18:56:01Z</time>
      </trkpt>
      <trkpt lat="45.82449" lon="4.8231">
        <ele>451</ele>
        <time>2012-01-13T18:56:05Z</time>
      </trkpt>
      <trkpt lat="45.82446" lon="4.82309">
        <ele>451</ele>
        <time>2012-01-13T18:56:06Z</time>
      </trkpt>
      <trkpt lat="45.8243" lon="4.82311">
        <ele>449</ele>
        <time>2012-01-13T18:56:12Z</time>
      </trkpt>
      <trkpt lat="45.82416" lon="4.82314">
        <ele>444</ele>
        <time>2012-01-13T18:56:17Z</time>
      </trkpt>
      <trkpt lat="45.82411" lon="4.82314">
        <ele>443</ele>
        <time>2012-01-13T18:56:19Z</time>
      </trkpt>
      <trkpt lat="45.824" lon="4.82316">
        <ele>443</ele>
        <time>2012-01-13T18:56:23Z</time>
      </trkpt>
      <trkpt lat="45.82392" lon="4.82317">
        <ele>443</ele>
        <time>2012-01-13T18:56:26Z</time>
      </trkpt>
      <trkpt lat="45.82387" lon="4.82316">
        <ele>443</ele>
        <time>2012-01-13T18:56:28Z</time>
      </trkpt>
      <trkpt lat="45.82372" lon="4.82317">
        <ele>442</ele>
        <time>2012-01-13T18:56:33Z</time>
      </trkpt>
      <trkpt lat="45.82369" lon="4.82316">
        <ele>441</ele>
        <time>2012-01-13T18:56:34Z</time>
      </trkpt>
      <trkpt lat="45.82355" lon="4.82309">
        <ele>440</ele>
        <time>2012-01-13T18:56:40Z</time>
      </trkpt>
      <trkpt lat="45.82345" lon="4.82296">
        <ele>442</ele>
        <time>2012-01-13T18:56:45Z</time>
      </trkpt>
      <trkpt lat="45.82341" lon="4.82292">
        <ele>442</ele>
        <time>2012-01-13T18:56:47Z</time>
      </trkpt>
      <trkpt lat="45.82335" lon="4.82282">
        <ele>443</ele>
        <time>2012-01-13T18:56:51Z</time>
      </trkpt>
      <trkpt lat="45.8233" lon="4.82276">
        <ele>437</ele>
        <time>2012-01-13T18:56:54Z</time>
      </trkpt>
      <trkpt lat="45.82327" lon="4.82272">
        <ele>437</ele>
        <time>2012-01-13T18:56:56Z</time>
      </trkpt>
      <trkpt lat="45.82325" lon="4.82268">
        <ele>438</ele>
        <time>2012-01-13T18:56:58Z</time>
      </trkpt>
      <trkpt lat="45.82323" lon="4.82262">
        <ele>439</ele>
        <time>2012-01-13T18:57:01Z</time>
      </trkpt>
      <trkpt lat="45.82321" lon="4.82255">
        <ele>441</ele>
        <time>2012-01-13T18:57:04Z</time>
      </trkpt>
      <trkpt lat="45.82321" lon="4.82253">
        <ele>441</ele>
        <time>2012-01-13T18:57:05Z</time>
      </trkpt>
      <trkpt lat="45.8232" lon="4.82246">
        <ele>448</ele>
        <time>2012-01-13T18:57:08Z</time>
      </trkpt>
      <trkpt lat="45.8232" lon="4.82238">
        <ele>448</ele>
        <time>2012-01-13T18:57:11Z</time>
      </trkpt>
      <trkpt lat="45.82318" lon="4.82232">
        <ele>448</ele>
        <time>2012-01-13T18:57:13Z</time>
      </trkpt>
      <trkpt lat="45.82316" lon="4.82225">
        <ele>449</ele>
        <time>2012-01-13T18:57:16Z</time>
      </trkpt>
      <trkpt lat="45.82314" lon="4.82223">
        <ele>449</ele>
        <time>2012-01-13T18:57:17Z</time>
      </trkpt>
      <trkpt lat="45.82306" lon="4.82213">
        <ele>450</ele>
        <time>2012-01-13T18:57:22Z</time>
      </trkpt>
      <trkpt lat="45.823" lon="4.82205">
        <ele>450</ele>
        <time>2012-01-13T18:57:26Z</time>
      </trkpt>
      <trkpt lat="45.82297" lon="4.82201">
        <ele>451</ele>
        <time>2012-01-13T18:57:28Z</time>
      </trkpt>
      <trkpt lat="45.8229" lon="4.82186">
        <ele>452</ele>
        <time>2012-01-13T18:57:34Z</time>
      </trkpt>
      <trkpt lat="45.82289" lon="4.82184">
        <ele>452</ele>
        <time>2012-01-13T18:57:35Z</time>
      </trkpt>
      <trkpt lat="45.82282" lon="4.82171">
        <ele>452</ele>
        <time>2012-01-13T18:57:40Z</time>
      </trkpt>
      <trkpt lat="45.82276" lon="4.82163">
        <ele>461</ele>
        <time>2012-01-13T18:57:44Z</time>
      </trkpt>
      <trkpt lat="45.82269" lon="4.82152">
        <ele>461</ele>
        <time>2012-01-13T18:57:49Z</time>
      </trkpt>
      <trkpt lat="45.82263" lon="4.82143">
        <ele>461</ele>
        <time>2012-01-13T18:57:53Z</time>
      </trkpt>
      <trkpt lat="45.8226" lon="4.82138">
        <ele>462</ele>
        <time>2012-01-13T18:57:55Z</time>
      </trkpt>
      <trkpt lat="45.82252" lon="4.82126">
        <ele>463</ele>
        <time>2012-01-13T18:58:01Z</time>
      </trkpt>
      <trkpt lat="45.8225" lon="4.82124">
        <ele>463</ele>
        <time>2012-01-13T18:58:02Z</time>
      </trkpt>
      <trkpt lat="45.82244" lon="4.82114">
        <ele>457</ele>
        <time>2012-01-13T18:58:07Z</time>
      </trkpt>
      <trkpt lat="45.82243" lon="4.82115">
        <ele>457</ele>
        <time>2012-01-13T18:58:23Z</time>
      </trkpt>
      <trkpt lat="45.82242" lon="4.82114">
        <ele>457</ele>
        <time>2012-01-13T18:58:30Z</time>
      </trkpt>
      <trkpt lat="45.82239" lon="4.82111">
        <ele>457</ele>
        <time>2012-01-13T18:58:35Z</time>
      </trkpt>
      <trkpt lat="45.82238" lon="4.82111">
        <ele>457</ele>
        <time>2012-01-13T18:58:40Z</time>
      </trkpt>
      <trkpt lat="45.82238" lon="4.82109">
        <ele>458</ele>
        <time>2012-01-13T18:58:52Z</time>
      </trkpt>
      <trkpt lat="45.8224" lon="4.8211">
        <ele>458</ele>
        <time>2012-01-13T18:58:56Z</time>
      </trkpt>
      <trkpt lat="45.82238" lon="4.82111">
        <ele>457</ele>
        <time>2012-01-13T18:59:03Z</time>
      </trkpt>
      <trkpt lat="45.82237" lon="4.8211">
        <ele>457</ele>
        <time>2012-01-13T18:59:04Z</time>
      </trkpt>
      <trkpt lat="45.82235" lon="4.82106">
        <ele>458</ele>
        <time>2012-01-13T18:59:08Z</time>
      </trkpt>
      <trkpt lat="45.82231" lon="4.821">
        <ele>458</ele>
        <time>2012-01-13T18:59:12Z</time>
      </trkpt>
      <trkpt lat="45.82228" lon="4.82096">
        <ele>458</ele>
        <time>2012-01-13T18:59:14Z</time>
      </trkpt>
      <trkpt lat="45.82222" lon="4.82086">
        <ele>458</ele>
        <time>2012-01-13T18:59:18Z</time>
      </trkpt>
      <trkpt lat="45.82219" lon="4.8208">
        <ele>461</ele>
        <time>2012-01-13T18:59:20Z</time>
      </trkpt>
      <trkpt lat="45.82212" lon="4.82068">
        <ele>460</ele>
        <time>2012-01-13T18:59:24Z</time>
      </trkpt>
      <trkpt lat="45.82207" lon="4.8206">
        <ele>460</ele>
        <time>2012-01-13T18:59:27Z</time>
      </trkpt>
      <trkpt lat="45.82203" lon="4.82054">
        <ele>459</ele>
        <time>2012-01-13T18:59:29Z</time>
      </trkpt>
      <trkpt lat="45.82195" lon="4.8204">
        <ele>459</ele>
        <time>2012-01-13T18:59:34Z</time>
      </trkpt>
      <trkpt lat="45.82194" lon="4.82037">
        <ele>459</ele>
        <time>2012-01-13T18:59:35Z</time>
      </trkpt>
      <trkpt lat="45.8219" lon="4.82031">
        <ele>458</ele>
        <time>2012-01-13T18:59:38Z</time>
      </trkpt>
      <trkpt lat="45.8219" lon="4.82029">
        <ele>458</ele>
        <time>2012-01-13T18:59:39Z</time>
      </trkpt>
      <trkpt lat="45.82188" lon="4.82027">
        <ele>458</ele>
        <time>2012-01-13T18:59:43Z</time>
      </trkpt>
      <trkpt lat="45.82187" lon="4.82026">
        <ele>458</ele>
        <time>2012-01-13T18:59:45Z</time>
      </trkpt>
      <trkpt lat="45.82186" lon="4.82025">
        <ele>458</ele>
        <time>2012-01-13T18:59:46Z</time>
      </trkpt>
      <trkpt lat="45.82182" lon="4.82018">
        <ele>457</ele>
        <time>2012-01-13T18:59:49Z</time>
      </trkpt>
      <trkpt lat="45.82181" lon="4.82016">
        <ele>457</ele>
        <time>2012-01-13T18:59:50Z</time>
      </trkpt>
      <trkpt lat="45.82173" lon="4.81999">
        <ele>453</ele>
        <time>2012-01-13T18:59:55Z</time>
      </trkpt>
      <trkpt lat="45.82172" lon="4.81996">
        <ele>453</ele>
        <time>2012-01-13T18:59:56Z</time>
      </trkpt>
      <trkpt lat="45.82168" lon="4.81982">
        <ele>453</ele>
        <time>2012-01-13T19:00:00Z</time>
      </trkpt>
      <trkpt lat="45.82165" lon="4.81971">
        <ele>440</ele>
        <time>2012-01-13T19:00:05Z</time>
      </trkpt>
      <trkpt lat="45.82165" lon="4.8197">
        <ele>440</ele>
        <time>2012-01-13T19:00:07Z</time>
      </trkpt>
      <trkpt lat="45.82166" lon="4.8197">
        <ele>440</ele>
        <time>2012-01-13T19:00:10Z</time>
      </trkpt>
      <trkpt lat="45.82166" lon="4.81968">
        <ele>440</ele>
        <time>2012-01-13T19:00:15Z</time>
      </trkpt>
      <trkpt lat="45.82169" lon="4.81968">
        <ele>453</ele>
        <time>2012-01-13T19:00:24Z</time>
      </trkpt>
      <trkpt lat="45.82168" lon="4.81969">
        <ele>453</ele>
        <time>2012-01-13T19:00:29Z</time>
      </trkpt>
      <trkpt lat="45.82168" lon="4.81969">
        <ele>453</ele>
        <time>2012-01-13T19:00:34Z</time>
      </trkpt>
      <trkpt lat="45.82167" lon="4.81966">
        <ele>440</ele>
        <time>2012-01-13T19:00:41Z</time>
      </trkpt>
      <trkpt lat="45.82168" lon="4.81969">
        <ele>453</ele>
        <time>2012-01-13T19:00:45Z</time>
      </trkpt>
      <trkpt lat="45.82169" lon="4.81969">
        <ele>453</ele>
        <time>2012-01-13T19:00:51Z</time>
      </trkpt>
      <trkpt lat="45.82172" lon="4.8197">
        <ele>453</ele>
        <time>2012-01-13T19:00:58Z</time>
      </trkpt>
      <trkpt lat="45.82172" lon="4.81971">
        <ele>453</ele>
        <time>2012-01-13T19:00:59Z</time>
      </trkpt>
      <trkpt lat="45.82172" lon="4.81971">
        <ele>453</ele>
        <time>2012-01-13T19:01:02Z</time>
      </trkpt>
      <trkpt lat="45.82175" lon="4.81973">
        <ele>453</ele>
        <time>2012-01-13T19:01:08Z</time>
      </trkpt>
      <trkpt lat="45.82181" lon="4.81972">
        <ele>453</ele>
        <time>2012-01-13T19:01:14Z</time>
      </trkpt>
      <trkpt lat="45.82182" lon="4.81972">
        <ele>453</ele>
        <time>2012-01-13T19:01:15Z</time>
      </trkpt>
      <trkpt lat="45.82183" lon="4.81971">
        <ele>453</ele>
        <time>2012-01-13T19:01:17Z</time>
      </trkpt>
      <trkpt lat="45.82186" lon="4.81969">
        <ele>453</ele>
        <time>2012-01-13T19:01:20Z</time>
      </trkpt>
      <trkpt lat="45.82187" lon="4.81968">
        <ele>453</ele>
        <time>2012-01-13T19:01:21Z</time>
      </trkpt>
      <trkpt lat="45.82188" lon="4.81966">
        <ele>453</ele>
        <time>2012-01-13T19:01:22Z</time>
      </trkpt>
      <trkpt lat="45.82192" lon="4.81965">
        <ele>454</ele>
        <time>2012-01-13T19:01:24Z</time>
      </trkpt>
      <trkpt lat="45.82199" lon="4.8196">
        <ele>454</ele>
        <time>2012-01-13T19:01:28Z</time>
      </trkpt>
      <trkpt lat="45.82206" lon="4.81956">
        <ele>454</ele>
        <time>2012-01-13T19:01:31Z</time>
      </trkpt>
      <trkpt lat="45.82219" lon="4.81953">
        <ele>455</ele>
        <time>2012-01-13T19:01:36Z</time>
      </trkpt>
      <trkpt lat="45.82226" lon="4.81954">
        <ele>456</ele>
        <time>2012-01-13T19:01:39Z</time>
      </trkpt>
      <trkpt lat="45.82231" lon="4.81954">
        <ele>456</ele>
        <time>2012-01-13T19:01:41Z</time>
      </trkpt>
      <trkpt lat="45.82244" lon="4.81954">
        <ele>457</ele>
        <time>2012-01-13T19:01:47Z</time>
      </trkpt>
      <trkpt lat="45.82253" lon="4.81944">
        <ele>461</ele>
        <time>2012-01-13T19:01:52Z</time>
      </trkpt>
      <trkpt lat="45.82258" lon="4.81938">
        <ele>461</ele>
        <time>2012-01-13T19:01:55Z</time>
      </trkpt>
      <trkpt lat="45.8226" lon="4.81935">
        <ele>460</ele>
        <time>2012-01-13T19:01:56Z</time>
      </trkpt>
      <trkpt lat="45.82271" lon="4.81927">
        <ele>460</ele>
        <time>2012-01-13T19:02:01Z</time>
      </trkpt>
      <trkpt lat="45.82276" lon="4.81924">
        <ele>460</ele>
        <time>2012-01-13T19:02:03Z</time>
      </trkpt>
      <trkpt lat="45.82282" lon="4.81919">
        <ele>461</ele>
        <time>2012-01-13T19:02:06Z</time>
      </trkpt>
      <trkpt lat="45.82294" lon="4.81913">
        <ele>451</ele>
        <time>2012-01-13T19:02:10Z</time>
      </trkpt>
      <trkpt lat="45.82306" lon="4.81906">
        <ele>451</ele>
        <time>2012-01-13T19:02:16Z</time>
      </trkpt>
      <trkpt lat="45.82312" lon="4.81904">
        <ele>452</ele>
        <time>2012-01-13T19:02:18Z</time>
      </trkpt>
      <trkpt lat="45.82319" lon="4.81902">
        <ele>452</ele>
        <time>2012-01-13T19:02:21Z</time>
      </trkpt>
      <trkpt lat="45.82329" lon="4.81899">
        <ele>453</ele>
        <time>2012-01-13T19:02:26Z</time>
      </trkpt>
      <trkpt lat="45.82332" lon="4.81899">
        <ele>453</ele>
        <time>2012-01-13T19:02:27Z</time>
      </trkpt>
      <trkpt lat="45.82339" lon="4.81895">
        <ele>455</ele>
        <time>2012-01-13T19:02:30Z</time>
      </trkpt>
      <trkpt lat="45.82349" lon="4.8189">
        <ele>454</ele>
        <time>2012-01-13T19:02:34Z</time>
      </trkpt>
      <trkpt lat="45.82351" lon="4.81888">
        <ele>453</ele>
        <time>2012-01-13T19:02:35Z</time>
      </trkpt>
      <trkpt lat="45.82366" lon="4.81876">
        <ele>452</ele>
        <time>2012-01-13T19:02:40Z</time>
      </trkpt>
      <trkpt lat="45.82379" lon="4.81866">
        <ele>452</ele>
        <time>2012-01-13T19:02:45Z</time>
      </trkpt>
      <trkpt lat="45.82382" lon="4.81864">
        <ele>452</ele>
        <time>2012-01-13T19:02:46Z</time>
      </trkpt>
      <trkpt lat="45.82395" lon="4.81859">
        <ele>451</ele>
        <time>2012-01-13T19:02:50Z</time>
      </trkpt>
      <trkpt lat="45.824" lon="4.81856">
        <ele>451</ele>
        <time>2012-01-13T19:02:52Z</time>
      </trkpt>
      <trkpt lat="45.82403" lon="4.81855">
        <ele>451</ele>
        <time>2012-01-13T19:02:53Z</time>
      </trkpt>
      <trkpt lat="45.82414" lon="4.81848">
        <ele>450</ele>
        <time>2012-01-13T19:02:57Z</time>
      </trkpt>
      <trkpt lat="45.82417" lon="4.81847">
        <ele>452</ele>
        <time>2012-01-13T19:02:58Z</time>
      </trkpt>
      <trkpt lat="45.82429" lon="4.81842">
        <ele>452</ele>
        <time>2012-01-13T19:03:02Z</time>
      </trkpt>
      <trkpt lat="45.82434" lon="4.8184">
        <ele>453</ele>
        <time>2012-01-13T19:03:04Z</time>
      </trkpt>
      <trkpt lat="45.82448" lon="4.81833">
        <ele>448</ele>
        <time>2012-01-13T19:03:09Z</time>
      </trkpt>
      <trkpt lat="45.82453" lon="4.8183">
        <ele>448</ele>
        <time>2012-01-13T19:03:11Z</time>
      </trkpt>
      <trkpt lat="45.82463" lon="4.81824">
        <ele>448</ele>
        <time>2012-01-13T19:03:15Z</time>
      </trkpt>
      <trkpt lat="45.82471" lon="4.81817">
        <ele>448</ele>
        <time>2012-01-13T19:03:18Z</time>
      </trkpt>
      <trkpt lat="45.82478" lon="4.81811">
        <ele>449</ele>
        <time>2012-01-13T19:03:21Z</time>
      </trkpt>
      <trkpt lat="45.82488" lon="4.81803">
        <ele>448</ele>
        <time>2012-01-13T19:03:25Z</time>
      </trkpt>
      <trkpt lat="45.82495" lon="4.81797">
        <ele>448</ele>
        <time>2012-01-13T19:03:28Z</time>
      </trkpt>
      <trkpt lat="45.82502" lon="4.81794">
        <ele>451</ele>
        <time>2012-01-13T19:03:32Z</time>
      </trkpt>
      <trkpt lat="45.82505" lon="4.81792">
        <ele>451</ele>
        <time>2012-01-13T19:03:34Z</time>
      </trkpt>
      <trkpt lat="45.82509" lon="4.81785">
        <ele>451</ele>
        <time>2012-01-13T19:03:39Z</time>
      </trkpt>
      <trkpt lat="45.82515" lon="4.8177">
        <ele>450</ele>
        <time>2012-01-13T19:03:45Z</time>
      </trkpt>
      <trkpt lat="45.82521" lon="4.81747">
        <ele>447</ele>
        <time>2012-01-13T19:03:51Z</time>
      </trkpt>
      <trkpt lat="45.82522" lon="4.81743">
        <ele>447</ele>
        <time>2012-01-13T19:03:52Z</time>
      </trkpt>
      <trkpt lat="45.82525" lon="4.81724">
        <ele>447</ele>
        <time>2012-01-13T19:03:56Z</time>
      </trkpt>
      <trkpt lat="45.82526" lon="4.81714">
        <ele>447</ele>
        <time>2012-01-13T19:03:58Z</time>
      </trkpt>
      <trkpt lat="45.82528" lon="4.81704">
        <ele>447</ele>
        <time>2012-01-13T19:04:00Z</time>
      </trkpt>
      <trkpt lat="45.82533" lon="4.81687">
        <ele>447</ele>
        <time>2012-01-13T19:04:04Z</time>
      </trkpt>
      <trkpt lat="45.82534" lon="4.81682">
        <ele>447</ele>
        <time>2012-01-13T19:04:05Z</time>
      </trkpt>
      <trkpt lat="45.82539" lon="4.81659">
        <ele>445</ele>
        <time>2012-01-13T19:04:10Z</time>
      </trkpt>
      <trkpt lat="45.8254" lon="4.81638">
        <ele>444</ele>
        <time>2012-01-13T19:04:14Z</time>
      </trkpt>
      <trkpt lat="45.82542" lon="4.81629">
        <ele>444</ele>
        <time>2012-01-13T19:04:16Z</time>
      </trkpt>
      <trkpt lat="45.82544" lon="4.81621">
        <ele>444</ele>
        <time>2012-01-13T19:04:18Z</time>
      </trkpt>
      <trkpt lat="45.82553" lon="4.81615">
        <ele>444</ele>
        <time>2012-01-13T19:04:22Z</time>
      </trkpt>
      <trkpt lat="45.82555" lon="4.81613">
        <ele>444</ele>
        <time>2012-01-13T19:04:23Z</time>
      </trkpt>
      <trkpt lat="45.82563" lon="4.81608">
        <ele>443</ele>
        <time>2012-01-13T19:04:26Z</time>
      </trkpt>
      <trkpt lat="45.82573" lon="4.81604">
        <ele>443</ele>
        <time>2012-01-13T19:04:29Z</time>
      </trkpt>
      <trkpt lat="45.82581" lon="4.816">
        <ele>443</ele>
        <time>2012-01-13T19:04:32Z</time>
      </trkpt>
      <trkpt lat="45.82591" lon="4.81594">
        <ele>442</ele>
        <time>2012-01-13T19:04:36Z</time>
      </trkpt>
      <trkpt lat="45.82594" lon="4.81593">
        <ele>442</ele>
        <time>2012-01-13T19:04:37Z</time>
      </trkpt>
      <trkpt lat="45.82609" lon="4.81586">
        <ele>442</ele>
        <time>2012-01-13T19:04:43Z</time>
      </trkpt>
      <trkpt lat="45.82622" lon="4.81579">
        <ele>440</ele>
        <time>2012-01-13T19:04:48Z</time>
      </trkpt>
      <trkpt lat="45.82627" lon="4.81577">
        <ele>440</ele>
        <time>2012-01-13T19:04:50Z</time>
      </trkpt>
      <trkpt lat="45.82632" lon="4.81573">
        <ele>440</ele>
        <time>2012-01-13T19:04:52Z</time>
      </trkpt>
      <trkpt lat="45.82645" lon="4.81567">
        <ele>440</ele>
        <time>2012-01-13T19:04:56Z</time>
      </trkpt>
      <trkpt lat="45.82652" lon="4.81564">
        <ele>440</ele>
        <time>2012-01-13T19:04:58Z</time>
      </trkpt>
      <trkpt lat="45.82666" lon="4.81558">
        <ele>440</ele>
        <time>2012-01-13T19:05:02Z</time>
      </trkpt>
      <trkpt lat="45.82682" lon="4.81551">
        <ele>437</ele>
        <time>2012-01-13T19:05:07Z</time>
      </trkpt>
      <trkpt lat="45.82685" lon="4.81549">
        <ele>437</ele>
        <time>2012-01-13T19:05:08Z</time>
      </trkpt>
      <trkpt lat="45.82695" lon="4.81546">
        <ele>437</ele>
        <time>2012-01-13T19:05:11Z</time>
      </trkpt>
      <trkpt lat="45.82705" lon="4.81541">
        <ele>436</ele>
        <time>2012-01-13T19:05:14Z</time>
      </trkpt>
      <trkpt lat="45.8271" lon="4.81538">
        <ele>436</ele>
        <time>2012-01-13T19:05:16Z</time>
      </trkpt>
      <trkpt lat="45.82724" lon="4.81532">
        <ele>435</ele>
        <time>2012-01-13T19:05:21Z</time>
      </trkpt>
      <trkpt lat="45.82735" lon="4.81525">
        <ele>435</ele>
        <time>2012-01-13T19:05:26Z</time>
      </trkpt>
      <trkpt lat="45.82743" lon="4.81521">
        <ele>434</ele>
        <time>2012-01-13T19:05:29Z</time>
      </trkpt>
      <trkpt lat="45.82747" lon="4.81518">
        <ele>434</ele>
        <time>2012-01-13T19:05:31Z</time>
      </trkpt>
      <trkpt lat="45.82753" lon="4.81508">
        <ele>427</ele>
        <time>2012-01-13T19:05:35Z</time>
      </trkpt>
      <trkpt lat="45.82753" lon="4.81506">
        <ele>428</ele>
        <time>2012-01-13T19:05:36Z</time>
      </trkpt>
      <trkpt lat="45.82753" lon="4.81501">
        <ele>429</ele>
        <time>2012-01-13T19:05:38Z</time>
      </trkpt>
      <trkpt lat="45.82754" lon="4.81494">
        <ele>426</ele>
        <time>2012-01-13T19:05:40Z</time>
      </trkpt>
      <trkpt lat="45.82757" lon="4.81476">
        <ele>421</ele>
        <time>2012-01-13T19:05:44Z</time>
      </trkpt>
      <trkpt lat="45.82758" lon="4.81471">
        <ele>420</ele>
        <time>2012-01-13T19:05:45Z</time>
      </trkpt>
      <trkpt lat="45.82766" lon="4.81447">
        <ele>418</ele>
        <time>2012-01-13T19:05:51Z</time>
      </trkpt>
      <trkpt lat="45.82772" lon="4.81427">
        <ele>418</ele>
        <time>2012-01-13T19:05:56Z</time>
      </trkpt>
      <trkpt lat="45.82773" lon="4.8142">
        <ele>418</ele>
        <time>2012-01-13T19:05:58Z</time>
      </trkpt>
      <trkpt lat="45.82773" lon="4.8141">
        <ele>417</ele>
        <time>2012-01-13T19:06:00Z</time>
      </trkpt>
      <trkpt lat="45.82774" lon="4.81392">
        <ele>416</ele>
        <time>2012-01-13T19:06:04Z</time>
      </trkpt>
      <trkpt lat="45.82774" lon="4.81389">
        <ele>416</ele>
        <time>2012-01-13T19:06:05Z</time>
      </trkpt>
      <trkpt lat="45.82773" lon="4.81387">
        <ele>416</ele>
        <time>2012-01-13T19:06:06Z</time>
      </trkpt>
      <trkpt lat="45.82773" lon="4.81386">
        <ele>416</ele>
        <time>2012-01-13T19:06:11Z</time>
      </trkpt>
      <trkpt lat="45.82776" lon="4.81388">
        <ele>416</ele>
        <time>2012-01-13T19:06:24Z</time>
      </trkpt>
      <trkpt lat="45.82774" lon="4.81387">
        <ele>416</ele>
        <time>2012-01-13T19:06:47Z</time>
      </trkpt>
      <trkpt lat="45.82775" lon="4.81385">
        <ele>416</ele>
        <time>2012-01-13T19:06:53Z</time>
      </trkpt>
      <trkpt lat="45.82776" lon="4.81378">
        <ele>415</ele>
        <time>2012-01-13T19:07:03Z</time>
      </trkpt>
      <trkpt lat="45.82777" lon="4.81374">
        <ele>415</ele>
        <time>2012-01-13T19:07:04Z</time>
      </trkpt>
      <trkpt lat="45.82781" lon="4.81358">
        <ele>415</ele>
        <time>2012-01-13T19:07:08Z</time>
      </trkpt>
      <trkpt lat="45.82784" lon="4.8135">
        <ele>415</ele>
        <time>2012-01-13T19:07:10Z</time>
      </trkpt>
      <trkpt lat="45.82785" lon="4.8134">
        <ele>414</ele>
        <time>2012-01-13T19:07:12Z</time>
      </trkpt>
      <trkpt lat="45.82786" lon="4.81325">
        <ele>414</ele>
        <time>2012-01-13T19:07:15Z</time>
      </trkpt>
      <trkpt lat="45.82787" lon="4.81315">
        <ele>413</ele>
        <time>2012-01-13T19:07:17Z</time>
      </trkpt>
      <trkpt lat="45.82789" lon="4.81296">
        <ele>413</ele>
        <time>2012-01-13T19:07:21Z</time>
      </trkpt>
      <trkpt lat="45.82791" lon="4.81291">
        <ele>413</ele>
        <time>2012-01-13T19:07:22Z</time>
      </trkpt>
      <trkpt lat="45.82796" lon="4.81276">
        <ele>413</ele>
        <time>2012-01-13T19:07:26Z</time>
      </trkpt>
      <trkpt lat="45.82798" lon="4.81272">
        <ele>413</ele>
        <time>2012-01-13T19:07:27Z</time>
      </trkpt>
      <trkpt lat="45.82802" lon="4.81261">
        <ele>413</ele>
        <time>2012-01-13T19:07:30Z</time>
      </trkpt>
      <trkpt lat="45.82805" lon="4.81251">
        <ele>413</ele>
        <time>2012-01-13T19:07:33Z</time>
      </trkpt>
      <trkpt lat="45.82806" lon="4.81248">
        <ele>411</ele>
        <time>2012-01-13T19:07:34Z</time>
      </trkpt>
      <trkpt lat="45.82812" lon="4.81231">
        <ele>411</ele>
        <time>2012-01-13T19:07:39Z</time>
      </trkpt>
      <trkpt lat="45.82815" lon="4.81224">
        <ele>411</ele>
        <time>2012-01-13T19:07:41Z</time>
      </trkpt>
      <trkpt lat="45.82818" lon="4.81212">
        <ele>411</ele>
        <time>2012-01-13T19:07:44Z</time>
      </trkpt>
      <trkpt lat="45.82822" lon="4.812">
        <ele>411</ele>
        <time>2012-01-13T19:07:47Z</time>
      </trkpt>
      <trkpt lat="45.82824" lon="4.81196">
        <ele>410</ele>
        <time>2012-01-13T19:07:48Z</time>
      </trkpt>
      <trkpt lat="45.82831" lon="4.81173">
        <ele>410</ele>
        <time>2012-01-13T19:07:54Z</time>
      </trkpt>
      <trkpt lat="45.82836" lon="4.81156">
        <ele>409</ele>
        <time>2012-01-13T19:07:58Z</time>
      </trkpt>
      <trkpt lat="45.82839" lon="4.81147">
        <ele>408</ele>
        <time>2012-01-13T19:08:00Z</time>
      </trkpt>
      <trkpt lat="45.82842" lon="4.81135">
        <ele>408</ele>
        <time>2012-01-13T19:08:03Z</time>
      </trkpt>
      <trkpt lat="45.82843" lon="4.81123">
        <ele>408</ele>
        <time>2012-01-13T19:08:06Z</time>
      </trkpt>
      <trkpt lat="45.82844" lon="4.8112">
        <ele>408</ele>
        <time>2012-01-13T19:08:07Z</time>
      </trkpt>
      <trkpt lat="45.82848" lon="4.81115">
        <ele>407</ele>
        <time>2012-01-13T19:08:09Z</time>
      </trkpt>
      <trkpt lat="45.82858" lon="4.81106">
        <ele>407</ele>
        <time>2012-01-13T19:08:13Z</time>
      </trkpt>
      <trkpt lat="45.82861" lon="4.81104">
        <ele>407</ele>
        <time>2012-01-13T19:08:14Z</time>
      </trkpt>
      <trkpt lat="45.82873" lon="4.81105">
        <ele>407</ele>
        <time>2012-01-13T19:08:19Z</time>
      </trkpt>
      <trkpt lat="45.82875" lon="4.81107">
        <ele>408</ele>
        <time>2012-01-13T19:08:20Z</time>
      </trkpt>
      <trkpt lat="45.82877" lon="4.8111">
        <ele>408</ele>
        <time>2012-01-13T19:08:21Z</time>
      </trkpt>
      <trkpt lat="45.8288" lon="4.81112">
        <ele>408</ele>
        <time>2012-01-13T19:08:22Z</time>
      </trkpt>
      <trkpt lat="45.82882" lon="4.81112">
        <ele>408</ele>
        <time>2012-01-13T19:08:23Z</time>
      </trkpt>
      <trkpt lat="45.8289" lon="4.81109">
        <ele>408</ele>
        <time>2012-01-13T19:08:26Z</time>
      </trkpt>
      <trkpt lat="45.82892" lon="4.81108">
        <ele>408</ele>
        <time>2012-01-13T19:08:27Z</time>
      </trkpt>
      <trkpt lat="45.82894" lon="4.81108">
        <ele>408</ele>
        <time>2012-01-13T19:08:28Z</time>
      </trkpt>
      <trkpt lat="45.82906" lon="4.81108">
        <ele>408</ele>
        <time>2012-01-13T19:08:33Z</time>
      </trkpt>
      <trkpt lat="45.8291" lon="4.81106">
        <ele>408</ele>
        <time>2012-01-13T19:08:35Z</time>
      </trkpt>
      <trkpt lat="45.82919" lon="4.81104">
        <ele>404</ele>
        <time>2012-01-13T19:08:38Z</time>
      </trkpt>
      <trkpt lat="45.82928" lon="4.81101">
        <ele>404</ele>
        <time>2012-01-13T19:08:41Z</time>
      </trkpt>
      <trkpt lat="45.82936" lon="4.81099">
        <ele>403</ele>
        <time>2012-01-13T19:08:44Z</time>
      </trkpt>
      <trkpt lat="45.82946" lon="4.81095">
        <ele>403</ele>
        <time>2012-01-13T19:08:47Z</time>
      </trkpt>
      <trkpt lat="45.8295" lon="4.81094">
        <ele>402</ele>
        <time>2012-01-13T19:08:48Z</time>
      </trkpt>
      <trkpt lat="45.82964" lon="4.81086">
        <ele>402</ele>
        <time>2012-01-13T19:08:53Z</time>
      </trkpt>
      <trkpt lat="45.82967" lon="4.81084">
        <ele>402</ele>
        <time>2012-01-13T19:08:54Z</time>
      </trkpt>
      <trkpt lat="45.8298" lon="4.81077">
        <ele>407</ele>
        <time>2012-01-13T19:08:59Z</time>
      </trkpt>
      <trkpt lat="45.82983" lon="4.81076">
        <ele>407</ele>
        <time>2012-01-13T19:09:00Z</time>
      </trkpt>
      <trkpt lat="45.82993" lon="4.81069">
        <ele>407</ele>
        <time>2012-01-13T19:09:04Z</time>
      </trkpt>
      <trkpt lat="45.83002" lon="4.81066">
        <ele>404</ele>
        <time>2012-01-13T19:09:07Z</time>
      </trkpt>
      <trkpt lat="45.83008" lon="4.81062">
        <ele>404</ele>
        <time>2012-01-13T19:09:09Z</time>
      </trkpt>
      <trkpt lat="45.83021" lon="4.81055">
        <ele>403</ele>
        <time>2012-01-13T19:09:13Z</time>
      </trkpt>
      <trkpt lat="45.83024" lon="4.81053">
        <ele>403</ele>
        <time>2012-01-13T19:09:14Z</time>
      </trkpt>
      <trkpt lat="45.83034" lon="4.8105">
        <ele>402</ele>
        <time>2012-01-13T19:09:17Z</time>
      </trkpt>
      <trkpt lat="45.83038" lon="4.81049">
        <ele>402</ele>
        <time>2012-01-13T19:09:18Z</time>
      </trkpt>
      <trkpt lat="45.8304" lon="4.81048">
        <ele>402</ele>
        <time>2012-01-13T19:09:19Z</time>
      </trkpt>
      <trkpt lat="45.83053" lon="4.81044">
        <ele>401</ele>
        <time>2012-01-13T19:09:23Z</time>
      </trkpt>
      <trkpt lat="45.83059" lon="4.81042">
        <ele>401</ele>
        <time>2012-01-13T19:09:25Z</time>
      </trkpt>
      <trkpt lat="45.8307" lon="4.81035">
        <ele>401</ele>
        <time>2012-01-13T19:09:28Z</time>
      </trkpt>
      <trkpt lat="45.83075" lon="4.81028">
        <ele>402</ele>
        <time>2012-01-13T19:09:30Z</time>
      </trkpt>
      <trkpt lat="45.83081" lon="4.81018">
        <ele>403</ele>
        <time>2012-01-13T19:09:33Z</time>
      </trkpt>
      <trkpt lat="45.83088" lon="4.81007">
        <ele>399</ele>
        <time>2012-01-13T19:09:37Z</time>
      </trkpt>
      <trkpt lat="45.83091" lon="4.81004">
        <ele>400</ele>
        <time>2012-01-13T19:09:38Z</time>
      </trkpt>
      <trkpt lat="45.83101" lon="4.80991">
        <ele>404</ele>
        <time>2012-01-13T19:09:42Z</time>
      </trkpt>
      <trkpt lat="45.83103" lon="4.80989">
        <ele>404</ele>
        <time>2012-01-13T19:09:43Z</time>
      </trkpt>
      <trkpt lat="45.83111" lon="4.80982">
        <ele>404</ele>
        <time>2012-01-13T19:09:46Z</time>
      </trkpt>
      <trkpt lat="45.83119" lon="4.80977">
        <ele>403</ele>
        <time>2012-01-13T19:09:49Z</time>
      </trkpt>
      <trkpt lat="45.83122" lon="4.80975">
        <ele>403</ele>
        <time>2012-01-13T19:09:50Z</time>
      </trkpt>
      <trkpt lat="45.83132" lon="4.80971">
        <ele>403</ele>
        <time>2012-01-13T19:09:54Z</time>
      </trkpt>
      <trkpt lat="45.83137" lon="4.80968">
        <ele>402</ele>
        <time>2012-01-13T19:09:57Z</time>
      </trkpt>
      <trkpt lat="45.83142" lon="4.80966">
        <ele>402</ele>
        <time>2012-01-13T19:09:59Z</time>
      </trkpt>
      <trkpt lat="45.83153" lon="4.80958">
        <ele>402</ele>
        <time>2012-01-13T19:10:04Z</time>
      </trkpt>
      <trkpt lat="45.83154" lon="4.80956">
        <ele>402</ele>
        <time>2012-01-13T19:10:05Z</time>
      </trkpt>
      <trkpt lat="45.83157" lon="4.80952">
        <ele>403</ele>
        <time>2012-01-13T19:10:07Z</time>
      </trkpt>
      <trkpt lat="45.83159" lon="4.80949">
        <ele>403</ele>
        <time>2012-01-13T19:10:09Z</time>
      </trkpt>
      <trkpt lat="45.83161" lon="4.80945">
        <ele>403</ele>
        <time>2012-01-13T19:10:11Z</time>
      </trkpt>
      <trkpt lat="45.83163" lon="4.8094">
        <ele>404</ele>
        <time>2012-01-13T19:10:14Z</time>
      </trkpt>
      <trkpt lat="45.83164" lon="4.80938">
        <ele>404</ele>
        <time>2012-01-13T19:10:15Z</time>
      </trkpt>
      <trkpt lat="45.83165" lon="4.80934">
        <ele>404</ele>
        <time>2012-01-13T19:10:17Z</time>
      </trkpt>
      <trkpt lat="45.83166" lon="4.80932">
        <ele>404</ele>
        <time>2012-01-13T19:10:18Z</time>
      </trkpt>
      <trkpt lat="45.83166" lon="4.80922">
        <ele>405</ele>
        <time>2012-01-13T19:10:22Z</time>
      </trkpt>
      <trkpt lat="45.83166" lon="4.80919">
        <ele>405</ele>
        <time>2012-01-13T19:10:23Z</time>
      </trkpt>
      <trkpt lat="45.8317" lon="4.8091">
        <ele>407</ele>
        <time>2012-01-13T19:10:28Z</time>
      </trkpt>
      <trkpt lat="45.83174" lon="4.80902">
        <ele>408</ele>
        <time>2012-01-13T19:10:32Z</time>
      </trkpt>
      <trkpt lat="45.83174" lon="4.80899">
        <ele>409</ele>
        <time>2012-01-13T19:10:33Z</time>
      </trkpt>
      <trkpt lat="45.83171" lon="4.80889">
        <ele>410</ele>
        <time>2012-01-13T19:10:37Z</time>
      </trkpt>
      <trkpt lat="45.83168" lon="4.80884">
        <ele>411</ele>
        <time>2012-01-13T19:10:39Z</time>
      </trkpt>
      <trkpt lat="45.83167" lon="4.80879">
        <ele>411</ele>
        <time>2012-01-13T19:10:41Z</time>
      </trkpt>
      <trkpt lat="45.83166" lon="4.80874">
        <ele>415</ele>
        <time>2012-01-13T19:10:43Z</time>
      </trkpt>
      <trkpt lat="45.83165" lon="4.80871">
        <ele>415</ele>
        <time>2012-01-13T19:10:45Z</time>
      </trkpt>
      <trkpt lat="45.83163" lon="4.80868">
        <ele>415</ele>
        <time>2012-01-13T19:10:46Z</time>
      </trkpt>
      <trkpt lat="45.83161" lon="4.80859">
        <ele>416</ele>
        <time>2012-01-13T19:10:51Z</time>
      </trkpt>
      <trkpt lat="45.83159" lon="4.80853">
        <ele>417</ele>
        <time>2012-01-13T19:10:54Z</time>
      </trkpt>
      <trkpt lat="45.83158" lon="4.80852">
        <ele>417</ele>
        <time>2012-01-13T19:10:55Z</time>
      </trkpt>
      <trkpt lat="45.83156" lon="4.80849">
        <ele>417</ele>
        <time>2012-01-13T19:10:57Z</time>
      </trkpt>
      <trkpt lat="45.83156" lon="4.80844">
        <ele>417</ele>
        <time>2012-01-13T19:11:00Z</time>
      </trkpt>
      <trkpt lat="45.8316" lon="4.8084">
        <ele>417</ele>
        <time>2012-01-13T19:11:04Z</time>
      </trkpt>
      <trkpt lat="45.8316" lon="4.80836">
        <ele>418</ele>
        <time>2012-01-13T19:11:08Z</time>
      </trkpt>
      <trkpt lat="45.8316" lon="4.80834">
        <ele>418</ele>
        <time>2012-01-13T19:11:09Z</time>
      </trkpt>
      <trkpt lat="45.8316" lon="4.80829">
        <ele>419</ele>
        <time>2012-01-13T19:11:11Z</time>
      </trkpt>
      <trkpt lat="45.83169" lon="4.80817">
        <ele>419</ele>
        <time>2012-01-13T19:11:17Z</time>
      </trkpt>
      <trkpt lat="45.8317" lon="4.80815">
        <ele>419</ele>
        <time>2012-01-13T19:11:18Z</time>
      </trkpt>
      <trkpt lat="45.83176" lon="4.8081">
        <ele>419</ele>
        <time>2012-01-13T19:11:21Z</time>
      </trkpt>
      <trkpt lat="45.83184" lon="4.80816">
        <ele>419</ele>
        <time>2012-01-13T19:11:25Z</time>
      </trkpt>
      <trkpt lat="45.83188" lon="4.80817">
        <ele>419</ele>
        <time>2012-01-13T19:11:26Z</time>
      </trkpt>
      <trkpt lat="45.83195" lon="4.80824">
        <ele>418</ele>
        <time>2012-01-13T19:11:30Z</time>
      </trkpt>
      <trkpt lat="45.83202" lon="4.80828">
        <ele>418</ele>
        <time>2012-01-13T19:11:34Z</time>
      </trkpt>
      <trkpt lat="45.83205" lon="4.80828">
        <ele>418</ele>
        <time>2012-01-13T19:11:36Z</time>
      </trkpt>
      <trkpt lat="45.83206" lon="4.80827">
        <ele>418</ele>
        <time>2012-01-13T19:11:37Z</time>
      </trkpt>
      <trkpt lat="45.83206" lon="4.80827">
        <ele>418</ele>
        <time>2012-01-13T19:11:38Z</time>
      </trkpt>
      <trkpt lat="45.83208" lon="4.80826">
        <ele>418</ele>
        <time>2012-01-13T19:11:39Z</time>
      </trkpt>
      <trkpt lat="45.83215" lon="4.8082">
        <ele>418</ele>
        <time>2012-01-13T19:11:44Z</time>
      </trkpt>
      <trkpt lat="45.8322" lon="4.80811">
        <ele>418</ele>
        <time>2012-01-13T19:11:48Z</time>
      </trkpt>
      <trkpt lat="45.83221" lon="4.80809">
        <ele>418</ele>
        <time>2012-01-13T19:11:49Z</time>
      </trkpt>
      <trkpt lat="45.83222" lon="4.80806">
        <ele>418</ele>
        <time>2012-01-13T19:11:50Z</time>
      </trkpt>
      <trkpt lat="45.83226" lon="4.80798">
        <ele>419</ele>
        <time>2012-01-13T19:11:54Z</time>
      </trkpt>
      <trkpt lat="45.83228" lon="4.80797">
        <ele>419</ele>
        <time>2012-01-13T19:11:55Z</time>
      </trkpt>
      <trkpt lat="45.83231" lon="4.80791">
        <ele>419</ele>
        <time>2012-01-13T19:11:58Z</time>
      </trkpt>
      <trkpt lat="45.83233" lon="4.8079">
        <ele>419</ele>
        <time>2012-01-13T19:11:59Z</time>
      </trkpt>
      <trkpt lat="45.83238" lon="4.80784">
        <ele>419</ele>
        <time>2012-01-13T19:12:03Z</time>
      </trkpt>
      <trkpt lat="45.8324" lon="4.80783">
        <ele>419</ele>
        <time>2012-01-13T19:12:04Z</time>
      </trkpt>
      <trkpt lat="45.83245" lon="4.80773">
        <ele>419</ele>
        <time>2012-01-13T19:12:09Z</time>
      </trkpt>
      <trkpt lat="45.83249" lon="4.80768">
        <ele>419</ele>
        <time>2012-01-13T19:12:12Z</time>
      </trkpt>
      <trkpt lat="45.83254" lon="4.8077">
        <ele>420</ele>
        <time>2012-01-13T19:12:14Z</time>
      </trkpt>
      <trkpt lat="45.83261" lon="4.80769">
        <ele>420</ele>
        <time>2012-01-13T19:12:18Z</time>
      </trkpt>
      <trkpt lat="45.83269" lon="4.80759">
        <ele>420</ele>
        <time>2012-01-13T19:12:24Z</time>
      </trkpt>
      <trkpt lat="45.83274" lon="4.80751">
        <ele>421</ele>
        <time>2012-01-13T19:12:29Z</time>
      </trkpt>
      <trkpt lat="45.83274" lon="4.80749">
        <ele>422</ele>
        <time>2012-01-13T19:12:30Z</time>
      </trkpt>
      <trkpt lat="45.83277" lon="4.80738">
        <ele>422</ele>
        <time>2012-01-13T19:12:35Z</time>
      </trkpt>
      <trkpt lat="45.8328" lon="4.80725">
        <ele>422</ele>
        <time>2012-01-13T19:12:39Z</time>
      </trkpt>
      <trkpt lat="45.83282" lon="4.80723">
        <ele>423</ele>
        <time>2012-01-13T19:12:40Z</time>
      </trkpt>
      <trkpt lat="45.83284" lon="4.80721">
        <ele>423</ele>
        <time>2012-01-13T19:12:41Z</time>
      </trkpt>
      <trkpt lat="45.83288" lon="4.80716">
        <ele>423</ele>
        <time>2012-01-13T19:12:44Z</time>
      </trkpt>
      <trkpt lat="45.83289" lon="4.80714">
        <ele>423</ele>
        <time>2012-01-13T19:12:46Z</time>
      </trkpt>
      <trkpt lat="45.83291" lon="4.80713">
        <ele>423</ele>
        <time>2012-01-13T19:12:48Z</time>
      </trkpt>
      <trkpt lat="45.83293" lon="4.80714">
        <ele>423</ele>
        <time>2012-01-13T19:12:49Z</time>
      </trkpt>
      <trkpt lat="45.83295" lon="4.80715">
        <ele>423</ele>
        <time>2012-01-13T19:12:52Z</time>
      </trkpt>
      <trkpt lat="45.83296" lon="4.80715">
        <ele>423</ele>
        <time>2012-01-13T19:12:53Z</time>
      </trkpt>
      <trkpt lat="45.83297" lon="4.80715">
        <ele>423</ele>
        <time>2012-01-13T19:12:54Z</time>
      </trkpt>
      <trkpt lat="45.83298" lon="4.80714">
        <ele>423</ele>
        <time>2012-01-13T19:12:55Z</time>
      </trkpt>
      <trkpt lat="45.83305" lon="4.80711">
        <ele>424</ele>
        <time>2012-01-13T19:12:59Z</time>
      </trkpt>
      <trkpt lat="45.83313" lon="4.80706">
        <ele>424</ele>
        <time>2012-01-13T19:13:04Z</time>
      </trkpt>
      <trkpt lat="45.83315" lon="4.80706">
        <ele>424</ele>
        <time>2012-01-13T19:13:05Z</time>
      </trkpt>
      <trkpt lat="45.8332" lon="4.80706">
        <ele>424</ele>
        <time>2012-01-13T19:13:08Z</time>
      </trkpt>
      <trkpt lat="45.83324" lon="4.80704">
        <ele>424</ele>
        <time>2012-01-13T19:13:11Z</time>
      </trkpt>
      <trkpt lat="45.83325" lon="4.80702">
        <ele>424</ele>
        <time>2012-01-13T19:13:12Z</time>
      </trkpt>
      <trkpt lat="45.83328" lon="4.80699">
        <ele>425</ele>
        <time>2012-01-13T19:13:14Z</time>
      </trkpt>
      <trkpt lat="45.8333" lon="4.80697">
        <ele>425</ele>
        <time>2012-01-13T19:13:15Z</time>
      </trkpt>
      <trkpt lat="45.83333" lon="4.80694">
        <ele>425</ele>
        <time>2012-01-13T19:13:17Z</time>
      </trkpt>
      <trkpt lat="45.83334" lon="4.80692">
        <ele>429</ele>
        <time>2012-01-13T19:13:18Z</time>
      </trkpt>
      <trkpt lat="45.8334" lon="4.80679">
        <ele>429</ele>
        <time>2012-01-13T19:13:23Z</time>
      </trkpt>
      <trkpt lat="45.8334" lon="4.80676">
        <ele>429</ele>
        <time>2012-01-13T19:13:24Z</time>
      </trkpt>
      <trkpt lat="45.83342" lon="4.80671">
        <ele>429</ele>
        <time>2012-01-13T19:13:26Z</time>
      </trkpt>
      <trkpt lat="45.83346" lon="4.80669">
        <ele>429</ele>
        <time>2012-01-13T19:13:28Z</time>
      </trkpt>
      <trkpt lat="45.83352" lon="4.80663">
        <ele>432</ele>
        <time>2012-01-13T19:13:32Z</time>
      </trkpt>
      <trkpt lat="45.83355" lon="4.80662">
        <ele>432</ele>
        <time>2012-01-13T19:13:34Z</time>
      </trkpt>
      <trkpt lat="45.83358" lon="4.80665">
        <ele>432</ele>
        <time>2012-01-13T19:13:36Z</time>
      </trkpt>
      <trkpt lat="45.83362" lon="4.80665">
        <ele>433</ele>
        <time>2012-01-13T19:13:39Z</time>
      </trkpt>
      <trkpt lat="45.83364" lon="4.80665">
        <ele>433</ele>
        <time>2012-01-13T19:13:40Z</time>
      </trkpt>
      <trkpt lat="45.83372" lon="4.80662">
        <ele>434</ele>
        <time>2012-01-13T19:13:44Z</time>
      </trkpt>
      <trkpt lat="45.83374" lon="4.80661">
        <ele>434</ele>
        <time>2012-01-13T19:13:45Z</time>
      </trkpt>
      <trkpt lat="45.83383" lon="4.80656">
        <ele>435</ele>
        <time>2012-01-13T19:13:51Z</time>
      </trkpt>
      <trkpt lat="45.83389" lon="4.80656">
        <ele>435</ele>
        <time>2012-01-13T19:14:16Z</time>
      </trkpt>
      <trkpt lat="45.83387" lon="4.80656">
        <ele>435</ele>
        <time>2012-01-13T19:14:30Z</time>
      </trkpt>
      <trkpt lat="45.83386" lon="4.80658">
        <ele>435</ele>
        <time>2012-01-13T19:14:46Z</time>
      </trkpt>
      <trkpt lat="45.83387" lon="4.80656">
        <ele>435</ele>
        <time>2012-01-13T19:14:55Z</time>
      </trkpt>
      <trkpt lat="45.83384" lon="4.80656">
        <ele>435</ele>
        <time>2012-01-13T19:15:06Z</time>
      </trkpt>
      <trkpt lat="45.83382" lon="4.80655">
        <ele>435</ele>
        <time>2012-01-13T19:15:08Z</time>
      </trkpt>
      <trkpt lat="45.83382" lon="4.80651">
        <ele>435</ele>
        <time>2012-01-13T19:15:12Z</time>
      </trkpt>
      <trkpt lat="45.83383" lon="4.80649">
        <ele>435</ele>
        <time>2012-01-13T19:15:14Z</time>
      </trkpt>
      <trkpt lat="45.83383" lon="4.80647">
        <ele>435</ele>
        <time>2012-01-13T19:15:16Z</time>
      </trkpt>
      <trkpt lat="45.83383" lon="4.80645">
        <ele>435</ele>
        <time>2012-01-13T19:15:17Z</time>
      </trkpt>
      <trkpt lat="45.83383" lon="4.80635">
        <ele>435</ele>
        <time>2012-01-13T19:15:21Z</time>
      </trkpt>
      <trkpt lat="45.83383" lon="4.80633">
        <ele>435</ele>
        <time>2012-01-13T19:15:22Z</time>
      </trkpt>
      <trkpt lat="45.83381" lon="4.80619">
        <ele>435</ele>
        <time>2012-01-13T19:15:26Z</time>
      </trkpt>
      <trkpt lat="45.83381" lon="4.80616">
        <ele>435</ele>
        <time>2012-01-13T19:15:27Z</time>
      </trkpt>
      <trkpt lat="45.83378" lon="4.80595">
        <ele>436</ele>
        <time>2012-01-13T19:15:33Z</time>
      </trkpt>
      <trkpt lat="45.83377" lon="4.80592">
        <ele>436</ele>
        <time>2012-01-13T19:15:34Z</time>
      </trkpt>
      <trkpt lat="45.83375" lon="4.80581">
        <ele>439</ele>
        <time>2012-01-13T19:15:38Z</time>
      </trkpt>
      <trkpt lat="45.83372" lon="4.80567">
        <ele>439</ele>
        <time>2012-01-13T19:15:43Z</time>
      </trkpt>
      <trkpt lat="45.83373" lon="4.80563">
        <ele>439</ele>
        <time>2012-01-13T19:15:45Z</time>
      </trkpt>
      <trkpt lat="45.83378" lon="4.8056">
        <ele>440</ele>
        <time>2012-01-13T19:15:50Z</time>
      </trkpt>
      <trkpt lat="45.8338" lon="4.8056">
        <ele>440</ele>
        <time>2012-01-13T19:15:51Z</time>
      </trkpt>
      <trkpt lat="45.83389" lon="4.80555">
        <ele>441</ele>
        <time>2012-01-13T19:15:56Z</time>
      </trkpt>
      <trkpt lat="45.83391" lon="4.80555">
        <ele>441</ele>
        <time>2012-01-13T19:15:57Z</time>
      </trkpt>
      <trkpt lat="45.83405" lon="4.80552">
        <ele>442</ele>
        <time>2012-01-13T19:16:03Z</time>
      </trkpt>
      <trkpt lat="45.83409" lon="4.80551">
        <ele>442</ele>
        <time>2012-01-13T19:16:05Z</time>
      </trkpt>
      <trkpt lat="45.8341" lon="4.80551">
        <ele>442</ele>
        <time>2012-01-13T19:16:06Z</time>
      </trkpt>
      <trkpt lat="45.83413" lon="4.80551">
        <ele>442</ele>
        <time>2012-01-13T19:16:07Z</time>
      </trkpt>
      <trkpt lat="45.83423" lon="4.80543">
        <ele>450</ele>
        <time>2012-01-13T19:16:13Z</time>
      </trkpt>
      <trkpt lat="45.83425" lon="4.80542">
        <ele>450</ele>
        <time>2012-01-13T19:16:14Z</time>
      </trkpt>
      <trkpt lat="45.83431" lon="4.80536">
        <ele>450</ele>
        <time>2012-01-13T19:16:18Z</time>
      </trkpt>
      <trkpt lat="45.83432" lon="4.80534">
        <ele>451</ele>
        <time>2012-01-13T19:16:19Z</time>
      </trkpt>
      <trkpt lat="45.8344" lon="4.8053">
        <ele>451</ele>
        <time>2012-01-13T19:16:23Z</time>
      </trkpt>
      <trkpt lat="45.83442" lon="4.8053">
        <ele>451</ele>
        <time>2012-01-13T19:16:24Z</time>
      </trkpt>
      <trkpt lat="45.83453" lon="4.80527">
        <ele>452</ele>
        <time>2012-01-13T19:16:30Z</time>
      </trkpt>
      <trkpt lat="45.83461" lon="4.80525">
        <ele>453</ele>
        <time>2012-01-13T19:16:35Z</time>
      </trkpt>
      <trkpt lat="45.83472" lon="4.80521">
        <ele>454</ele>
        <time>2012-01-13T19:16:41Z</time>
      </trkpt>
      <trkpt lat="45.83477" lon="4.80516">
        <ele>455</ele>
        <time>2012-01-13T19:16:44Z</time>
      </trkpt>
      <trkpt lat="45.8348" lon="4.80515">
        <ele>455</ele>
        <time>2012-01-13T19:16:45Z</time>
      </trkpt>
      <trkpt lat="45.83483" lon="4.80512">
        <ele>455</ele>
        <time>2012-01-13T19:16:47Z</time>
      </trkpt>
      <trkpt lat="45.83493" lon="4.80504">
        <ele>458</ele>
        <time>2012-01-13T19:16:52Z</time>
      </trkpt>
      <trkpt lat="45.83496" lon="4.80501">
        <ele>459</ele>
        <time>2012-01-13T19:16:54Z</time>
      </trkpt>
      <trkpt lat="45.83503" lon="4.80495">
        <ele>461</ele>
        <time>2012-01-13T19:16:57Z</time>
      </trkpt>
      <trkpt lat="45.83512" lon="4.80485">
        <ele>463</ele>
        <time>2012-01-13T19:17:02Z</time>
      </trkpt>
      <trkpt lat="45.83518" lon="4.80481">
        <ele>464</ele>
        <time>2012-01-13T19:17:06Z</time>
      </trkpt>
      <trkpt lat="45.83525" lon="4.80474">
        <ele>464</ele>
        <time>2012-01-13T19:17:10Z</time>
      </trkpt>
      <trkpt lat="45.83527" lon="4.80473">
        <ele>464</ele>
        <time>2012-01-13T19:17:11Z</time>
      </trkpt>
      <trkpt lat="45.83529" lon="4.80471">
        <ele>465</ele>
        <time>2012-01-13T19:17:12Z</time>
      </trkpt>
      <trkpt lat="45.83537" lon="4.80468">
        <ele>465</ele>
        <time>2012-01-13T19:17:16Z</time>
      </trkpt>
      <trkpt lat="45.83546" lon="4.80461">
        <ele>466</ele>
        <time>2012-01-13T19:17:22Z</time>
      </trkpt>
      <trkpt lat="45.83547" lon="4.80459">
        <ele>466</ele>
        <time>2012-01-13T19:17:23Z</time>
      </trkpt>
      <trkpt lat="45.83551" lon="4.80457">
        <ele>466</ele>
        <time>2012-01-13T19:17:26Z</time>
      </trkpt>
      <trkpt lat="45.83555" lon="4.80455">
        <ele>466</ele>
        <time>2012-01-13T19:17:28Z</time>
      </trkpt>
      <trkpt lat="45.83565" lon="4.80452">
        <ele>466</ele>
        <time>2012-01-13T19:17:33Z</time>
      </trkpt>
      <trkpt lat="45.83569" lon="4.80451">
        <ele>467</ele>
        <time>2012-01-13T19:17:35Z</time>
      </trkpt>
      <trkpt lat="45.83577" lon="4.80445">
        <ele>467</ele>
        <time>2012-01-13T19:17:40Z</time>
      </trkpt>
      <trkpt lat="45.83581" lon="4.80444">
        <ele>467</ele>
        <time>2012-01-13T19:17:42Z</time>
      </trkpt>
      <trkpt lat="45.83589" lon="4.80441">
        <ele>467</ele>
        <time>2012-01-13T19:17:45Z</time>
      </trkpt>
      <trkpt lat="45.83598" lon="4.80437">
        <ele>467</ele>
        <time>2012-01-13T19:17:48Z</time>
      </trkpt>
      <trkpt lat="45.836" lon="4.80436">
        <ele>467</ele>
        <time>2012-01-13T19:17:49Z</time>
      </trkpt>
      <trkpt lat="45.83603" lon="4.80435">
        <ele>467</ele>
        <time>2012-01-13T19:17:50Z</time>
      </trkpt>
      <trkpt lat="45.83608" lon="4.80433">
        <ele>467</ele>
        <time>2012-01-13T19:17:52Z</time>
      </trkpt>
      <trkpt lat="45.83613" lon="4.80429">
        <ele>467</ele>
        <time>2012-01-13T19:17:55Z</time>
      </trkpt>
      <trkpt lat="45.83618" lon="4.80427">
        <ele>467</ele>
        <time>2012-01-13T19:17:58Z</time>
      </trkpt>
      <trkpt lat="45.83621" lon="4.80423">
        <ele>467</ele>
        <time>2012-01-13T19:18:01Z</time>
      </trkpt>
      <trkpt lat="45.83623" lon="4.80422">
        <ele>466</ele>
        <time>2012-01-13T19:18:03Z</time>
      </trkpt>
      <trkpt lat="45.83623" lon="4.80421">
        <ele>466</ele>
        <time>2012-01-13T19:18:06Z</time>
      </trkpt>
      <trkpt lat="45.83624" lon="4.80416">
        <ele>470</ele>
        <time>2012-01-13T19:18:22Z</time>
      </trkpt>
      <trkpt lat="45.83631" lon="4.80408">
        <ele>470</ele>
        <time>2012-01-13T19:18:28Z</time>
      </trkpt>
      <trkpt lat="45.83643" lon="4.80397">
        <ele>469</ele>
        <time>2012-01-13T19:18:34Z</time>
      </trkpt>
      <trkpt lat="45.83647" lon="4.80393">
        <ele>469</ele>
        <time>2012-01-13T19:18:36Z</time>
      </trkpt>
      <trkpt lat="45.83654" lon="4.80388">
        <ele>469</ele>
        <time>2012-01-13T19:18:39Z</time>
      </trkpt>
      <trkpt lat="45.83665" lon="4.80382">
        <ele>470</ele>
        <time>2012-01-13T19:18:43Z</time>
      </trkpt>
      <trkpt lat="45.83667" lon="4.80381">
        <ele>467</ele>
        <time>2012-01-13T19:18:44Z</time>
      </trkpt>
      <trkpt lat="45.83682" lon="4.80377">
        <ele>467</ele>
        <time>2012-01-13T19:18:48Z</time>
      </trkpt>
      <trkpt lat="45.83689" lon="4.80378">
        <ele>466</ele>
        <time>2012-01-13T19:18:50Z</time>
      </trkpt>
      <trkpt lat="45.83691" lon="4.80384">
        <ele>466</ele>
        <time>2012-01-13T19:18:52Z</time>
      </trkpt>
      <trkpt lat="45.83692" lon="4.80392">
        <ele>466</ele>
        <time>2012-01-13T19:18:54Z</time>
      </trkpt>
      <trkpt lat="45.83693" lon="4.80396">
        <ele>466</ele>
        <time>2012-01-13T19:18:55Z</time>
      </trkpt>
      <trkpt lat="45.83692" lon="4.80405">
        <ele>466</ele>
        <time>2012-01-13T19:18:57Z</time>
      </trkpt>
      <trkpt lat="45.83694" lon="4.80425">
        <ele>461</ele>
        <time>2012-01-13T19:19:02Z</time>
      </trkpt>
      <trkpt lat="45.83695" lon="4.8043">
        <ele>461</ele>
        <time>2012-01-13T19:19:03Z</time>
      </trkpt>
      <trkpt lat="45.83696" lon="4.80443">
        <ele>460</ele>
        <time>2012-01-13T19:19:07Z</time>
      </trkpt>
      <trkpt lat="45.83697" lon="4.80451">
        <ele>459</ele>
        <time>2012-01-13T19:19:09Z</time>
      </trkpt>
      <trkpt lat="45.83698" lon="4.80461">
        <ele>459</ele>
        <time>2012-01-13T19:19:12Z</time>
      </trkpt>
      <trkpt lat="45.837" lon="4.80469">
        <ele>458</ele>
        <time>2012-01-13T19:19:15Z</time>
      </trkpt>
      <trkpt lat="45.83699" lon="4.80479">
        <ele>458</ele>
        <time>2012-01-13T19:19:18Z</time>
      </trkpt>
      <trkpt lat="45.83698" lon="4.8049">
        <ele>457</ele>
        <time>2012-01-13T19:19:22Z</time>
      </trkpt>
      <trkpt lat="45.83699" lon="4.80504">
        <ele>450</ele>
        <time>2012-01-13T19:19:25Z</time>
      </trkpt>
      <trkpt lat="45.837" lon="4.80509">
        <ele>450</ele>
        <time>2012-01-13T19:19:26Z</time>
      </trkpt>
      <trkpt lat="45.83702" lon="4.80527">
        <ele>449</ele>
        <time>2012-01-13T19:19:30Z</time>
      </trkpt>
      <trkpt lat="45.83703" lon="4.80532">
        <ele>448</ele>
        <time>2012-01-13T19:19:33Z</time>
      </trkpt>
      <trkpt lat="45.83705" lon="4.80536">
        <ele>448</ele>
        <time>2012-01-13T19:19:36Z</time>
      </trkpt>
      <trkpt lat="45.83706" lon="4.8054">
        <ele>448</ele>
        <time>2012-01-13T19:19:39Z</time>
      </trkpt>
      <trkpt lat="45.83707" lon="4.80543">
        <ele>447</ele>
        <time>2012-01-13T19:19:43Z</time>
      </trkpt>
      <trkpt lat="45.83706" lon="4.80544">
        <ele>447</ele>
        <time>2012-01-13T19:19:54Z</time>
      </trkpt>
      <trkpt lat="45.83704" lon="4.80544">
        <ele>447</ele>
        <time>2012-01-13T19:20:09Z</time>
      </trkpt>
      <trkpt lat="45.83705" lon="4.80548">
        <ele>447</ele>
        <time>2012-01-13T19:20:12Z</time>
      </trkpt>
      <trkpt lat="45.83706" lon="4.80551">
        <ele>447</ele>
        <time>2012-01-13T19:20:13Z</time>
      </trkpt>
      <trkpt lat="45.83705" lon="4.80559">
        <ele>446</ele>
        <time>2012-01-13T19:20:17Z</time>
      </trkpt>
      <trkpt lat="45.83707" lon="4.80557">
        <ele>446</ele>
        <time>2012-01-13T19:20:25Z</time>
      </trkpt>
      <trkpt lat="45.83711" lon="4.8056">
        <ele>446</ele>
        <time>2012-01-13T19:20:49Z</time>
      </trkpt>
      <trkpt lat="45.83712" lon="4.80571">
        <ele>445</ele>
        <time>2012-01-13T19:20:53Z</time>
      </trkpt>
      <trkpt lat="45.83712" lon="4.80575">
        <ele>445</ele>
        <time>2012-01-13T19:20:54Z</time>
      </trkpt>
      <trkpt lat="45.83713" lon="4.80594">
        <ele>436</ele>
        <time>2012-01-13T19:20:59Z</time>
      </trkpt>
      <trkpt lat="45.83713" lon="4.80597">
        <ele>436</ele>
        <time>2012-01-13T19:21:00Z</time>
      </trkpt>
      <trkpt lat="45.83715" lon="4.80615">
        <ele>434</ele>
        <time>2012-01-13T19:21:05Z</time>
      </trkpt>
      <trkpt lat="45.83716" lon="4.80627">
        <ele>433</ele>
        <time>2012-01-13T19:21:08Z</time>
      </trkpt>
      <trkpt lat="45.83718" lon="4.80639">
        <ele>432</ele>
        <time>2012-01-13T19:21:11Z</time>
      </trkpt>
      <trkpt lat="45.83719" lon="4.80655">
        <ele>431</ele>
        <time>2012-01-13T19:21:15Z</time>
      </trkpt>
      <trkpt lat="45.8372" lon="4.80659">
        <ele>430</ele>
        <time>2012-01-13T19:21:16Z</time>
      </trkpt>
      <trkpt lat="45.83723" lon="4.8068">
        <ele>423</ele>
        <time>2012-01-13T19:21:21Z</time>
      </trkpt>
      <trkpt lat="45.83724" lon="4.80703">
        <ele>422</ele>
        <time>2012-01-13T19:21:27Z</time>
      </trkpt>
      <trkpt lat="45.83723" lon="4.80706">
        <ele>422</ele>
        <time>2012-01-13T19:21:28Z</time>
      </trkpt>
      <trkpt lat="45.83718" lon="4.80712">
        <ele>421</ele>
        <time>2012-01-13T19:21:30Z</time>
      </trkpt>
      <trkpt lat="45.83712" lon="4.8072">
        <ele>421</ele>
        <time>2012-01-13T19:21:33Z</time>
      </trkpt>
      <trkpt lat="45.8371" lon="4.80723">
        <ele>421</ele>
        <time>2012-01-13T19:21:34Z</time>
      </trkpt>
      <trkpt lat="45.83708" lon="4.80725">
        <ele>421</ele>
        <time>2012-01-13T19:21:35Z</time>
      </trkpt>
      <trkpt lat="45.83699" lon="4.80736">
        <ele>421</ele>
        <time>2012-01-13T19:21:39Z</time>
      </trkpt>
      <trkpt lat="45.83693" lon="4.80746">
        <ele>420</ele>
        <time>2012-01-13T19:21:42Z</time>
      </trkpt>
      <trkpt lat="45.83688" lon="4.80752">
        <ele>416</ele>
        <time>2012-01-13T19:21:44Z</time>
      </trkpt>
      <trkpt lat="45.83681" lon="4.80765">
        <ele>416</ele>
        <time>2012-01-13T19:21:48Z</time>
      </trkpt>
      <trkpt lat="45.83673" lon="4.80783">
        <ele>415</ele>
        <time>2012-01-13T19:21:53Z</time>
      </trkpt>
      <trkpt lat="45.8367" lon="4.8079">
        <ele>415</ele>
        <time>2012-01-13T19:21:55Z</time>
      </trkpt>
      <trkpt lat="45.83665" lon="4.80804">
        <ele>416</ele>
        <time>2012-01-13T19:21:59Z</time>
      </trkpt>
      <trkpt lat="45.83658" lon="4.80814">
        <ele>415</ele>
        <time>2012-01-13T19:22:03Z</time>
      </trkpt>
      <trkpt lat="45.83656" lon="4.80816">
        <ele>415</ele>
        <time>2012-01-13T19:22:04Z</time>
      </trkpt>
      <trkpt lat="45.83648" lon="4.80829">
        <ele>415</ele>
        <time>2012-01-13T19:22:08Z</time>
      </trkpt>
      <trkpt lat="45.83644" lon="4.80834">
        <ele>413</ele>
        <time>2012-01-13T19:22:10Z</time>
      </trkpt>
      <trkpt lat="45.83637" lon="4.80843">
        <ele>413</ele>
        <time>2012-01-13T19:22:14Z</time>
      </trkpt>
      <trkpt lat="45.83631" lon="4.80852">
        <ele>413</ele>
        <time>2012-01-13T19:22:17Z</time>
      </trkpt>
      <trkpt lat="45.83629" lon="4.80854">
        <ele>413</ele>
        <time>2012-01-13T19:22:18Z</time>
      </trkpt>
      <trkpt lat="45.83625" lon="4.80857">
        <ele>413</ele>
        <time>2012-01-13T19:22:20Z</time>
      </trkpt>
      <trkpt lat="45.83624" lon="4.80864">
        <ele>413</ele>
        <time>2012-01-13T19:22:22Z</time>
      </trkpt>
      <trkpt lat="45.83623" lon="4.80873">
        <ele>413</ele>
        <time>2012-01-13T19:22:24Z</time>
      </trkpt>
      <trkpt lat="45.83619" lon="4.80887">
        <ele>413</ele>
        <time>2012-01-13T19:22:27Z</time>
      </trkpt>
      <trkpt lat="45.83612" lon="4.80898">
        <ele>413</ele>
        <time>2012-01-13T19:22:30Z</time>
      </trkpt>
      <trkpt lat="45.83608" lon="4.80905">
        <ele>413</ele>
        <time>2012-01-13T19:22:32Z</time>
      </trkpt>
      <trkpt lat="45.836" lon="4.80919">
        <ele>409</ele>
        <time>2012-01-13T19:22:36Z</time>
      </trkpt>
      <trkpt lat="45.83599" lon="4.80926">
        <ele>409</ele>
        <time>2012-01-13T19:22:38Z</time>
      </trkpt>
      <trkpt lat="45.83592" lon="4.80943">
        <ele>408</ele>
        <time>2012-01-13T19:22:43Z</time>
      </trkpt>
      <trkpt lat="45.83579" lon="4.80957">
        <ele>405</ele>
        <time>2012-01-13T19:22:48Z</time>
      </trkpt>
      <trkpt lat="45.83577" lon="4.80959">
        <ele>404</ele>
        <time>2012-01-13T19:22:49Z</time>
      </trkpt>
      <trkpt lat="45.83566" lon="4.80962">
        <ele>404</ele>
        <time>2012-01-13T19:22:53Z</time>
      </trkpt>
      <trkpt lat="45.83559" lon="4.80966">
        <ele>403</ele>
        <time>2012-01-13T19:22:56Z</time>
      </trkpt>
      <trkpt lat="45.83555" lon="4.80973">
        <ele>403</ele>
        <time>2012-01-13T19:22:58Z</time>
      </trkpt>
      <trkpt lat="45.83548" lon="4.80987">
        <ele>402</ele>
        <time>2012-01-13T19:23:02Z</time>
      </trkpt>
      <trkpt lat="45.83547" lon="4.8099">
        <ele>402</ele>
        <time>2012-01-13T19:23:03Z</time>
      </trkpt>
      <trkpt lat="45.83542" lon="4.81002">
        <ele>394</ele>
        <time>2012-01-13T19:23:07Z</time>
      </trkpt>
      <trkpt lat="45.83539" lon="4.81004">
        <ele>394</ele>
        <time>2012-01-13T19:23:08Z</time>
      </trkpt>
      <trkpt lat="45.83536" lon="4.81007">
        <ele>394</ele>
        <time>2012-01-13T19:23:09Z</time>
      </trkpt>
      <trkpt lat="45.83528" lon="4.81015">
        <ele>393</ele>
        <time>2012-01-13T19:23:12Z</time>
      </trkpt>
      <trkpt lat="45.83519" lon="4.81021">
        <ele>393</ele>
        <time>2012-01-13T19:23:15Z</time>
      </trkpt>
      <trkpt lat="45.83513" lon="4.81025">
        <ele>393</ele>
        <time>2012-01-13T19:23:17Z</time>
      </trkpt>
      <trkpt lat="45.83502" lon="4.81033">
        <ele>393</ele>
        <time>2012-01-13T19:23:21Z</time>
      </trkpt>
      <trkpt lat="45.83497" lon="4.81037">
        <ele>391</ele>
        <time>2012-01-13T19:23:23Z</time>
      </trkpt>
      <trkpt lat="45.83483" lon="4.81044">
        <ele>390</ele>
        <time>2012-01-13T19:23:28Z</time>
      </trkpt>
      <trkpt lat="45.83467" lon="4.81056">
        <ele>389</ele>
        <time>2012-01-13T19:23:34Z</time>
      </trkpt>
      <trkpt lat="45.83456" lon="4.81064">
        <ele>389</ele>
        <time>2012-01-13T19:23:39Z</time>
      </trkpt>
      <trkpt lat="45.83455" lon="4.81065">
        <ele>389</ele>
        <time>2012-01-13T19:23:40Z</time>
      </trkpt>
      <trkpt lat="45.83455" lon="4.81066">
        <ele>389</ele>
        <time>2012-01-13T19:23:44Z</time>
      </trkpt>
      <trkpt lat="45.8345" lon="4.81066">
        <ele>388</ele>
        <time>2012-01-13T19:23:49Z</time>
      </trkpt>
      <trkpt lat="45.8344" lon="4.81068">
        <ele>388</ele>
        <time>2012-01-13T19:23:54Z</time>
      </trkpt>
      <trkpt lat="45.83432" lon="4.81069">
        <ele>387</ele>
        <time>2012-01-13T19:23:57Z</time>
      </trkpt>
      <trkpt lat="45.83424" lon="4.81072">
        <ele>387</ele>
        <time>2012-01-13T19:24:00Z</time>
      </trkpt>
      <trkpt lat="45.83413" lon="4.81077">
        <ele>385</ele>
        <time>2012-01-13T19:24:04Z</time>
      </trkpt>
      <trkpt lat="45.8341" lon="4.81079">
        <ele>385</ele>
        <time>2012-01-13T19:24:05Z</time>
      </trkpt>
      <trkpt lat="45.83398" lon="4.81091">
        <ele>381</ele>
        <time>2012-01-13T19:24:10Z</time>
      </trkpt>
      <trkpt lat="45.83382" lon="4.81105">
        <ele>379</ele>
        <time>2012-01-13T19:24:16Z</time>
      </trkpt>
      <trkpt lat="45.83369" lon="4.81119">
        <ele>378</ele>
        <time>2012-01-13T19:24:21Z</time>
      </trkpt>
      <trkpt lat="45.83367" lon="4.81122">
        <ele>378</ele>
        <time>2012-01-13T19:24:22Z</time>
      </trkpt>
      <trkpt lat="45.83362" lon="4.8114">
        <ele>378</ele>
        <time>2012-01-13T19:24:26Z</time>
      </trkpt>
      <trkpt lat="45.83359" lon="4.81146">
        <ele>377</ele>
        <time>2012-01-13T19:24:28Z</time>
      </trkpt>
      <trkpt lat="45.83356" lon="4.81148">
        <ele>377</ele>
        <time>2012-01-13T19:24:29Z</time>
      </trkpt>
      <trkpt lat="45.83353" lon="4.81149">
        <ele>377</ele>
        <time>2012-01-13T19:24:30Z</time>
      </trkpt>
      <trkpt lat="45.8334" lon="4.81147">
        <ele>376</ele>
        <time>2012-01-13T19:24:34Z</time>
      </trkpt>
      <trkpt lat="45.83337" lon="4.81146">
        <ele>376</ele>
        <time>2012-01-13T19:24:35Z</time>
      </trkpt>
      <trkpt lat="45.83334" lon="4.81144">
        <ele>376</ele>
        <time>2012-01-13T19:24:36Z</time>
      </trkpt>
      <trkpt lat="45.83321" lon="4.81141">
        <ele>373</ele>
        <time>2012-01-13T19:24:40Z</time>
      </trkpt>
      <trkpt lat="45.83304" lon="4.81141">
        <ele>373</ele>
        <time>2012-01-13T19:24:45Z</time>
      </trkpt>
      <trkpt lat="45.83301" lon="4.81141">
        <ele>373</ele>
        <time>2012-01-13T19:24:46Z</time>
      </trkpt>
      <trkpt lat="45.83293" lon="4.81142">
        <ele>373</ele>
        <time>2012-01-13T19:24:49Z</time>
      </trkpt>
      <trkpt lat="45.83283" lon="4.81143">
        <ele>372</ele>
        <time>2012-01-13T19:24:52Z</time>
      </trkpt>
      <trkpt lat="45.83279" lon="4.81143">
        <ele>372</ele>
        <time>2012-01-13T19:24:53Z</time>
      </trkpt>
      <trkpt lat="45.83265" lon="4.81144">
        <ele>371</ele>
        <time>2012-01-13T19:24:57Z</time>
      </trkpt>
      <trkpt lat="45.83262" lon="4.81144">
        <ele>371</ele>
        <time>2012-01-13T19:24:58Z</time>
      </trkpt>
      <trkpt lat="45.83247" lon="4.81143">
        <ele>369</ele>
        <time>2012-01-13T19:25:02Z</time>
      </trkpt>
      <trkpt lat="45.83238" lon="4.81138">
        <ele>369</ele>
        <time>2012-01-13T19:25:06Z</time>
      </trkpt>
      <trkpt lat="45.83231" lon="4.81149">
        <ele>368</ele>
        <time>2012-01-13T19:25:11Z</time>
      </trkpt>
      <trkpt lat="45.83233" lon="4.81165">
        <ele>367</ele>
        <time>2012-01-13T19:25:15Z</time>
      </trkpt>
      <trkpt lat="45.83234" lon="4.81174">
        <ele>362</ele>
        <time>2012-01-13T19:25:17Z</time>
      </trkpt>
      <trkpt lat="45.83236" lon="4.81187">
        <ele>360</ele>
        <time>2012-01-13T19:25:20Z</time>
      </trkpt>
      <trkpt lat="45.83235" lon="4.81201">
        <ele>359</ele>
        <time>2012-01-13T19:25:23Z</time>
      </trkpt>
      <trkpt lat="45.83235" lon="4.81207">
        <ele>358</ele>
        <time>2012-01-13T19:25:24Z</time>
      </trkpt>
      <trkpt lat="45.83235" lon="4.81223">
        <ele>357</ele>
        <time>2012-01-13T19:25:28Z</time>
      </trkpt>
      <trkpt lat="45.83236" lon="4.81232">
        <ele>357</ele>
        <time>2012-01-13T19:25:30Z</time>
      </trkpt>
      <trkpt lat="45.83235" lon="4.81241">
        <ele>356</ele>
        <time>2012-01-13T19:25:32Z</time>
      </trkpt>
      <trkpt lat="45.83237" lon="4.81257">
        <ele>351</ele>
        <time>2012-01-13T19:25:36Z</time>
      </trkpt>
      <trkpt lat="45.83238" lon="4.8126">
        <ele>350</ele>
        <time>2012-01-13T19:25:37Z</time>
      </trkpt>
      <trkpt lat="45.83242" lon="4.81277">
        <ele>348</ele>
        <time>2012-01-13T19:25:41Z</time>
      </trkpt>
      <trkpt lat="45.83245" lon="4.81284">
        <ele>347</ele>
        <time>2012-01-13T19:25:43Z</time>
      </trkpt>
      <trkpt lat="45.8325" lon="4.81296">
        <ele>351</ele>
        <time>2012-01-13T19:25:47Z</time>
      </trkpt>
      <trkpt lat="45.83254" lon="4.81309">
        <ele>349</ele>
        <time>2012-01-13T19:25:51Z</time>
      </trkpt>
      <trkpt lat="45.83255" lon="4.81312">
        <ele>349</ele>
        <time>2012-01-13T19:25:52Z</time>
      </trkpt>
      <trkpt lat="45.83258" lon="4.81322">
        <ele>347</ele>
        <time>2012-01-13T19:25:56Z</time>
      </trkpt>
      <trkpt lat="45.83259" lon="4.81324">
        <ele>347</ele>
        <time>2012-01-13T19:25:57Z</time>
      </trkpt>
      <trkpt lat="45.83264" lon="4.81331">
        <ele>347</ele>
        <time>2012-01-13T19:26:00Z</time>
      </trkpt>
      <trkpt lat="45.83275" lon="4.81345">
        <ele>340</ele>
        <time>2012-01-13T19:26:06Z</time>
      </trkpt>
      <trkpt lat="45.83277" lon="4.8135">
        <ele>339</ele>
        <time>2012-01-13T19:26:08Z</time>
      </trkpt>
      <trkpt lat="45.8328" lon="4.81357">
        <ele>338</ele>
        <time>2012-01-13T19:26:10Z</time>
      </trkpt>
      <trkpt lat="45.83287" lon="4.8137">
        <ele>337</ele>
        <time>2012-01-13T19:26:14Z</time>
      </trkpt>
      <trkpt lat="45.83288" lon="4.81373">
        <ele>337</ele>
        <time>2012-01-13T19:26:15Z</time>
      </trkpt>
      <trkpt lat="45.83294" lon="4.81383">
        <ele>336</ele>
        <time>2012-01-13T19:26:18Z</time>
      </trkpt>
      <trkpt lat="45.833" lon="4.81397">
        <ele>336</ele>
        <time>2012-01-13T19:26:21Z</time>
      </trkpt>
      <trkpt lat="45.83302" lon="4.81401">
        <ele>335</ele>
        <time>2012-01-13T19:26:22Z</time>
      </trkpt>
      <trkpt lat="45.83307" lon="4.81412">
        <ele>335</ele>
        <time>2012-01-13T19:26:25Z</time>
      </trkpt>
      <trkpt lat="45.8331" lon="4.81421">
        <ele>327</ele>
        <time>2012-01-13T19:26:27Z</time>
      </trkpt>
      <trkpt lat="45.83312" lon="4.81444">
        <ele>326</ele>
        <time>2012-01-13T19:26:32Z</time>
      </trkpt>
      <trkpt lat="45.83312" lon="4.81447">
        <ele>325</ele>
        <time>2012-01-13T19:26:33Z</time>
      </trkpt>
      <trkpt lat="45.83316" lon="4.81461">
        <ele>324</ele>
        <time>2012-01-13T19:26:37Z</time>
      </trkpt>
      <trkpt lat="45.83317" lon="4.81465">
        <ele>324</ele>
        <time>2012-01-13T19:26:39Z</time>
      </trkpt>
      <trkpt lat="45.83318" lon="4.81467">
        <ele>324</ele>
        <time>2012-01-13T19:26:41Z</time>
      </trkpt>
      <trkpt lat="45.83317" lon="4.81469">
        <ele>324</ele>
        <time>2012-01-13T19:26:50Z</time>
      </trkpt>
      <trkpt lat="45.83318" lon="4.81471">
        <ele>324</ele>
        <time>2012-01-13T19:27:01Z</time>
      </trkpt>
      <trkpt lat="45.83313" lon="4.81474">
        <ele>323</ele>
        <time>2012-01-13T19:27:49Z</time>
      </trkpt>
      <trkpt lat="45.83313" lon="4.81481">
        <ele>323</ele>
        <time>2012-01-13T19:27:52Z</time>
      </trkpt>
      <trkpt lat="45.83313" lon="4.81483">
        <ele>323</ele>
        <time>2012-01-13T19:27:53Z</time>
      </trkpt>
      <trkpt lat="45.83317" lon="4.81493">
        <ele>324</ele>
        <time>2012-01-13T19:27:56Z</time>
      </trkpt>
      <trkpt lat="45.83318" lon="4.81496">
        <ele>324</ele>
        <time>2012-01-13T19:27:57Z</time>
      </trkpt>
      <trkpt lat="45.83322" lon="4.81513">
        <ele>318</ele>
        <time>2012-01-13T19:28:02Z</time>
      </trkpt>
      <trkpt lat="45.83323" lon="4.81521">
        <ele>316</ele>
        <time>2012-01-13T19:28:05Z</time>
      </trkpt>
      <trkpt lat="45.83324" lon="4.81524">
        <ele>315</ele>
        <time>2012-01-13T19:28:06Z</time>
      </trkpt>
      <trkpt lat="45.8333" lon="4.81543">
        <ele>312</ele>
        <time>2012-01-13T19:28:12Z</time>
      </trkpt>
      <trkpt lat="45.83331" lon="4.81547">
        <ele>312</ele>
        <time>2012-01-13T19:28:13Z</time>
      </trkpt>
      <trkpt lat="45.83337" lon="4.81561">
        <ele>319</ele>
        <time>2012-01-13T19:28:17Z</time>
      </trkpt>
      <trkpt lat="45.83342" lon="4.81568">
        <ele>318</ele>
        <time>2012-01-13T19:28:19Z</time>
      </trkpt>
      <trkpt lat="45.83347" lon="4.81579">
        <ele>317</ele>
        <time>2012-01-13T19:28:22Z</time>
      </trkpt>
      <trkpt lat="45.83352" lon="4.81591">
        <ele>312</ele>
        <time>2012-01-13T19:28:25Z</time>
      </trkpt>
      <trkpt lat="45.83354" lon="4.81595">
        <ele>311</ele>
        <time>2012-01-13T19:28:26Z</time>
      </trkpt>
      <trkpt lat="45.83363" lon="4.81613">
        <ele>311</ele>
        <time>2012-01-13T19:28:31Z</time>
      </trkpt>
      <trkpt lat="45.83364" lon="4.81616">
        <ele>311</ele>
        <time>2012-01-13T19:28:32Z</time>
      </trkpt>
      <trkpt lat="45.83371" lon="4.81636">
        <ele>310</ele>
        <time>2012-01-13T19:28:37Z</time>
      </trkpt>
      <trkpt lat="45.8338" lon="4.81656">
        <ele>309</ele>
        <time>2012-01-13T19:28:42Z</time>
      </trkpt>
      <trkpt lat="45.83381" lon="4.8166">
        <ele>309</ele>
        <time>2012-01-13T19:28:43Z</time>
      </trkpt>
      <trkpt lat="45.83384" lon="4.81671">
        <ele>301</ele>
        <time>2012-01-13T19:28:46Z</time>
      </trkpt>
      <trkpt lat="45.8339" lon="4.81681">
        <ele>301</ele>
        <time>2012-01-13T19:28:49Z</time>
      </trkpt>
      <trkpt lat="45.83393" lon="4.81685">
        <ele>300</ele>
        <time>2012-01-13T19:28:50Z</time>
      </trkpt>
      <trkpt lat="45.83403" lon="4.817">
        <ele>299</ele>
        <time>2012-01-13T19:28:54Z</time>
      </trkpt>
      <trkpt lat="45.83406" lon="4.81703">
        <ele>299</ele>
        <time>2012-01-13T19:28:55Z</time>
      </trkpt>
      <trkpt lat="45.83417" lon="4.81709">
        <ele>299</ele>
        <time>2012-01-13T19:28:58Z</time>
      </trkpt>
      <trkpt lat="45.83424" lon="4.81713">
        <ele>304</ele>
        <time>2012-01-13T19:29:00Z</time>
      </trkpt>
      <trkpt lat="45.83431" lon="4.81717">
        <ele>303</ele>
        <time>2012-01-13T19:29:02Z</time>
      </trkpt>
      <trkpt lat="45.83442" lon="4.81723">
        <ele>303</ele>
        <time>2012-01-13T19:29:05Z</time>
      </trkpt>
      <trkpt lat="45.8345" lon="4.81727">
        <ele>303</ele>
        <time>2012-01-13T19:29:07Z</time>
      </trkpt>
      <trkpt lat="45.83459" lon="4.81732">
        <ele>303</ele>
        <time>2012-01-13T19:29:10Z</time>
      </trkpt>
      <trkpt lat="45.83463" lon="4.81733">
        <ele>303</ele>
        <time>2012-01-13T19:29:11Z</time>
      </trkpt>
      <trkpt lat="45.83476" lon="4.81736">
        <ele>303</ele>
        <time>2012-01-13T19:29:15Z</time>
      </trkpt>
      <trkpt lat="45.83479" lon="4.81738">
        <ele>302</ele>
        <time>2012-01-13T19:29:16Z</time>
      </trkpt>
      <trkpt lat="45.83479" lon="4.8174">
        <ele>302</ele>
        <time>2012-01-13T19:29:17Z</time>
      </trkpt>
      <trkpt lat="45.83475" lon="4.81745">
        <ele>302</ele>
        <time>2012-01-13T19:29:19Z</time>
      </trkpt>
      <trkpt lat="45.83465" lon="4.81745">
        <ele>302</ele>
        <time>2012-01-13T19:29:21Z</time>
      </trkpt>
      <trkpt lat="45.83461" lon="4.81746">
        <ele>302</ele>
        <time>2012-01-13T19:29:22Z</time>
      </trkpt>
      <trkpt lat="45.83453" lon="4.81747">
        <ele>302</ele>
        <time>2012-01-13T19:29:24Z</time>
      </trkpt>
      <trkpt lat="45.83446" lon="4.81748">
        <ele>301</ele>
        <time>2012-01-13T19:29:26Z</time>
      </trkpt>
      <trkpt lat="45.83429" lon="4.81752">
        <ele>291</ele>
        <time>2012-01-13T19:29:31Z</time>
      </trkpt>
      <trkpt lat="45.83426" lon="4.81752">
        <ele>291</ele>
        <time>2012-01-13T19:29:32Z</time>
      </trkpt>
      <trkpt lat="45.83415" lon="4.81754">
        <ele>292</ele>
        <time>2012-01-13T19:29:35Z</time>
      </trkpt>
      <trkpt lat="45.83405" lon="4.81757">
        <ele>288</ele>
        <time>2012-01-13T19:29:38Z</time>
      </trkpt>
      <trkpt lat="45.83402" lon="4.81757">
        <ele>287</ele>
        <time>2012-01-13T19:29:39Z</time>
      </trkpt>
      <trkpt lat="45.83388" lon="4.81759">
        <ele>284</ele>
        <time>2012-01-13T19:29:44Z</time>
      </trkpt>
      <trkpt lat="45.83388" lon="4.8176">
        <ele>284</ele>
        <time>2012-01-13T19:29:45Z</time>
      </trkpt>
      <trkpt lat="45.83388" lon="4.81761">
        <ele>284</ele>
        <time>2012-01-13T19:29:46Z</time>
      </trkpt>
      <trkpt lat="45.83389" lon="4.81763">
        <ele>284</ele>
        <time>2012-01-13T19:29:47Z</time>
      </trkpt>
      <trkpt lat="45.8339" lon="4.81773">
        <ele>283</ele>
        <time>2012-01-13T19:29:52Z</time>
      </trkpt>
      <trkpt lat="45.83389" lon="4.81785">
        <ele>281</ele>
        <time>2012-01-13T19:29:56Z</time>
      </trkpt>
      <trkpt lat="45.83387" lon="4.81788">
        <ele>281</ele>
        <time>2012-01-13T19:29:59Z</time>
      </trkpt>
      <trkpt lat="45.83387" lon="4.81788">
        <ele>280</ele>
        <time>2012-01-13T19:30:00Z</time>
      </trkpt>
      <trkpt lat="45.83387" lon="4.81789">
        <ele>280</ele>
        <time>2012-01-13T19:30:01Z</time>
      </trkpt>
      <trkpt lat="45.83387" lon="4.81793">
        <ele>280</ele>
        <time>2012-01-13T19:30:05Z</time>
      </trkpt>
      <trkpt lat="45.83388" lon="4.81798">
        <ele>279</ele>
        <time>2012-01-13T19:30:14Z</time>
      </trkpt>
      <trkpt lat="45.83388" lon="4.81799">
        <ele>279</ele>
        <time>2012-01-13T19:30:15Z</time>
      </trkpt>
      <trkpt lat="45.83387" lon="4.81804">
        <ele>279</ele>
        <time>2012-01-13T19:30:19Z</time>
      </trkpt>
      <trkpt lat="45.83387" lon="4.8181">
        <ele>278</ele>
        <time>2012-01-13T19:30:22Z</time>
      </trkpt>
      <trkpt lat="45.83386" lon="4.81816">
        <ele>278</ele>
        <time>2012-01-13T19:30:25Z</time>
      </trkpt>
      <trkpt lat="45.83385" lon="4.81819">
        <ele>277</ele>
        <time>2012-01-13T19:30:27Z</time>
      </trkpt>
      <trkpt lat="45.83384" lon="4.81825">
        <ele>277</ele>
        <time>2012-01-13T19:30:29Z</time>
      </trkpt>
      <trkpt lat="45.83384" lon="4.81835">
        <ele>266</ele>
        <time>2012-01-13T19:30:32Z</time>
      </trkpt>
      <trkpt lat="45.83384" lon="4.81839">
        <ele>266</ele>
        <time>2012-01-13T19:30:33Z</time>
      </trkpt>
      <trkpt lat="45.83384" lon="4.81843">
        <ele>266</ele>
        <time>2012-01-13T19:30:34Z</time>
      </trkpt>
      <trkpt lat="45.83383" lon="4.81863">
        <ele>264</ele>
        <time>2012-01-13T19:30:39Z</time>
      </trkpt>
      <trkpt lat="45.83382" lon="4.81879">
        <ele>262</ele>
        <time>2012-01-13T19:30:43Z</time>
      </trkpt>
      <trkpt lat="45.83381" lon="4.81892">
        <ele>261</ele>
        <time>2012-01-13T19:30:47Z</time>
      </trkpt>
      <trkpt lat="45.83381" lon="4.81896">
        <ele>261</ele>
        <time>2012-01-13T19:30:48Z</time>
      </trkpt>
      <trkpt lat="45.83381" lon="4.81901">
        <ele>260</ele>
        <time>2012-01-13T19:30:49Z</time>
      </trkpt>
      <trkpt lat="45.83383" lon="4.81917">
        <ele>259</ele>
        <time>2012-01-13T19:30:53Z</time>
      </trkpt>
      <trkpt lat="45.83384" lon="4.81921">
        <ele>251</ele>
        <time>2012-01-13T19:30:54Z</time>
      </trkpt>
      <trkpt lat="45.83386" lon="4.81933">
        <ele>250</ele>
        <time>2012-01-13T19:30:57Z</time>
      </trkpt>
      <trkpt lat="45.83387" lon="4.81935">
        <ele>250</ele>
        <time>2012-01-13T19:30:58Z</time>
      </trkpt>
      <trkpt lat="45.8339" lon="4.81946">
        <ele>249</ele>
        <time>2012-01-13T19:31:01Z</time>
      </trkpt>
      <trkpt lat="45.83393" lon="4.81952">
        <ele>249</ele>
        <time>2012-01-13T19:31:03Z</time>
      </trkpt>
      <trkpt lat="45.834" lon="4.81967">
        <ele>247</ele>
        <time>2012-01-13T19:31:08Z</time>
      </trkpt>
      <trkpt lat="45.83406" lon="4.81976">
        <ele>246</ele>
        <time>2012-01-13T19:31:12Z</time>
      </trkpt>
      <trkpt lat="45.83407" lon="4.81979">
        <ele>246</ele>
        <time>2012-01-13T19:31:13Z</time>
      </trkpt>
      <trkpt lat="45.83413" lon="4.81988">
        <ele>245</ele>
        <time>2012-01-13T19:31:16Z</time>
      </trkpt>
      <trkpt lat="45.83416" lon="4.81991">
        <ele>244</ele>
        <time>2012-01-13T19:31:18Z</time>
      </trkpt>
      <trkpt lat="45.83417" lon="4.81993">
        <ele>243</ele>
        <time>2012-01-13T19:31:20Z</time>
      </trkpt>
      <trkpt lat="45.83417" lon="4.81996">
        <ele>243</ele>
        <time>2012-01-13T19:31:25Z</time>
      </trkpt>
      <trkpt lat="45.83417" lon="4.81995">
        <ele>243</ele>
        <time>2012-01-13T19:31:32Z</time>
      </trkpt>
      <trkpt lat="45.83421" lon="4.81996">
        <ele>243</ele>
        <time>2012-01-13T19:31:52Z</time>
      </trkpt>
      <trkpt lat="45.83418" lon="4.81998">
        <ele>243</ele>
        <time>2012-01-13T19:32:04Z</time>
      </trkpt>
      <trkpt lat="45.83416" lon="4.81999">
        <ele>242</ele>
        <time>2012-01-13T19:32:19Z</time>
      </trkpt>
      <trkpt lat="45.83417" lon="4.81999">
        <ele>242</ele>
        <time>2012-01-13T19:32:26Z</time>
      </trkpt>
      <trkpt lat="45.83418" lon="4.82">
        <ele>242</ele>
        <time>2012-01-13T19:32:27Z</time>
      </trkpt>
      <trkpt lat="45.83418" lon="4.82006">
        <ele>240</ele>
        <time>2012-01-13T19:32:29Z</time>
      </trkpt>
      <trkpt lat="45.83419" lon="4.82024">
        <ele>237</ele>
        <time>2012-01-13T19:32:34Z</time>
      </trkpt>
      <trkpt lat="45.83419" lon="4.82028">
        <ele>237</ele>
        <time>2012-01-13T19:32:35Z</time>
      </trkpt>
      <trkpt lat="45.83419" lon="4.82047">
        <ele>235</ele>
        <time>2012-01-13T19:32:40Z</time>
      </trkpt>
      <trkpt lat="45.83419" lon="4.82051">
        <ele>235</ele>
        <time>2012-01-13T19:32:41Z</time>
      </trkpt>
      <trkpt lat="45.83418" lon="4.82063">
        <ele>234</ele>
        <time>2012-01-13T19:32:44Z</time>
      </trkpt>
      <trkpt lat="45.83414" lon="4.82077">
        <ele>235</ele>
        <time>2012-01-13T19:32:48Z</time>
      </trkpt>
      <trkpt lat="45.83412" lon="4.82079">
        <ele>235</ele>
        <time>2012-01-13T19:32:49Z</time>
      </trkpt>
      <trkpt lat="45.83401" lon="4.82077">
        <ele>237</ele>
        <time>2012-01-13T19:32:53Z</time>
      </trkpt>
      <trkpt lat="45.83397" lon="4.82075">
        <ele>238</ele>
        <time>2012-01-13T19:32:55Z</time>
      </trkpt>
      <trkpt lat="45.83395" lon="4.82075">
        <ele>238</ele>
        <time>2012-01-13T19:32:56Z</time>
      </trkpt>
      <trkpt lat="45.83394" lon="4.82075">
        <ele>238</ele>
        <time>2012-01-13T19:32:57Z</time>
      </trkpt>
      <trkpt lat="45.83393" lon="4.82076">
        <ele>238</ele>
        <time>2012-01-13T19:32:58Z</time>
      </trkpt>
      <trkpt lat="45.83392" lon="4.82079">
        <ele>238</ele>
        <time>2012-01-13T19:33:02Z</time>
      </trkpt>
      <trkpt lat="45.83391" lon="4.8208">
        <ele>238</ele>
        <time>2012-01-13T19:33:03Z</time>
      </trkpt>
      <trkpt lat="45.83388" lon="4.82086">
        <ele>241</ele>
        <time>2012-01-13T19:33:06Z</time>
      </trkpt>
      <trkpt lat="45.83386" lon="4.82091">
        <ele>241</ele>
        <time>2012-01-13T19:33:08Z</time>
      </trkpt>
      <trkpt lat="45.83384" lon="4.82095">
        <ele>242</ele>
        <time>2012-01-13T19:33:10Z</time>
      </trkpt>
      <trkpt lat="45.83381" lon="4.821">
        <ele>242</ele>
        <time>2012-01-13T19:33:13Z</time>
      </trkpt>
      <trkpt lat="45.83379" lon="4.82105">
        <ele>243</ele>
        <time>2012-01-13T19:33:16Z</time>
      </trkpt>
      <trkpt lat="45.83377" lon="4.82108">
        <ele>243</ele>
        <time>2012-01-13T19:33:18Z</time>
      </trkpt>
      <trkpt lat="45.83374" lon="4.82112">
        <ele>244</ele>
        <time>2012-01-13T19:33:21Z</time>
      </trkpt>
      <trkpt lat="45.83372" lon="4.82115">
        <ele>244</ele>
        <time>2012-01-13T19:33:23Z</time>
      </trkpt>
      <trkpt lat="45.8337" lon="4.8212">
        <ele>244</ele>
        <time>2012-01-13T19:33:27Z</time>
      </trkpt>
      <trkpt lat="45.83369" lon="4.82123">
        <ele>245</ele>
        <time>2012-01-13T19:33:29Z</time>
      </trkpt>
      <trkpt lat="45.83364" lon="4.8213">
        <ele>246</ele>
        <time>2012-01-13T19:33:34Z</time>
      </trkpt>
      <trkpt lat="45.8336" lon="4.82134">
        <ele>247</ele>
        <time>2012-01-13T19:33:37Z</time>
      </trkpt>
      <trkpt lat="45.83358" lon="4.82136">
        <ele>247</ele>
        <time>2012-01-13T19:33:39Z</time>
      </trkpt>
      <trkpt lat="45.83352" lon="4.8214">
        <ele>248</ele>
        <time>2012-01-13T19:33:45Z</time>
      </trkpt>
      <trkpt lat="45.83344" lon="4.82144">
        <ele>250</ele>
        <time>2012-01-13T19:33:52Z</time>
      </trkpt>
      <trkpt lat="45.83343" lon="4.82144">
        <ele>250</ele>
        <time>2012-01-13T19:33:53Z</time>
      </trkpt>
      <trkpt lat="45.83341" lon="4.82145">
        <ele>250</ele>
        <time>2012-01-13T19:33:54Z</time>
      </trkpt>
      <trkpt lat="45.83338" lon="4.82145">
        <ele>251</ele>
        <time>2012-01-13T19:33:56Z</time>
      </trkpt>
      <trkpt lat="45.8333" lon="4.82146">
        <ele>263</ele>
        <time>2012-01-13T19:34:01Z</time>
      </trkpt>
      <trkpt lat="45.83325" lon="4.82146">
        <ele>263</ele>
        <time>2012-01-13T19:34:04Z</time>
      </trkpt>
      <trkpt lat="45.83324" lon="4.82147">
        <ele>263</ele>
        <time>2012-01-13T19:34:05Z</time>
      </trkpt>
      <trkpt lat="45.83321" lon="4.82147">
        <ele>264</ele>
        <time>2012-01-13T19:34:07Z</time>
      </trkpt>
      <trkpt lat="45.83311" lon="4.82148">
        <ele>265</ele>
        <time>2012-01-13T19:34:13Z</time>
      </trkpt>
      <trkpt lat="45.83307" lon="4.82149">
        <ele>266</ele>
        <time>2012-01-13T19:34:15Z</time>
      </trkpt>
      <trkpt lat="45.83303" lon="4.82149">
        <ele>267</ele>
        <time>2012-01-13T19:34:18Z</time>
      </trkpt>
      <trkpt lat="45.833" lon="4.82155">
        <ele>267</ele>
        <time>2012-01-13T19:34:22Z</time>
      </trkpt>
      <trkpt lat="45.833" lon="4.82156">
        <ele>267</ele>
        <time>2012-01-13T19:34:23Z</time>
      </trkpt>
      <trkpt lat="45.833" lon="4.82152">
        <ele>267</ele>
        <time>2012-01-13T19:35:01Z</time>
      </trkpt>
      <trkpt lat="45.83302" lon="4.82151">
        <ele>267</ele>
        <time>2012-01-13T19:35:09Z</time>
      </trkpt>
      <trkpt lat="45.83301" lon="4.82155">
        <ele>267</ele>
        <time>2012-01-13T19:35:16Z</time>
      </trkpt>
      <trkpt lat="45.83302" lon="4.82155">
        <ele>267</ele>
        <time>2012-01-13T19:35:18Z</time>
      </trkpt>
      <trkpt lat="45.83305" lon="4.82162">
        <ele>266</ele>
        <time>2012-01-13T19:35:21Z</time>
      </trkpt>
      <trkpt lat="45.83306" lon="4.82164">
        <ele>266</ele>
        <time>2012-01-13T19:35:22Z</time>
      </trkpt>
      <trkpt lat="45.83312" lon="4.8217">
        <ele>275</ele>
        <time>2012-01-13T19:35:25Z</time>
      </trkpt>
      <trkpt lat="45.83314" lon="4.82172">
        <ele>274</ele>
        <time>2012-01-13T19:35:26Z</time>
      </trkpt>
      <trkpt lat="45.83316" lon="4.82175">
        <ele>274</ele>
        <time>2012-01-13T19:35:27Z</time>
      </trkpt>
      <trkpt lat="45.83321" lon="4.82178">
        <ele>273</ele>
        <time>2012-01-13T19:35:29Z</time>
      </trkpt>
      <trkpt lat="45.83329" lon="4.82189">
        <ele>275</ele>
        <time>2012-01-13T19:35:33Z</time>
      </trkpt>
      <trkpt lat="45.83331" lon="4.82191">
        <ele>276</ele>
        <time>2012-01-13T19:35:34Z</time>
      </trkpt>
      <trkpt lat="45.83342" lon="4.82207">
        <ele>262</ele>
        <time>2012-01-13T19:35:40Z</time>
      </trkpt>
      <trkpt lat="45.83354" lon="4.82223">
        <ele>264</ele>
        <time>2012-01-13T19:35:46Z</time>
      </trkpt>
      <trkpt lat="45.83356" lon="4.82226">
        <ele>264</ele>
        <time>2012-01-13T19:35:47Z</time>
      </trkpt>
      <trkpt lat="45.83363" lon="4.82235">
        <ele>264</ele>
        <time>2012-01-13T19:35:51Z</time>
      </trkpt>
      <trkpt lat="45.83369" lon="4.82245">
        <ele>263</ele>
        <time>2012-01-13T19:35:55Z</time>
      </trkpt>
      <trkpt lat="45.83371" lon="4.82247">
        <ele>262</ele>
        <time>2012-01-13T19:35:56Z</time>
      </trkpt>
      <trkpt lat="45.8338" lon="4.82258">
        <ele>270</ele>
        <time>2012-01-13T19:36:01Z</time>
      </trkpt>
      <trkpt lat="45.83383" lon="4.82263">
        <ele>270</ele>
        <time>2012-01-13T19:36:03Z</time>
      </trkpt>
      <trkpt lat="45.83389" lon="4.82269">
        <ele>269</ele>
        <time>2012-01-13T19:36:06Z</time>
      </trkpt>
      <trkpt lat="45.83398" lon="4.82276">
        <ele>268</ele>
        <time>2012-01-13T19:36:10Z</time>
      </trkpt>
      <trkpt lat="45.834" lon="4.82278">
        <ele>268</ele>
        <time>2012-01-13T19:36:11Z</time>
      </trkpt>
      <trkpt lat="45.83411" lon="4.82285">
        <ele>268</ele>
        <time>2012-01-13T19:36:16Z</time>
      </trkpt>
      <trkpt lat="45.83417" lon="4.8229">
        <ele>252</ele>
        <time>2012-01-13T19:36:19Z</time>
      </trkpt>
      <trkpt lat="45.83422" lon="4.82293">
        <ele>253</ele>
        <time>2012-01-13T19:36:21Z</time>
      </trkpt>
      <trkpt lat="45.83431" lon="4.82303">
        <ele>253</ele>
        <time>2012-01-13T19:36:25Z</time>
      </trkpt>
      <trkpt lat="45.83434" lon="4.82307">
        <ele>254</ele>
        <time>2012-01-13T19:36:26Z</time>
      </trkpt>
      <trkpt lat="45.83439" lon="4.82316">
        <ele>254</ele>
        <time>2012-01-13T19:36:29Z</time>
      </trkpt>
      <trkpt lat="45.83441" lon="4.82319">
        <ele>254</ele>
        <time>2012-01-13T19:36:30Z</time>
      </trkpt>
      <trkpt lat="45.83445" lon="4.82328">
        <ele>254</ele>
        <time>2012-01-13T19:36:33Z</time>
      </trkpt>
    </trkseg>
  </trk>
</gpx>